MYDAX CHILLER For Sector 8 Monochromators  S/N 120-0453             

Key: (Temperatures in Centigrade) 
A) System is ON or OFF
B) Actual Tank Temperature as sensed by the Output RTD                   
C) Set point Temperature 
D) Calculated temperature of the refrigerant line at the suction pressure transducer
E) Pressure in PSIg of the refrigerant line at the suction pressure transducer
F & G) Temperature in the refrigerant line at the Superheat and Condenser RTDs
H) Temperature in the refrigerant line at the Discharge RTD (2-stage design only)
I) Temperature in the refrigerant line at the Subcooler RTD (inactive)
J) Valve drives of evaporator 

----------- DATE ----------: A    B     C     D     E    F    G    H   I J

 last update: Sun Jul 23 07:31:51 PDT 2017
Sun Jul 23 07:31:34 PDT 2017 ON: 19.99 +20.0 19.67 - 4.2 33.2 00 14 4610 0A1E Alarm State:  0
Sun Jul 23 07:30:32 PDT 2017 ON: 20.02 +20.0 19.69 - 4.3 33.2 00 14 4702 090A Alarm State:  0
Sun Jul 23 07:29:31 PDT 2017 ON: 19.98 +20.0 19.62 - 2.9 34.2 02 14 470C 0918 Alarm State:  0
Sun Jul 23 07:28:29 PDT 2017 ON: 20.00 +20.0 19.67 - 4.1 33.4 00 14 470F 0A0C Alarm State:  0
Sun Jul 23 07:27:28 PDT 2017 ON: 20.01 +20.0 19.64 - 2.9 33.8 00 14 4810 091C Alarm State:  0
Sun Jul 23 07:26:26 PDT 2017 ON: 20.01 +20.0 19.63 - 2.9 34.0 0A 14 4716 0907 Alarm State:  0
Sun Jul 23 07:25:25 PDT 2017 ON: 20.00 +20.0 19.67 - 4.2 33.4 02 14 4613 091C Alarm State:  0
Sun Jul 23 07:24:23 PDT 2017 ON: 20.02 +20.0 19.64 - 3.6 33.4 00 14 470D 0924 Alarm State:  0
Sun Jul 23 07:23:22 PDT 2017 ON: 20.01 +20.0 19.63 - 3.0 33.9 02 14 4705 0923 Alarm State:  0
Sun Jul 23 07:22:21 PDT 2017 ON: 19.98 +20.0 19.63 - 3.8 33.4 07 14 4718 0A0B Alarm State:  0
Sun Jul 23 07:21:19 PDT 2017 ON: 20.02 +20.0 19.69 - 3.9 33.3 05 14 4803 0925 Alarm State:  0
Sun Jul 23 07:20:18 PDT 2017 ON: 20.02 +20.0 19.68 - 4.0 33.6 00 14 4717 0910 Alarm State:  0
Sun Jul 23 07:19:16 PDT 2017 ON: 20.00 +20.0 19.63 - 2.9 33.8 00 14 4712 091E Alarm State:  0
Sun Jul 23 07:18:15 PDT 2017 ON: 19.98 +20.0 19.66 - 4.0 33.3 07 14 4706 0A1F Alarm State:  0
Sun Jul 23 07:17:13 PDT 2017 ON: 20.01 +20.0 19.64 - 3.0 33.8 00 14 4804 0924 Alarm State:  0
Sun Jul 23 07:16:12 PDT 2017 ON: 20.00 +20.0 19.64 - 2.9 34.1 07 14 471B 0904 Alarm State:  0
Sun Jul 23 07:15:10 PDT 2017 ON: 20.00 +20.0 19.67 - 3.5 34.1 02 14 462D 0914 Alarm State:  0
Sun Jul 23 07:14:09 PDT 2017 ON: 20.00 +20.0 19.68 - 4.2 33.6 00 14 4611 0925 Alarm State:  0
Sun Jul 23 07:13:07 PDT 2017 ON: 20.02 +20.0 19.69 - 4.4 33.1 00 14 4632 0919 Alarm State:  0
Sun Jul 23 07:12:06 PDT 2017 ON: 19.98 +20.0 19.62 - 3.0 34.2 05 14 470F 091E Alarm State:  0
Sun Jul 23 07:11:04 PDT 2017 ON: 20.00 +20.0 19.69 - 4.2 33.4 0D 14 470E 090C Alarm State:  0
Sun Jul 23 07:10:03 PDT 2017 ON: 20.02 +20.0 19.67 - 4.2 33.2 00 14 4728 0928 Alarm State:  0
Sun Jul 23 07:09:01 PDT 2017 ON: 19.99 +20.0 19.62 - 3.1 34.2 0A 14 4806 0918 Alarm State:  0
Sun Jul 23 07:08:00 PDT 2017 ON: 20.02 +20.0 19.68 - 4.3 33.8 05 14 4729 0907 Alarm State:  0
Sun Jul 23 07:06:58 PDT 2017 ON: 20.00 +20.0 19.66 - 3.9 33.9 00 14 4702 091B Alarm State:  0
Sun Jul 23 07:05:57 PDT 2017 ON: 20.02 +20.0 19.72 - 4.9 33.1 0D 12 4629 0916 Alarm State:  0
Sun Jul 23 07:04:55 PDT 2017 ON: 20.00 +20.0 19.58 - 2.5 34.0 04 14 4717 0920 Alarm State:  0
Sun Jul 23 07:03:54 PDT 2017 ON: 20.00 +20.0 19.68 - 4.1 33.5 00 14 4626 0A08 Alarm State:  0
Sun Jul 23 07:02:52 PDT 2017 ON: 20.02 +20.0 19.69 - 4.3 33.3 08 14 470C 0916 Alarm State:  0
Sun Jul 23 07:01:51 PDT 2017 ON: 20.01 +20.0 19.63 - 3.1 33.7 00 14 4706 0917 Alarm State:  0
Sun Jul 23 07:00:49 PDT 2017 ON: 19.99 +20.0 19.68 - 4.1 33.6 05 14 4614 0A00 Alarm State:  0
Sun Jul 23 06:59:48 PDT 2017 ON: 20.02 +20.0 19.71 - 4.9 33.1 0A 13 461A 0913 Alarm State:  0
Sun Jul 23 06:58:46 PDT 2017 ON: 19.99 +20.0 19.60 - 2.5 34.1 01 14 4704 0919 Alarm State:  0
Sun Jul 23 06:57:45 PDT 2017 ON: 19.99 +20.0 19.68 - 4.1 33.2 07 14 4702 0A18 Alarm State:  0
Sun Jul 23 06:56:43 PDT 2017 ON: 20.00 +20.0 19.66 - 3.6 33.6 00 14 4804 0925 Alarm State:  0
Sun Jul 23 06:55:42 PDT 2017 ON: 20.00 +20.0 19.62 - 2.9 33.8 00 14 4816 090E Alarm State:  0
Sun Jul 23 06:54:40 PDT 2017 ON: 20.02 +20.0 19.68 - 3.5 33.7 02 14 4730 0920 Alarm State:  0
Sun Jul 23 06:53:39 PDT 2017 ON: 20.00 +20.0 19.62 - 2.8 34.0 02 14 4724 0906 Alarm State:  0
Sun Jul 23 06:52:37 PDT 2017 ON: 20.01 +20.0 19.68 - 4.5 33.1 07 14 461E 091A Alarm State:  0
Sun Jul 23 06:51:36 PDT 2017 ON: 20.02 +20.0 19.64 - 3.5 33.4 00 14 4713 091B Alarm State:  0
Sun Jul 23 06:50:34 PDT 2017 ON: 19.99 +20.0 19.66 - 3.8 33.7 05 14 4702 091F Alarm State:  0
Sun Jul 23 06:49:33 PDT 2017 ON: 20.03 +20.0 19.73 - 5.2 32.8 0D 12 4706 0927 Alarm State:  0
Sun Jul 23 06:48:31 PDT 2017 ON: 19.98 +20.0 19.60 - 2.6 34.1 04 14 4723 0921 Alarm State:  0
Sun Jul 23 06:47:30 PDT 2017 ON: 20.00 +20.0 19.67 - 3.8 33.9 02 14 470F 0920 Alarm State:  0
Sun Jul 23 06:46:28 PDT 2017 ON: 20.01 +20.0 19.69 - 4.5 33.3 0D 14 4702 0903 Alarm State:  0
Sun Jul 23 06:45:27 PDT 2017 ON: 20.01 +20.0 19.66 - 3.5 33.5 00 14 472E 091D Alarm State:  0
Sun Jul 23 06:44:25 PDT 2017 ON: 19.99 +20.0 19.64 - 3.6 34.0 05 14 4719 0930 Alarm State:  0
Sun Jul 23 06:43:24 PDT 2017 ON: 20.00 +20.0 19.69 - 4.6 33.1 0D 14 4715 0A1D Alarm State:  0
Sun Jul 23 06:42:22 PDT 2017 ON: 19.99 +20.0 19.61 - 2.3 34.3 0A 14 481F 0918 Alarm State:  0
Sun Jul 23 06:41:21 PDT 2017 ON: 20.00 +20.0 19.63 - 3.0 34.0 05 14 480B 091D Alarm State:  0
Sun Jul 23 06:40:19 PDT 2017 ON: 20.00 +20.0 19.66 - 3.6 34.1 0A 14 4705 0908 Alarm State:  0
Sun Jul 23 06:39:18 PDT 2017 ON: 20.01 +20.0 19.70 - 4.9 33.2 0D 14 4610 0A1B Alarm State:  0
Sun Jul 23 06:38:16 PDT 2017 ON: 19.99 +20.0 19.60 - 2.4 34.1 00 14 4712 0928 Alarm State:  0
Sun Jul 23 06:37:15 PDT 2017 ON: 20.01 +20.0 19.66 - 3.4 33.7 00 14 4714 0906 Alarm State:  0
Sun Jul 23 06:36:13 PDT 2017 ON: 19.99 +20.0 19.58 - 2.5 34.2 07 14 4717 0917 Alarm State:  0
Sun Jul 23 06:35:12 PDT 2017 ON: 20.00 +20.0 19.69 - 4.2 33.4 00 14 462F 0921 Alarm State:  0
Sun Jul 23 06:34:10 PDT 2017 ON: 20.03 +20.0 19.70 - 4.5 33.4 0D 13 4712 0918 Alarm State:  0
Sun Jul 23 06:33:09 PDT 2017 ON: 20.03 +20.0 19.66 - 4.3 33.0 00 14 462E 0928 Alarm State:  0
Sun Jul 23 06:32:07 PDT 2017 ON: 19.99 +20.0 19.64 - 3.4 34.1 0A 14 462E 092E Alarm State:  0
Sun Jul 23 06:31:06 PDT 2017 ON: 20.01 +20.0 19.69 - 4.5 33.4 05 14 4625 0922 Alarm State:  0
Sun Jul 23 06:30:04 PDT 2017 ON: 20.01 +20.0 19.65 - 3.1 33.7 00 14 4726 090A Alarm State:  0
Sun Jul 23 06:29:03 PDT 2017 ON: 20.01 +20.0 19.61 - 2.8 33.9 07 14 4727 0916 Alarm State:  0
Sun Jul 23 06:28:02 PDT 2017 ON: 20.02 +20.0 19.66 - 4.0 33.6 00 14 4628 0902 Alarm State:  0
Sun Jul 23 06:27:00 PDT 2017 ON: 19.98 +20.0 19.64 - 3.1 34.1 0A 14 461D 092B Alarm State:  0
Sun Jul 23 06:25:59 PDT 2017 ON: 20.01 +20.0 19.68 - 4.5 33.1 02 14 4603 0A03 Alarm State:  0
Sun Jul 23 06:24:57 PDT 2017 ON: 20.01 +20.0 19.65 - 3.8 33.4 00 14 4630 0903 Alarm State:  0
Sun Jul 23 06:23:56 PDT 2017 ON: 19.99 +20.0 19.65 - 3.7 33.9 05 14 4630 0928 Alarm State:  0
Sun Jul 23 06:22:54 PDT 2017 ON: 20.02 +20.0 19.71 - 4.9 33.1 0D 13 4631 090E Alarm State:  0
Sun Jul 23 06:21:53 PDT 2017 ON: 20.01 +20.0 19.60 - 2.8 33.9 00 14 4718 0921 Alarm State:  0
Sun Jul 23 06:20:51 PDT 2017 ON: 20.00 +20.0 19.66 - 3.9 33.4 02 14 462C 092F Alarm State:  0
Sun Jul 23 06:19:50 PDT 2017 ON: 20.03 +20.0 19.69 - 4.6 32.9 08 14 470B 0902 Alarm State:  0
Sun Jul 23 06:18:48 PDT 2017 ON: 19.99 +20.0 19.62 - 2.9 34.1 05 14 470E 0921 Alarm State:  0
Sun Jul 23 06:17:47 PDT 2017 ON: 20.00 +20.0 19.64 - 3.0 34.1 05 14 4722 091A Alarm State:  0
Sun Jul 23 06:16:45 PDT 2017 ON: 20.00 +20.0 19.68 - 3.9 33.9 02 14 4701 0928 Alarm State:  0
Sun Jul 23 06:15:44 PDT 2017 ON: 20.00 +20.0 19.66 - 4.0 33.5 07 14 4717 0925 Alarm State:  0
Sun Jul 23 06:14:42 PDT 2017 ON: 20.02 +20.0 19.71 - 4.6 33.2 0D 13 4722 0916 Alarm State:  0
Sun Jul 23 06:13:41 PDT 2017 ON: 20.01 +20.0 19.65 - 3.3 33.7 00 14 472A 0923 Alarm State:  0
Sun Jul 23 06:12:39 PDT 2017 ON: 20.00 +20.0 19.65 - 3.3 34.2 0A 14 4723 0929 Alarm State:  0
Sun Jul 23 06:11:38 PDT 2017 ON: 20.00 +20.0 19.67 - 3.5 34.1 05 14 4715 0901 Alarm State:  0
Sun Jul 23 06:10:36 PDT 2017 ON: 20.01 +20.0 19.69 - 4.6 33.3 07 14 4617 0915 Alarm State:  0
Sun Jul 23 06:09:35 PDT 2017 ON: 20.00 +20.0 19.60 - 2.8 33.8 00 14 4710 0919 Alarm State:  0
Sun Jul 23 06:08:33 PDT 2017 ON: 20.00 +20.0 19.66 - 4.1 33.6 07 14 4626 0929 Alarm State:  0
Sun Jul 23 06:07:32 PDT 2017 ON: 20.04 +20.0 19.74 - 5.4 32.4 08 11 462E 0912 Alarm State:  0
Sun Jul 23 06:06:30 PDT 2017 ON: 19.98 +20.0 19.62 - 3.0 34.2 0A 14 470C 0922 Alarm State:  0
Sun Jul 23 06:05:29 PDT 2017 ON: 20.00 +20.0 19.69 - 4.6 33.3 05 14 4631 0A19 Alarm State:  0
Sun Jul 23 06:04:27 PDT 2017 ON: 20.00 +20.0 19.60 - 2.5 34.0 00 14 4806 0924 Alarm State:  0
Sun Jul 23 06:03:26 PDT 2017 ON: 20.00 +20.0 19.66 - 3.6 33.9 07 14 4725 0910 Alarm State:  0
Sun Jul 23 06:02:24 PDT 2017 ON: 20.03 +20.0 19.70 - 4.5 33.7 0D 13 471C 090E Alarm State:  0
Sun Jul 23 06:01:23 PDT 2017 ON: 20.00 +20.0 19.70 - 4.5 33.4 0A 13 4615 0923 Alarm State:  0
Sun Jul 23 06:00:21 PDT 2017 ON: 20.01 +20.0 19.63 - 3.4 33.5 00 14 470B 0A02 Alarm State:  0
Sun Jul 23 05:59:20 PDT 2017 ON: 19.98 +20.0 19.61 - 3.0 34.3 07 14 4711 0A0E Alarm State:  0
Sun Jul 23 05:58:18 PDT 2017 ON: 20.00 +20.0 19.68 - 4.4 33.4 02 14 4631 0A2B Alarm State:  0
Sun Jul 23 05:57:17 PDT 2017 ON: 20.02 +20.0 19.68 - 4.6 32.9 00 14 4722 0A19 Alarm State:  0
Sun Jul 23 05:56:15 PDT 2017 ON: 19.98 +20.0 19.63 - 3.3 34.1 0A 14 4814 0A04 Alarm State:  0
Sun Jul 23 05:55:14 PDT 2017 ON: 20.01 +20.0 19.67 - 4.3 33.3 07 14 4818 0915 Alarm State:  0
Sun Jul 23 05:54:12 PDT 2017 ON: 20.02 +20.0 19.66 - 3.7 33.6 00 14 482D 0926 Alarm State:  0
Sun Jul 23 05:53:11 PDT 2017 ON: 20.01 +20.0 19.63 - 3.0 33.7 00 14 472B 0911 Alarm State:  0
Sun Jul 23 05:52:09 PDT 2017 ON: 20.00 +20.0 19.67 - 4.2 33.3 00 14 462C 0926 Alarm State:  0
Sun Jul 23 05:51:08 PDT 2017 ON: 20.02 +20.0 19.69 - 4.7 33.1 0A 14 4714 0911 Alarm State:  0
Sun Jul 23 05:50:06 PDT 2017 ON: 19.99 +20.0 19.63 - 2.9 34.2 0A 14 4712 0906 Alarm State:  0
Sun Jul 23 05:49:05 PDT 2017 ON: 20.01 +20.0 19.69 - 4.5 33.1 07 14 462A 0910 Alarm State:  0
Sun Jul 23 05:48:03 PDT 2017 ON: 20.02 +20.0 19.71 - 4.6 33.4 0D 13 462E 0909 Alarm State:  0
Sun Jul 23 05:47:02 PDT 2017 ON: 20.04 +20.0 19.72 - 5.2 33.0 0A 12 4605 091D Alarm State:  0
Sun Jul 23 05:46:00 PDT 2017 ON: 20.00 +20.0 19.63 - 2.8 33.9 02 14 4627 0902 Alarm State:  0
Sun Jul 23 05:44:59 PDT 2017 ON: 19.99 +20.0 19.66 - 4.1 33.2 02 14 4626 0A04 Alarm State:  0
Sun Jul 23 05:43:57 PDT 2017 ON: 20.03 +20.0 19.69 - 4.0 33.3 08 14 471B 091A Alarm State:  0
Sun Jul 23 05:42:56 PDT 2017 ON: 20.01 +20.0 19.64 - 3.1 33.7 02 14 471C 0901 Alarm State:  0
Sun Jul 23 05:41:55 PDT 2017 ON: 20.00 +20.0 19.67 - 3.8 34.0 05 14 4700 0916 Alarm State:  0
Sun Jul 23 05:40:53 PDT 2017 ON: 20.01 +20.0 19.67 - 4.1 33.5 07 14 4709 0910 Alarm State:  0
Sun Jul 23 05:39:52 PDT 2017 ON: 20.03 +20.0 19.71 - 4.9 33.0 0D 13 4703 0911 Alarm State:  0
Sun Jul 23 05:38:50 PDT 2017 ON: 20.00 +20.0 19.62 - 2.8 34.2 05 14 470E 0911 Alarm State:  0
Sun Jul 23 05:37:49 PDT 2017 ON: 20.00 +20.0 19.71 - 4.4 33.2 0D 13 4617 0920 Alarm State:  0
Sun Jul 23 05:36:47 PDT 2017 ON: 20.01 +20.0 19.69 - 4.4 33.2 0D 14 470F 0901 Alarm State:  0
Sun Jul 23 05:35:46 PDT 2017 ON: 20.02 +20.0 19.65 - 3.8 33.5 00 14 4721 0913 Alarm State:  0
Sun Jul 23 05:34:44 PDT 2017 ON: 19.99 +20.0 19.63 - 3.1 34.2 0A 14 4720 090F Alarm State:  0
Sun Jul 23 05:33:43 PDT 2017 ON: 20.01 +20.0 19.66 - 4.1 33.6 07 14 470C 0910 Alarm State:  0
Sun Jul 23 05:32:41 PDT 2017 ON: 20.01 +20.0 19.69 - 4.5 33.4 0D 14 4711 0914 Alarm State:  0
Sun Jul 23 05:31:40 PDT 2017 ON: 20.03 +20.0 19.68 - 4.5 33.1 02 14 471F 090D Alarm State:  0
Sun Jul 23 05:30:38 PDT 2017 ON: 20.00 +20.0 19.67 - 3.8 33.9 05 14 470C 0919 Alarm State:  0
Sun Jul 23 05:29:37 PDT 2017 ON: 20.01 +20.0 19.68 - 4.6 33.2 02 14 4706 0A02 Alarm State:  0
Sun Jul 23 05:28:35 PDT 2017 ON: 20.00 +20.0 19.59 - 2.3 34.1 04 14 4727 0929 Alarm State:  0
Sun Jul 23 05:27:34 PDT 2017 ON: 20.00 +20.0 19.66 - 3.8 33.6 00 14 4707 0A0B Alarm State:  0
Sun Jul 23 05:26:32 PDT 2017 ON: 19.98 +20.0 19.64 - 3.2 34.1 05 14 472C 0A08 Alarm State:  0
Sun Jul 23 05:25:31 PDT 2017 ON: 20.01 +20.0 19.70 - 4.7 33.3 0D 13 4722 0925 Alarm State:  0
Sun Jul 23 05:24:29 PDT 2017 ON: 20.02 +20.0 19.68 - 4.7 32.9 00 14 4719 0908 Alarm State:  0
Sun Jul 23 05:23:28 PDT 2017 ON: 19.98 +20.0 19.64 - 3.3 34.1 07 14 4721 092B Alarm State:  0
Sun Jul 23 05:22:26 PDT 2017 ON: 20.02 +20.0 19.68 - 4.2 33.5 00 14 4718 091D Alarm State:  0
Sun Jul 23 05:21:25 PDT 2017 ON: 20.02 +20.0 19.71 - 4.9 33.0 0D 13 470E 0907 Alarm State:  0
Sun Jul 23 05:20:23 PDT 2017 ON: 20.00 +20.0 19.63 - 2.7 34.0 02 14 4719 0918 Alarm State:  0
Sun Jul 23 05:19:22 PDT 2017 ON: 20.00 +20.0 19.65 - 3.8 33.7 00 14 4701 0927 Alarm State:  0
Sun Jul 23 05:18:20 PDT 2017 ON: 20.03 +20.0 19.70 - 5.1 32.7 08 13 4700 0900 Alarm State:  0
Sun Jul 23 05:17:19 PDT 2017 ON: 19.98 +20.0 19.62 - 2.9 34.1 00 14 470A 0918 Alarm State:  0
Sun Jul 23 05:16:17 PDT 2017 ON: 19.98 +20.0 19.66 - 4.1 33.5 05 14 4711 0A04 Alarm State:  0
Sun Jul 23 05:15:16 PDT 2017 ON: 20.00 +20.0 19.68 - 4.0 33.6 0D 14 480A 0924 Alarm State:  0
Sun Jul 23 05:14:14 PDT 2017 ON: 20.02 +20.0 19.69 - 4.2 33.7 0D 14 4807 091C Alarm State:  0
Sun Jul 23 05:13:13 PDT 2017 ON: 19.99 +20.0 19.65 - 3.3 34.2 0A 14 480D 091D Alarm State:  0
Sun Jul 23 05:12:11 PDT 2017 ON: 20.00 +20.0 19.66 - 3.5 34.1 0A 14 4808 090B Alarm State:  0
Sun Jul 23 05:11:10 PDT 2017 ON: 20.01 +20.0 19.68 - 4.3 33.8 05 14 470F 0920 Alarm State:  0
Sun Jul 23 05:10:08 PDT 2017 ON: 20.00 +20.0 19.66 - 4.1 33.7 05 14 4617 0909 Alarm State:  0
Sun Jul 23 05:09:07 PDT 2017 ON: 20.00 +20.0 19.70 - 4.6 33.2 0A 13 460D 0927 Alarm State:  0
Sun Jul 23 05:08:05 PDT 2017 ON: 20.00 +20.0 19.61 - 2.8 33.7 00 14 470F 091D Alarm State:  0
Sun Jul 23 05:07:04 PDT 2017 ON: 19.99 +20.0 19.65 - 4.0 33.3 00 14 4632 0920 Alarm State:  0
Sun Jul 23 05:06:02 PDT 2017 ON: 20.04 +20.0 19.72 - 4.9 32.8 0A 12 4712 091D Alarm State:  0
Sun Jul 23 05:05:01 PDT 2017 ON: 20.01 +20.0 19.63 - 3.6 33.4 00 14 4716 0928 Alarm State:  0
Sun Jul 23 05:03:59 PDT 2017 ON: 19.97 +20.0 19.63 - 3.9 33.3 07 14 4717 0A10 Alarm State:  0
Sun Jul 23 05:02:58 PDT 2017 ON: 20.03 +20.0 19.68 - 4.2 33.2 05 14 4806 0928 Alarm State:  0
Sun Jul 23 05:01:56 PDT 2017 ON: 20.00 +20.0 19.62 - 2.6 34.0 02 14 480B 091E Alarm State:  0
Sun Jul 23 05:00:55 PDT 2017 ON: 19.99 +20.0 19.65 - 3.8 33.9 02 14 472C 0927 Alarm State:  0
Sun Jul 23 04:59:53 PDT 2017 ON: 20.01 +20.0 19.69 - 4.4 33.3 0A 14 471F 0919 Alarm State:  0
Sun Jul 23 04:58:52 PDT 2017 ON: 20.02 +20.0 19.68 - 4.0 33.5 00 14 472D 091C Alarm State:  0
Sun Jul 23 04:57:50 PDT 2017 ON: 20.03 +20.0 19.70 - 4.8 32.9 05 13 4631 0907 Alarm State:  0
Sun Jul 23 04:56:49 PDT 2017 ON: 19.99 +20.0 19.63 - 3.0 34.1 07 14 462C 0907 Alarm State:  0
Sun Jul 23 04:55:47 PDT 2017 ON: 19.99 +20.0 19.67 - 4.2 33.4 00 14 461A 0A16 Alarm State:  0
Sun Jul 23 04:54:46 PDT 2017 ON: 20.02 +20.0 19.70 - 4.5 33.2 0D 13 4700 0914 Alarm State:  0
Sun Jul 23 04:53:44 PDT 2017 ON: 20.03 +20.0 19.68 - 4.4 33.2 00 14 4631 0923 Alarm State:  0
Sun Jul 23 04:52:43 PDT 2017 ON: 20.00 +20.0 19.63 - 3.3 34.1 05 14 461C 0906 Alarm State:  0
Sun Jul 23 04:51:41 PDT 2017 ON: 20.01 +20.0 19.69 - 4.3 33.3 02 14 4612 0A13 Alarm State:  0
Sun Jul 23 04:50:40 PDT 2017 ON: 20.01 +20.0 19.61 - 3.0 33.8 00 14 4716 091E Alarm State:  0
Sun Jul 23 04:49:38 PDT 2017 ON: 20.00 +20.0 19.69 - 4.1 33.6 07 14 4625 092F Alarm State:  0
Sun Jul 23 04:48:37 PDT 2017 ON: 20.02 +20.0 19.71 - 5.2 32.7 08 13 4703 0A0D Alarm State:  0
Sun Jul 23 04:47:35 PDT 2017 ON: 19.98 +20.0 19.61 - 3.0 34.2 02 14 4731 0925 Alarm State:  0
Sun Jul 23 04:46:34 PDT 2017 ON: 20.01 +20.0 19.68 - 4.1 33.9 02 14 472C 090B Alarm State:  0
Sun Jul 23 04:45:32 PDT 2017 ON: 20.00 +20.0 19.67 - 3.8 34.0 0A 14 472E 090C Alarm State:  0
Sun Jul 23 04:44:31 PDT 2017 ON: 19.98 +20.0 19.67 - 3.9 33.7 05 14 4802 0916 Alarm State:  0
Sun Jul 23 04:43:29 PDT 2017 ON: 20.02 +20.0 19.72 - 4.9 33.1 0D 12 4800 0928 Alarm State:  0
Sun Jul 23 04:42:28 PDT 2017 ON: 20.01 +20.0 19.61 - 2.5 34.0 02 14 4819 0910 Alarm State:  0
Sun Jul 23 04:41:26 PDT 2017 ON: 20.01 +20.0 19.68 - 4.4 33.2 07 14 471C 0923 Alarm State:  0
Sun Jul 23 04:40:25 PDT 2017 ON: 20.02 +20.0 19.65 - 4.0 33.2 00 14 480E 0902 Alarm State:  0
Sun Jul 23 04:39:23 PDT 2017 ON: 19.99 +20.0 19.64 - 3.5 34.1 0A 14 4806 092B Alarm State:  0
Sun Jul 23 04:38:22 PDT 2017 ON: 20.01 +20.0 19.69 - 4.5 33.2 0D 14 472A 091D Alarm State:  0
Sun Jul 23 04:37:20 PDT 2017 ON: 20.01 +20.0 19.63 - 3.1 33.7 00 14 4813 0914 Alarm State:  0
Sun Jul 23 04:36:19 PDT 2017 ON: 20.00 +20.0 19.66 - 3.9 33.5 05 14 4721 0928 Alarm State:  0
Sun Jul 23 04:35:17 PDT 2017 ON: 20.02 +20.0 19.70 - 4.5 33.3 0A 13 4723 091F Alarm State:  0
Sun Jul 23 04:34:16 PDT 2017 ON: 20.01 +20.0 19.70 - 4.4 33.3 0D 13 4631 090A Alarm State:  0
Sun Jul 23 04:33:14 PDT 2017 ON: 20.03 +20.0 19.67 - 4.3 33.1 00 14 4615 091F Alarm State:  0
Sun Jul 23 04:32:13 PDT 2017 ON: 19.99 +20.0 19.66 - 3.8 33.8 05 14 460A 0A0D Alarm State:  0
Sun Jul 23 04:31:11 PDT 2017 ON: 20.02 +20.0 19.71 - 4.9 33.1 0D 13 460E 0922 Alarm State:  0
Sun Jul 23 04:30:10 PDT 2017 ON: 20.01 +20.0 19.70 - 4.5 33.2 05 13 460B 090B Alarm State:  0
Sun Jul 23 04:29:08 PDT 2017 ON: 20.02 +20.0 19.72 - 5.1 32.9 0A 13 4609 0A18 Alarm State:  0
Sun Jul 23 04:28:07 PDT 2017 ON: 19.98 +20.0 19.60 - 2.5 34.2 01 14 4632 0A01 Alarm State:  0
Sun Jul 23 04:27:05 PDT 2017 ON: 19.99 +20.0 19.65 - 4.0 33.7 05 14 470B 0A01 Alarm State:  0
Sun Jul 23 04:26:04 PDT 2017 ON: 20.02 +20.0 19.69 - 4.5 33.4 0A 14 4712 090F Alarm State:  0
Sun Jul 23 04:25:02 PDT 2017 ON: 20.03 +20.0 19.67 - 4.0 33.4 00 14 4629 0924 Alarm State:  0
Sun Jul 23 04:24:01 PDT 2017 ON: 19.99 +20.0 19.65 - 3.8 33.9 05 14 4622 0927 Alarm State:  0
Sun Jul 23 04:22:59 PDT 2017 ON: 19.99 +20.0 19.69 - 4.3 33.4 0D 14 4709 0A06 Alarm State:  0
Sun Jul 23 04:21:58 PDT 2017 ON: 20.02 +20.0 19.65 - 3.6 33.6 00 14 4801 0900 Alarm State:  0
Sun Jul 23 04:20:56 PDT 2017 ON: 20.01 +20.0 19.69 - 4.3 33.2 00 14 462D 0915 Alarm State:  0
Sun Jul 23 04:19:55 PDT 2017 ON: 20.03 +20.0 19.68 - 4.5 33.2 02 14 462C 0923 Alarm State:  0
Sun Jul 23 04:18:53 PDT 2017 ON: 20.00 +20.0 19.62 - 3.0 34.0 02 14 4622 0920 Alarm State:  0
Sun Jul 23 04:17:52 PDT 2017 ON: 19.99 +20.0 19.67 - 4.1 33.4 00 14 4615 092E Alarm State:  0
Sun Jul 23 04:16:50 PDT 2017 ON: 20.03 +20.0 19.70 - 4.7 33.2 0A 13 4704 0928 Alarm State:  0
Sun Jul 23 04:15:49 PDT 2017 ON: 19.98 +20.0 19.64 - 3.2 34.1 07 14 470D 0925 Alarm State:  0
Sun Jul 23 04:14:47 PDT 2017 ON: 20.01 +20.0 19.68 - 4.4 33.4 00 14 462E 0924 Alarm State:  0
Sun Jul 23 04:13:46 PDT 2017 ON: 20.03 +20.0 19.65 - 4.4 32.9 00 14 4700 0909 Alarm State:  0
Sun Jul 23 04:12:44 PDT 2017 ON: 19.99 +20.0 19.65 - 3.5 33.9 02 14 4631 0921 Alarm State:  0
Sun Jul 23 04:11:43 PDT 2017 ON: 20.00 +20.0 19.67 - 4.5 33.2 05 14 4620 091F Alarm State:  0
Sun Jul 23 04:10:41 PDT 2017 ON: 20.01 +20.0 19.63 - 3.3 33.5 05 14 471F 0924 Alarm State:  0
Sun Jul 23 04:09:40 PDT 2017 ON: 20.01 +20.0 19.62 - 3.4 33.7 02 14 470E 0909 Alarm State:  0
Sun Jul 23 04:08:38 PDT 2017 ON: 19.98 +20.0 19.65 - 3.6 34.0 02 14 470E 092E Alarm State:  0
Sun Jul 23 04:07:37 PDT 2017 ON: 20.00 +20.0 19.69 - 4.1 33.5 0D 14 4711 090A Alarm State:  0
Sun Jul 23 04:06:35 PDT 2017 ON: 20.03 +20.0 19.68 - 4.2 33.1 00 14 471D 0922 Alarm State:  0
Sun Jul 23 04:05:34 PDT 2017 ON: 19.99 +20.0 19.63 - 3.0 34.2 0A 14 470C 0926 Alarm State:  0
Sun Jul 23 04:04:32 PDT 2017 ON: 20.00 +20.0 19.66 - 3.4 34.0 07 14 4704 0902 Alarm State:  0
Sun Jul 23 04:03:31 PDT 2017 ON: 19.99 +20.0 19.66 - 4.0 33.8 05 14 4622 0A0E Alarm State:  0
Sun Jul 23 04:02:29 PDT 2017 ON: 20.01 +20.0 19.70 - 4.8 33.3 0D 14 4632 0A19 Alarm State:  0
Sun Jul 23 04:01:28 PDT 2017 ON: 19.97 +20.0 19.58 - 2.1 34.3 01 14 4805 091E Alarm State:  0
Sun Jul 23 04:00:26 PDT 2017 ON: 20.00 +20.0 19.65 - 3.6 34.0 02 14 4720 091B Alarm State:  0
Sun Jul 23 03:59:25 PDT 2017 ON: 20.00 +20.0 19.68 - 4.2 33.4 00 14 4703 0A04 Alarm State:  0
Sun Jul 23 03:58:23 PDT 2017 ON: 20.02 +20.0 19.65 - 3.4 33.6 00 14 4804 0918 Alarm State:  0
Sun Jul 23 03:57:22 PDT 2017 ON: 20.01 +20.0 19.69 - 4.1 33.1 08 14 472E 0928 Alarm State:  0
Sun Jul 23 03:56:20 PDT 2017 ON: 20.02 +20.0 19.68 - 3.7 33.9 0D 14 4805 0923 Alarm State:  0
Sun Jul 23 03:55:19 PDT 2017 ON: 20.00 +20.0 19.68 - 4.1 33.6 00 14 4632 090E Alarm State:  0
Sun Jul 23 03:54:17 PDT 2017 ON: 20.02 +20.0 19.71 - 5.0 33.0 0D 13 4701 090F Alarm State:  0
Sun Jul 23 03:53:16 PDT 2017 ON: 19.99 +20.0 19.61 - 2.9 33.9 02 14 4716 0929 Alarm State:  0
Sun Jul 23 03:52:14 PDT 2017 ON: 19.97 +20.0 19.63 - 3.7 33.4 07 14 4803 0A08 Alarm State:  0
Sun Jul 23 03:51:13 PDT 2017 ON: 20.03 +20.0 19.68 - 3.8 33.5 03 14 4826 091F Alarm State:  0
Sun Jul 23 03:50:11 PDT 2017 ON: 20.02 +20.0 19.68 - 4.5 33.3 02 14 471B 090B Alarm State:  0
Sun Jul 23 03:49:10 PDT 2017 ON: 20.01 +20.0 19.62 - 3.3 33.6 00 14 472A 0926 Alarm State:  0
Sun Jul 23 03:48:08 PDT 2017 ON: 19.99 +20.0 19.68 - 4.0 33.4 00 14 4714 092B Alarm State:  0
Sun Jul 23 03:47:07 PDT 2017 ON: 20.02 +20.0 19.71 - 4.7 33.2 0D 13 472B 0920 Alarm State:  0
Sun Jul 23 03:46:05 PDT 2017 ON: 20.02 +20.0 19.63 - 2.8 33.9 00 14 4808 0919 Alarm State:  0
Sun Jul 23 03:45:04 PDT 2017 ON: 20.00 +20.0 19.68 - 3.9 33.8 05 14 4714 0925 Alarm State:  0
Sun Jul 23 03:44:02 PDT 2017 ON: 20.01 +20.0 19.70 - 4.3 33.3 0D 13 4716 0920 Alarm State:  0
Sun Jul 23 03:43:01 PDT 2017 ON: 20.02 +20.0 19.71 - 4.7 33.0 08 13 4713 0928 Alarm State:  0
Sun Jul 23 03:41:59 PDT 2017 ON: 20.00 +20.0 19.59 - 2.5 34.1 00 14 472D 090B Alarm State:  0
Sun Jul 23 03:40:58 PDT 2017 ON: 20.00 +20.0 19.63 - 3.4 34.1 02 14 4714 091B Alarm State:  0
Sun Jul 23 03:39:56 PDT 2017 ON: 20.01 +20.0 19.68 - 4.4 33.5 05 14 462B 0922 Alarm State:  0
Sun Jul 23 03:38:55 PDT 2017 ON: 20.02 +20.0 19.70 - 4.8 33.2 0D 13 4612 0909 Alarm State:  0
Sun Jul 23 03:37:53 PDT 2017 ON: 20.01 +20.0 19.61 - 2.9 33.8 00 14 470F 0901 Alarm State:  0
Sun Jul 23 03:36:52 PDT 2017 ON: 19.99 +20.0 19.66 - 4.1 33.3 00 14 4623 0A0B Alarm State:  0
Sun Jul 23 03:35:50 PDT 2017 ON: 20.02 +20.0 19.69 - 4.6 33.1 03 14 470A 0908 Alarm State:  0
Sun Jul 23 03:34:49 PDT 2017 ON: 19.99 +20.0 19.62 - 2.9 34.0 02 14 4715 091B Alarm State:  0
Sun Jul 23 03:33:47 PDT 2017 ON: 20.00 +20.0 19.68 - 4.3 33.1 00 14 462E 0928 Alarm State:  0
Sun Jul 23 03:32:46 PDT 2017 ON: 20.04 +20.0 19.71 - 4.6 33.0 08 13 4716 0920 Alarm State:  0
Sun Jul 23 03:31:44 PDT 2017 ON: 19.98 +20.0 19.63 - 3.2 34.2 02 14 471E 0913 Alarm State:  0
Sun Jul 23 03:30:43 PDT 2017 ON: 20.01 +20.0 19.68 - 3.5 34.0 0A 14 4711 0907 Alarm State:  0
Sun Jul 23 03:29:41 PDT 2017 ON: 20.00 +20.0 19.66 - 4.4 33.2 07 14 461E 091C Alarm State:  0
Sun Jul 23 03:28:40 PDT 2017 ON: 20.02 +20.0 19.66 - 3.7 33.5 00 14 4714 091B Alarm State:  0
Sun Jul 23 03:27:38 PDT 2017 ON: 20.04 +20.0 19.68 - 4.7 33.0 00 14 4629 0905 Alarm State:  0
Sun Jul 23 03:26:37 PDT 2017 ON: 19.99 +20.0 19.63 - 3.0 34.1 05 14 4630 091D Alarm State:  0
Sun Jul 23 03:25:35 PDT 2017 ON: 20.01 +20.0 19.69 - 4.5 33.2 07 14 4614 0A1A Alarm State:  0
Sun Jul 23 03:24:34 PDT 2017 ON: 20.01 +20.0 19.63 - 3.6 33.4 00 14 4716 0A0F Alarm State:  0
Sun Jul 23 03:23:32 PDT 2017 ON: 19.99 +20.0 19.66 - 3.8 33.4 07 14 4726 0A15 Alarm State:  0
Sun Jul 23 03:22:31 PDT 2017 ON: 20.03 +20.0 19.72 - 4.7 33.1 0A 12 4802 0913 Alarm State:  0
Sun Jul 23 03:21:29 PDT 2017 ON: 20.01 +20.0 19.69 - 4.2 33.6 0D 14 4703 0928 Alarm State:  0
Sun Jul 23 03:20:28 PDT 2017 ON: 20.02 +20.0 19.70 - 4.2 33.7 0D 13 4629 0901 Alarm State:  0
Sun Jul 23 03:19:26 PDT 2017 ON: 19.99 +20.0 19.64 - 3.3 34.1 07 14 4615 0910 Alarm State:  0
Sun Jul 23 03:18:25 PDT 2017 ON: 20.00 +20.0 19.71 - 5.2 32.9 0D 13 4529 0A14 Alarm State:  0
Sun Jul 23 03:17:23 PDT 2017 ON: 19.98 +20.0 19.57 - 2.3 34.2 04 14 4701 0914 Alarm State:  0
Sun Jul 23 03:16:22 PDT 2017 ON: 19.99 +20.0 19.68 - 4.1 33.6 05 14 4704 092D Alarm State:  0
Sun Jul 23 03:15:20 PDT 2017 ON: 20.01 +20.0 19.70 - 4.9 33.1 0D 13 470E 0912 Alarm State:  0
Sun Jul 23 03:14:18 PDT 2017 ON: 20.00 +20.0 19.61 - 2.5 34.0 05 14 4805 0916 Alarm State:  0
Sun Jul 23 03:13:17 PDT 2017 ON: 20.01 +20.0 19.67 - 4.2 33.2 05 14 470B 0901 Alarm State:  0
Sun Jul 23 03:12:16 PDT 2017 ON: 20.03 +20.0 19.69 - 4.4 33.2 0A 14 470D 091B Alarm State:  0
Sun Jul 23 03:11:14 PDT 2017 ON: 20.01 +20.0 19.61 - 3.0 33.9 01 14 4629 0923 Alarm State:  0
Sun Jul 23 03:10:13 PDT 2017 ON: 20.00 +20.0 19.67 - 4.2 33.6 07 14 4601 0A0F Alarm State:  0
Sun Jul 23 03:09:11 PDT 2017 ON: 20.01 +20.0 19.73 - 5.2 32.8 0A 12 4616 0A22 Alarm State:  0
Sun Jul 23 03:08:10 PDT 2017 ON: 19.97 +20.0 19.59 - 2.8 34.4 09 14 4713 0A02 Alarm State:  0
Sun Jul 23 03:07:08 PDT 2017 ON: 20.02 +20.0 19.67 - 4.4 33.5 00 14 4706 0922 Alarm State:  0
Sun Jul 23 03:06:07 PDT 2017 ON: 20.03 +20.0 19.66 - 4.2 33.3 00 14 4713 091E Alarm State:  0
Sun Jul 23 03:05:05 PDT 2017 ON: 20.00 +20.0 19.61 - 3.2 33.9 05 14 470D 0919 Alarm State:  0
Sun Jul 23 03:04:04 PDT 2017 ON: 19.99 +20.0 19.66 - 3.7 33.8 00 14 471D 0918 Alarm State:  0
Sun Jul 23 03:03:02 PDT 2017 ON: 20.02 +20.0 19.72 - 4.8 33.3 0D 12 471E 0921 Alarm State:  0
Sun Jul 23 03:02:01 PDT 2017 ON: 20.02 +20.0 19.69 - 4.4 33.1 0D 14 4701 090C Alarm State:  0
Sun Jul 23 03:00:59 PDT 2017 ON: 20.03 +20.0 19.66 - 3.9 33.5 00 14 4711 0924 Alarm State:  0
Sun Jul 23 02:59:58 PDT 2017 ON: 19.99 +20.0 19.61 - 2.6 34.1 02 14 471E 0910 Alarm State:  0
Sun Jul 23 02:58:56 PDT 2017 ON: 20.01 +20.0 19.69 - 4.3 33.4 07 14 462B 091F Alarm State:  0
Sun Jul 23 02:57:55 PDT 2017 ON: 20.01 +20.0 19.65 - 3.8 33.4 00 14 4717 0908 Alarm State:  0
Sun Jul 23 02:56:53 PDT 2017 ON: 19.98 +20.0 19.64 - 3.9 33.9 0A 14 4705 0A0F Alarm State:  0
Sun Jul 23 02:55:52 PDT 2017 ON: 20.03 +20.0 19.71 - 4.7 33.4 0D 13 4700 0923 Alarm State:  0
Sun Jul 23 02:54:50 PDT 2017 ON: 19.99 +20.0 19.64 - 3.5 34.0 0A 14 461B 0A03 Alarm State:  0
Sun Jul 23 02:53:49 PDT 2017 ON: 20.01 +20.0 19.70 - 4.8 33.1 0D 14 4602 0A00 Alarm State:  0
Sun Jul 23 02:52:47 PDT 2017 ON: 19.99 +20.0 19.62 - 2.6 33.9 02 14 4703 0926 Alarm State:  0
Sun Jul 23 02:51:46 PDT 2017 ON: 19.99 +20.0 19.69 - 4.8 32.9 00 14 4623 0A2A Alarm State:  0
Sun Jul 23 02:50:44 PDT 2017 ON: 19.97 +20.0 19.56 - 2.2 34.1 00 14 472E 091E Alarm State:  0
Sun Jul 23 02:49:43 PDT 2017 ON: 19.99 +20.0 19.63 - 3.3 33.9 05 14 4804 0908 Alarm State:  0
Sun Jul 23 02:48:41 PDT 2017 ON: 20.01 +20.0 19.64 - 3.4 33.8 07 14 471F 0911 Alarm State:  0
Sun Jul 23 02:47:40 PDT 2017 ON: 20.01 +20.0 19.67 - 4.4 33.0 02 14 4621 0925 Alarm State:  0
Sun Jul 23 02:46:38 PDT 2017 ON: 20.01 +20.0 19.67 - 4.3 32.9 00 14 4712 0907 Alarm State:  0
Sun Jul 23 02:45:37 PDT 2017 ON: 19.99 +20.0 19.63 - 3.3 34.0 0A 14 4717 092C Alarm State:  0
Sun Jul 23 02:44:35 PDT 2017 ON: 19.99 +20.0 19.67 - 3.8 33.8 0A 14 4717 0929 Alarm State:  0
Sun Jul 23 02:43:34 PDT 2017 ON: 20.01 +20.0 19.70 - 4.8 33.0 0D 13 470A 0923 Alarm State:  0
Sun Jul 23 02:42:32 PDT 2017 ON: 20.01 +20.0 19.63 - 3.1 33.6 00 14 4732 091D Alarm State:  0
Sun Jul 23 02:41:31 PDT 2017 ON: 20.00 +20.0 19.65 - 3.9 33.3 07 14 472F 0A07 Alarm State:  0
Sun Jul 23 02:40:29 PDT 2017 ON: 20.03 +20.0 19.70 - 4.6 33.2 08 13 480E 0917 Alarm State:  0
Sun Jul 23 02:39:28 PDT 2017 ON: 20.02 +20.0 19.68 - 4.3 33.5 05 14 4706 0902 Alarm State:  0
Sun Jul 23 02:38:26 PDT 2017 ON: 20.01 +20.0 19.70 - 4.7 33.1 0A 13 4611 0915 Alarm State:  0
Sun Jul 23 02:37:25 PDT 2017 ON: 20.02 +20.0 19.66 - 4.6 32.9 00 14 461C 090A Alarm State:  0
Sun Jul 23 02:36:23 PDT 2017 ON: 19.97 +20.0 19.64 - 3.4 34.1 07 14 4630 0916 Alarm State:  0
Sun Jul 23 02:35:22 PDT 2017 ON: 20.00 +20.0 19.69 - 4.3 33.1 0A 14 4708 0923 Alarm State:  0
Sun Jul 23 02:34:20 PDT 2017 ON: 20.02 +20.0 19.67 - 3.9 33.3 00 14 4732 090F Alarm State:  0
Sun Jul 23 02:33:19 PDT 2017 ON: 20.01 +20.0 19.65 - 3.7 33.6 02 14 4725 0911 Alarm State:  0
Sun Jul 23 02:32:17 PDT 2017 ON: 20.01 +20.0 19.64 - 3.1 33.9 00 14 4725 090C Alarm State:  0
Sun Jul 23 02:31:16 PDT 2017 ON: 20.03 +20.0 19.66 - 3.9 33.4 00 14 4621 0920 Alarm State:  0
Sun Jul 23 02:30:14 PDT 2017 ON: 19.99 +20.0 19.66 - 4.1 33.4 05 14 461B 0A0F Alarm State:  0
Sun Jul 23 02:29:13 PDT 2017 ON: 20.01 +20.0 19.70 - 4.6 33.4 0D 14 4709 0A07 Alarm State:  0
Sun Jul 23 02:28:12 PDT 2017 ON: 19.99 +20.0 19.62 - 2.6 34.3 0A 14 4806 0925 Alarm State:  0
Sun Jul 23 02:27:10 PDT 2017 ON: 20.01 +20.0 19.64 - 3.7 33.8 02 14 4722 091F Alarm State:  0
Sun Jul 23 02:26:09 PDT 2017 ON: 19.99 +20.0 19.64 - 3.1 34.0 02 14 471B 0929 Alarm State:  0
Sun Jul 23 02:25:07 PDT 2017 ON: 19.99 +20.0 19.66 - 3.6 34.1 0A 14 4719 0926 Alarm State:  0
Sun Jul 23 02:24:06 PDT 2017 ON: 20.00 +20.0 19.66 - 3.4 34.2 02 14 4714 091E Alarm State:  0
Sun Jul 23 02:23:04 PDT 2017 ON: 20.02 +20.0 19.70 - 5.4 32.9 0D 13 462B 0925 Alarm State:  0
Sun Jul 23 02:22:03 PDT 2017 ON: 19.99 +20.0 19.62 - 2.8 34.2 00 14 4719 092D Alarm State:  0
Sun Jul 23 02:21:01 PDT 2017 ON: 19.98 +20.0 19.67 - 3.9 34.0 02 14 4719 0926 Alarm State:  0
Sun Jul 23 02:20:00 PDT 2017 ON: 20.02 +20.0 19.70 - 4.4 33.5 0D 13 4706 0920 Alarm State:  0
Sun Jul 23 02:18:58 PDT 2017 ON: 20.03 +20.0 19.74 - 5.5 32.9 0A 11 460B 090C Alarm State:  0
Sun Jul 23 02:17:57 PDT 2017 ON: 20.00 +20.0 19.60 - 2.7 34.1 00 14 4616 091B Alarm State:  0
Sun Jul 23 02:16:55 PDT 2017 ON: 19.98 +20.0 19.67 - 4.3 33.2 07 14 461A 0A12 Alarm State:  0
Sun Jul 23 02:15:54 PDT 2017 ON: 20.01 +20.0 19.67 - 3.9 33.4 02 14 4714 0921 Alarm State:  0
Sun Jul 23 02:14:52 PDT 2017 ON: 20.01 +20.0 19.69 - 4.3 33.2 0D 14 471E 0905 Alarm State:  0
Sun Jul 23 02:13:51 PDT 2017 ON: 20.02 +20.0 19.64 - 3.6 33.6 00 14 4806 0918 Alarm State:  0
Sun Jul 23 02:12:49 PDT 2017 ON: 20.02 +20.0 19.66 - 4.0 33.4 02 14 4713 0904 Alarm State:  0
Sun Jul 23 02:11:48 PDT 2017 ON: 20.02 +20.0 19.63 - 3.2 33.6 00 14 4712 0906 Alarm State:  0
Sun Jul 23 02:10:46 PDT 2017 ON: 19.99 +20.0 19.66 - 3.7 33.6 00 14 4700 090B Alarm State:  0
Sun Jul 23 02:09:45 PDT 2017 ON: 20.00 +20.0 19.59 - 2.5 33.9 00 14 4723 0925 Alarm State:  0
Sun Jul 23 02:08:43 PDT 2017 ON: 20.00 +20.0 19.67 - 4.4 33.2 07 14 462E 090F Alarm State:  0
Sun Jul 23 02:07:42 PDT 2017 ON: 20.03 +20.0 19.70 - 5.1 32.6 0D 14 470A 0A03 Alarm State:  0
Sun Jul 23 02:06:40 PDT 2017 ON: 19.99 +20.0 19.65 - 3.6 33.9 05 14 4720 092D Alarm State:  0
Sun Jul 23 02:05:39 PDT 2017 ON: 20.02 +20.0 19.73 - 5.2 32.9 0A 12 4725 0A0D Alarm State:  0
Sun Jul 23 02:04:37 PDT 2017 ON: 19.97 +20.0 19.59 - 2.5 34.2 04 14 481C 092B Alarm State:  0
Sun Jul 23 02:03:36 PDT 2017 ON: 20.01 +20.0 19.66 - 3.5 33.8 05 14 4805 0923 Alarm State:  0
Sun Jul 23 02:02:34 PDT 2017 ON: 20.00 +20.0 19.61 - 3.1 34.1 02 14 4724 0924 Alarm State:  0
Sun Jul 23 02:01:33 PDT 2017 ON: 20.01 +20.0 19.68 - 4.3 33.3 00 14 462E 090B Alarm State:  0
Sun Jul 23 02:00:31 PDT 2017 ON: 20.02 +20.0 19.67 - 4.1 33.3 00 14 4713 0904 Alarm State:  0
Sun Jul 23 01:59:30 PDT 2017 ON: 20.01 +20.0 19.70 - 4.4 33.6 0D 13 4627 0918 Alarm State:  0
Sun Jul 23 01:58:28 PDT 2017 ON: 20.02 +20.0 19.73 - 5.4 33.0 0D 12 452A 0A04 Alarm State:  0
Sun Jul 23 01:57:27 PDT 2017 ON: 19.97 +20.0 19.61 - 2.8 34.3 09 14 461A 0931 Alarm State:  0
Sun Jul 23 01:56:25 PDT 2017 ON: 20.00 +20.0 19.67 - 4.3 33.5 00 14 4608 0928 Alarm State:  0
Sun Jul 23 01:55:24 PDT 2017 ON: 20.02 +20.0 19.73 - 5.0 33.2 0A 12 4617 090C Alarm State:  0
Sun Jul 23 01:54:22 PDT 2017 ON: 19.99 +20.0 19.60 - 2.6 34.2 07 14 4704 090C Alarm State:  0
Sun Jul 23 01:53:21 PDT 2017 ON: 20.00 +20.0 19.66 - 4.4 33.2 07 14 4618 0A18 Alarm State:  0
Sun Jul 23 01:52:19 PDT 2017 ON: 20.02 +20.0 19.69 - 4.6 33.0 08 14 4703 0A11 Alarm State:  0
Sun Jul 23 01:51:18 PDT 2017 ON: 19.98 +20.0 19.64 - 3.3 34.2 0A 14 4722 0A0E Alarm State:  0
Sun Jul 23 01:50:16 PDT 2017 ON: 20.02 +20.0 19.69 - 4.2 33.9 08 14 4726 091D Alarm State:  0
Sun Jul 23 01:49:15 PDT 2017 ON: 20.01 +20.0 19.69 - 4.9 33.2 05 14 4628 0A08 Alarm State:  0
Sun Jul 23 01:48:13 PDT 2017 ON: 19.98 +20.0 19.59 - 2.4 34.1 00 14 472B 091A Alarm State:  0
Sun Jul 23 01:47:12 PDT 2017 ON: 19.99 +20.0 19.64 - 3.3 34.0 05 14 472A 0901 Alarm State:  0
Sun Jul 23 01:46:10 PDT 2017 ON: 19.99 +20.0 19.67 - 4.1 33.3 00 14 4720 0A0C Alarm State:  0
Sun Jul 23 01:45:09 PDT 2017 ON: 20.02 +20.0 19.69 - 4.4 33.2 05 14 4802 0912 Alarm State:  0
Sun Jul 23 01:44:07 PDT 2017 ON: 20.03 +20.0 19.68 - 4.4 33.1 00 14 4711 0927 Alarm State:  0
Sun Jul 23 01:43:06 PDT 2017 ON: 19.97 +20.0 19.65 - 3.6 33.8 05 14 471E 092D Alarm State:  0
Sun Jul 23 01:42:04 PDT 2017 ON: 20.01 +20.0 19.69 - 4.4 33.3 0A 14 472C 090A Alarm State:  0
Sun Jul 23 01:41:03 PDT 2017 ON: 20.04 +20.0 19.68 - 4.7 33.1 00 14 4713 091E Alarm State:  0
Sun Jul 23 01:40:01 PDT 2017 ON: 20.01 +20.0 19.62 - 3.3 33.7 00 14 4713 0921 Alarm State:  0
Sun Jul 23 01:39:00 PDT 2017 ON: 19.99 +20.0 19.65 - 3.5 34.1 0A 14 4706 0A00 Alarm State:  0
Sun Jul 23 01:37:58 PDT 2017 ON: 20.00 +20.0 19.67 - 4.3 33.5 05 14 462F 092B Alarm State:  0
Sun Jul 23 01:36:57 PDT 2017 ON: 20.00 +20.0 19.71 - 4.6 33.3 0A 13 4709 0911 Alarm State:  0
Sun Jul 23 01:35:55 PDT 2017 ON: 20.02 +20.0 19.69 - 4.5 33.2 0A 14 4707 091A Alarm State:  0
Sun Jul 23 01:34:54 PDT 2017 ON: 19.98 +20.0 19.63 - 3.2 34.1 05 14 472A 0913 Alarm State:  0
Sun Jul 23 01:33:52 PDT 2017 ON: 20.01 +20.0 19.66 - 3.6 33.9 05 14 4728 0900 Alarm State:  0
Sun Jul 23 01:32:51 PDT 2017 ON: 20.01 +20.0 19.62 - 3.0 33.9 00 14 4725 090C Alarm State:  0
Sun Jul 23 01:31:49 PDT 2017 ON: 20.00 +20.0 19.66 - 4.1 33.5 00 14 4709 091F Alarm State:  0
Sun Jul 23 01:30:48 PDT 2017 ON: 20.02 +20.0 19.71 - 4.8 33.2 0D 13 470A 090D Alarm State:  0
Sun Jul 23 01:29:46 PDT 2017 ON: 20.01 +20.0 19.69 - 4.6 33.2 02 14 461F 0922 Alarm State:  0
Sun Jul 23 01:28:45 PDT 2017 ON: 20.00 +20.0 19.60 - 2.6 33.8 00 14 4717 0916 Alarm State:  0
Sun Jul 23 01:27:43 PDT 2017 ON: 19.98 +20.0 19.66 - 4.2 33.1 00 14 470B 0A0D Alarm State:  0
Sun Jul 23 01:26:42 PDT 2017 ON: 20.01 +20.0 19.63 - 3.1 33.7 00 14 4815 090C Alarm State:  0
Sun Jul 23 01:25:40 PDT 2017 ON: 20.03 +20.0 19.68 - 4.0 33.3 00 14 4720 091F Alarm State:  0
Sun Jul 23 01:24:39 PDT 2017 ON: 20.03 +20.0 19.65 - 3.7 33.5 00 14 4705 0904 Alarm State:  0
Sun Jul 23 01:23:37 PDT 2017 ON: 20.00 +20.0 19.61 - 3.3 34.0 01 14 4622 0913 Alarm State:  0
Sun Jul 23 01:22:36 PDT 2017 ON: 19.99 +20.0 19.66 - 4.3 33.4 07 14 4615 091F Alarm State:  0
Sun Jul 23 01:21:34 PDT 2017 ON: 20.03 +20.0 19.72 - 5.2 33.0 08 12 462B 0919 Alarm State:  0
Sun Jul 23 01:20:33 PDT 2017 ON: 19.99 +20.0 19.64 - 3.2 34.2 07 14 4709 0A05 Alarm State:  0
Sun Jul 23 01:19:31 PDT 2017 ON: 20.01 +20.0 19.70 - 4.6 33.3 0A 13 462E 0903 Alarm State:  0
Sun Jul 23 01:18:30 PDT 2017 ON: 20.02 +20.0 19.64 - 3.7 33.6 00 14 471E 0910 Alarm State:  0
Sun Jul 23 01:17:28 PDT 2017 ON: 19.99 +20.0 19.65 - 3.8 33.9 05 14 470E 091B Alarm State:  0
Sun Jul 23 01:16:27 PDT 2017 ON: 20.03 +20.0 19.72 - 5.3 32.8 0D 12 4705 0907 Alarm State:  0
Sun Jul 23 01:15:25 PDT 2017 ON: 19.99 +20.0 19.62 - 2.8 33.9 00 14 471B 090B Alarm State:  0
Sun Jul 23 01:14:24 PDT 2017 ON: 19.99 +20.0 19.66 - 3.9 33.8 05 14 4716 0913 Alarm State:  0
Sun Jul 23 01:13:22 PDT 2017 ON: 20.02 +20.0 19.69 - 5.0 33.1 0D 14 4714 0902 Alarm State:  0
Sun Jul 23 01:12:21 PDT 2017 ON: 19.99 +20.0 19.62 - 2.6 34.0 05 14 4800 091B Alarm State:  0
Sun Jul 23 01:11:19 PDT 2017 ON: 20.00 +20.0 19.66 - 4.1 33.7 00 14 4701 0905 Alarm State:  0
Sun Jul 23 01:10:18 PDT 2017 ON: 20.02 +20.0 19.72 - 5.5 32.8 0D 13 4625 0A15 Alarm State:  0
Sun Jul 23 01:09:16 PDT 2017 ON: 19.98 +20.0 19.59 - 2.7 34.2 01 14 4722 0931 Alarm State:  0
Sun Jul 23 01:08:15 PDT 2017 ON: 20.00 +20.0 19.68 - 4.3 33.7 05 14 470D 0900 Alarm State:  0
Sun Jul 23 01:07:13 PDT 2017 ON: 20.01 +20.0 19.70 - 4.7 33.2 0D 13 462A 0913 Alarm State:  0
Sun Jul 23 01:06:12 PDT 2017 ON: 20.01 +20.0 19.64 - 3.8 33.5 00 14 4716 0922 Alarm State:  0
Sun Jul 23 01:05:10 PDT 2017 ON: 20.02 +20.0 19.69 - 4.9 32.8 00 14 4619 090E Alarm State:  0
Sun Jul 23 01:04:09 PDT 2017 ON: 19.98 +20.0 19.62 - 3.2 34.2 02 14 4705 0918 Alarm State:  0
Sun Jul 23 01:03:07 PDT 2017 ON: 20.01 +20.0 19.69 - 4.4 33.6 00 14 4630 0909 Alarm State:  0
Sun Jul 23 01:02:06 PDT 2017 ON: 20.02 +20.0 19.73 - 5.4 32.9 0A 12 462B 090B Alarm State:  0
Sun Jul 23 01:01:04 PDT 2017 ON: 19.98 +20.0 19.59 - 2.8 34.1 04 14 4716 0911 Alarm State:  0
Sun Jul 23 01:00:03 PDT 2017 ON: 19.99 +20.0 19.68 - 4.4 33.4 00 14 4713 0A11 Alarm State:  0
Sun Jul 23 00:59:01 PDT 2017 ON: 20.01 +20.0 19.64 - 3.6 33.5 00 14 480C 0900 Alarm State:  0
Sun Jul 23 00:58:00 PDT 2017 ON: 19.99 +20.0 19.65 - 3.6 34.1 02 14 4807 092E Alarm State:  0
Sun Jul 23 00:56:58 PDT 2017 ON: 20.00 +20.0 19.65 - 3.9 34.0 02 14 4732 091D Alarm State:  0
Sun Jul 23 00:55:57 PDT 2017 ON: 20.00 +20.0 19.66 - 3.7 33.9 0A 14 4721 0906 Alarm State:  0
Sun Jul 23 00:54:55 PDT 2017 ON: 20.00 +20.0 19.62 - 3.1 34.0 07 14 471D 0919 Alarm State:  0
Sun Jul 23 00:53:54 PDT 2017 ON: 19.99 +20.0 19.69 - 4.4 33.4 05 14 462F 0929 Alarm State:  0
Sun Jul 23 00:52:52 PDT 2017 ON: 20.02 +20.0 19.70 - 5.3 32.8 0D 13 4702 0910 Alarm State:  0
Sun Jul 23 00:51:51 PDT 2017 ON: 19.99 +20.0 19.63 - 2.9 34.0 07 14 471B 0911 Alarm State:  0
Sun Jul 23 00:50:49 PDT 2017 ON: 20.00 +20.0 19.68 - 4.3 33.4 00 14 4632 0920 Alarm State:  0
Sun Jul 23 00:49:48 PDT 2017 ON: 20.02 +20.0 19.71 - 5.1 32.8 0D 13 4706 0920 Alarm State:  0
Sun Jul 23 00:48:46 PDT 2017 ON: 20.00 +20.0 19.60 - 2.8 34.0 04 14 471E 0903 Alarm State:  0
Sun Jul 23 00:47:45 PDT 2017 ON: 19.99 +20.0 19.62 - 3.2 34.0 00 14 4719 092B Alarm State:  0
Sun Jul 23 00:46:43 PDT 2017 ON: 20.01 +20.0 19.64 - 3.2 33.9 00 14 4727 0909 Alarm State:  0
Sun Jul 23 00:45:42 PDT 2017 ON: 20.00 +20.0 19.65 - 3.2 33.9 07 14 4702 091D Alarm State:  0
Sun Jul 23 00:44:40 PDT 2017 ON: 20.00 +20.0 19.69 - 4.6 32.9 02 14 4617 0A03 Alarm State:  0
Sun Jul 23 00:43:39 PDT 2017 ON: 20.01 +20.0 19.65 - 3.5 33.6 00 14 4717 090C Alarm State:  0
Sun Jul 23 00:42:37 PDT 2017 ON: 19.99 +20.0 19.63 - 3.0 34.1 05 14 4723 0929 Alarm State:  0
Sun Jul 23 00:41:36 PDT 2017 ON: 20.00 +20.0 19.66 - 3.8 33.9 00 14 4714 0910 Alarm State:  0
Sun Jul 23 00:40:34 PDT 2017 ON: 20.01 +20.0 19.71 - 5.1 33.0 0D 13 4704 0923 Alarm State:  0
Sun Jul 23 00:39:33 PDT 2017 ON: 20.00 +20.0 19.62 - 2.7 34.0 05 14 472D 0921 Alarm State:  0
Sun Jul 23 00:38:31 PDT 2017 ON: 19.99 +20.0 19.66 - 3.9 33.5 07 14 472D 092C Alarm State:  0
Sun Jul 23 00:37:30 PDT 2017 ON: 20.03 +20.0 19.71 - 4.4 33.6 0A 13 4807 0919 Alarm State:  0
Sun Jul 23 00:36:28 PDT 2017 ON: 20.01 +20.0 19.69 - 4.5 33.1 05 14 4630 0904 Alarm State:  0
Sun Jul 23 00:35:27 PDT 2017 ON: 19.98 +20.0 19.60 - 2.5 34.1 01 14 4713 090C Alarm State:  0
Sun Jul 23 00:34:25 PDT 2017 ON: 19.99 +20.0 19.66 - 3.9 33.9 02 14 4712 0A0A Alarm State:  0
Sun Jul 23 00:33:24 PDT 2017 ON: 20.01 +20.0 19.72 - 5.3 32.8 0D 13 4712 0A1B Alarm State:  0
Sun Jul 23 00:32:22 PDT 2017 ON: 19.98 +20.0 19.61 - 2.3 34.3 05 14 4814 0926 Alarm State:  0
Sun Jul 23 00:31:21 PDT 2017 ON: 20.02 +20.0 19.64 - 3.1 34.0 02 14 4804 0919 Alarm State:  0
Sun Jul 23 00:30:19 PDT 2017 ON: 20.01 +20.0 19.69 - 4.2 33.5 07 14 462F 0904 Alarm State:  0
Sun Jul 23 00:29:18 PDT 2017 ON: 20.04 +20.0 19.73 - 5.2 33.0 0D 12 462D 090F Alarm State:  0
Sun Jul 23 00:28:16 PDT 2017 ON: 20.00 +20.0 19.63 - 3.2 33.8 02 14 4632 090F Alarm State:  0
Sun Jul 23 00:27:15 PDT 2017 ON: 19.99 +20.0 19.66 - 4.2 33.2 05 14 4622 0A12 Alarm State:  0
Sun Jul 23 00:26:13 PDT 2017 ON: 20.02 +20.0 19.69 - 4.5 33.4 0D 14 470E 090C Alarm State:  0
Sun Jul 23 00:25:12 PDT 2017 ON: 20.00 +20.0 19.61 - 2.7 34.0 05 14 4710 0911 Alarm State:  0
Sun Jul 23 00:24:10 PDT 2017 ON: 20.00 +20.0 19.69 - 4.3 33.6 05 14 4622 0925 Alarm State:  0
Sun Jul 23 00:23:09 PDT 2017 ON: 20.01 +20.0 19.71 - 4.6 33.0 0A 13 462A 091F Alarm State:  0
Sun Jul 23 00:22:07 PDT 2017 ON: 20.02 +20.0 19.68 - 4.7 32.7 00 14 470E 0A08 Alarm State:  0
Sun Jul 23 00:21:06 PDT 2017 ON: 19.97 +20.0 19.63 - 3.5 34.1 02 14 4724 0930 Alarm State:  0
Sun Jul 23 00:20:04 PDT 2017 ON: 20.01 +20.0 19.67 - 4.3 33.3 02 14 4723 090E Alarm State:  0
Sun Jul 23 00:19:03 PDT 2017 ON: 20.03 +20.0 19.67 - 4.0 33.3 00 14 4806 091A Alarm State:  0
Sun Jul 23 00:18:01 PDT 2017 ON: 20.01 +20.0 19.65 - 4.2 33.2 00 14 4708 0905 Alarm State:  0
Sun Jul 23 00:17:00 PDT 2017 ON: 19.99 +20.0 19.66 - 3.7 33.8 05 14 4706 092A Alarm State:  0
Sun Jul 23 00:15:59 PDT 2017 ON: 20.00 +20.0 19.70 - 4.4 33.2 0D 13 4713 0906 Alarm State:  0
Sun Jul 23 00:14:57 PDT 2017 ON: 20.03 +20.0 19.69 - 4.3 33.3 05 14 4721 091C Alarm State:  0
Sun Jul 23 00:13:56 PDT 2017 ON: 20.00 +20.0 19.63 - 2.8 34.0 02 14 4720 0918 Alarm State:  0
Sun Jul 23 00:12:54 PDT 2017 ON: 20.00 +20.0 19.68 - 4.2 33.4 07 14 4700 0930 Alarm State:  0
Sun Jul 23 00:11:53 PDT 2017 ON: 20.01 +20.0 19.67 - 4.1 33.2 00 14 4725 0925 Alarm State:  0
Sun Jul 23 00:10:51 PDT 2017 ON: 19.98 +20.0 19.63 - 3.4 34.1 02 14 4808 0930 Alarm State:  0
Sun Jul 23 00:09:50 PDT 2017 ON: 20.01 +20.0 19.68 - 3.9 33.9 0D 14 480D 0916 Alarm State:  0
Sun Jul 23 00:08:48 PDT 2017 ON: 20.02 +20.0 19.65 - 3.5 33.6 00 14 4718 0902 Alarm State:  0
Sun Jul 23 00:07:47 PDT 2017 ON: 19.99 +20.0 19.66 - 4.1 33.3 00 14 4709 0A00 Alarm State:  0
Sun Jul 23 00:06:45 PDT 2017 ON: 20.02 +20.0 19.68 - 3.9 33.4 08 14 4804 0918 Alarm State:  0
Sun Jul 23 00:05:44 PDT 2017 ON: 19.98 +20.0 19.65 - 3.3 34.1 02 14 4801 0912 Alarm State:  0
Sun Jul 23 00:04:42 PDT 2017 ON: 20.01 +20.0 19.63 - 3.6 33.9 07 14 472A 0909 Alarm State:  0
Sun Jul 23 00:03:41 PDT 2017 ON: 20.00 +20.0 19.67 - 4.0 33.8 07 14 4703 091D Alarm State:  0
Sun Jul 23 00:02:39 PDT 2017 ON: 20.01 +20.0 19.69 - 4.5 33.2 07 14 4632 0918 Alarm State:  0
Sun Jul 23 00:01:38 PDT 2017 ON: 20.02 +20.0 19.64 - 3.6 33.5 00 14 4720 0907 Alarm State:  0
Sun Jul 23 00:00:36 PDT 2017 ON: 19.99 +20.0 19.65 - 3.6 34.1 0A 14 470E 0916 Alarm State:  0
Sat Jul 22 23:59:35 PDT 2017 ON: 20.01 +20.0 19.68 - 4.5 33.3 00 14 4628 0918 Alarm State:  0
Sat Jul 22 23:58:33 PDT 2017 ON: 20.01 +20.0 19.62 - 2.7 33.9 02 14 4721 0904 Alarm State:  0
Sat Jul 22 23:57:32 PDT 2017 ON: 20.01 +20.0 19.66 - 3.7 33.6 02 14 461B 0918 Alarm State:  0
Sat Jul 22 23:56:30 PDT 2017 ON: 20.00 +20.0 19.68 - 4.1 33.5 07 14 4603 0925 Alarm State:  0
Sat Jul 22 23:55:29 PDT 2017 ON: 20.02 +20.0 19.73 - 5.0 33.1 0A 12 4618 0924 Alarm State:  0
Sat Jul 22 23:54:27 PDT 2017 ON: 19.99 +20.0 19.59 - 2.8 33.9 04 14 4701 0929 Alarm State:  0
Sat Jul 22 23:53:26 PDT 2017 ON: 20.00 +20.0 19.67 - 4.2 33.3 00 14 4627 0A00 Alarm State:  0
Sat Jul 22 23:52:24 PDT 2017 ON: 20.01 +20.0 19.70 - 4.6 33.0 0D 13 4717 0924 Alarm State:  0
Sat Jul 22 23:51:23 PDT 2017 ON: 19.99 +20.0 19.62 - 2.6 34.2 05 14 4814 090B Alarm State:  0
Sat Jul 22 23:50:21 PDT 2017 ON: 20.01 +20.0 19.66 - 3.6 33.9 05 14 4720 090F Alarm State:  0
Sat Jul 22 23:49:20 PDT 2017 ON: 20.01 +20.0 19.68 - 4.5 33.1 00 14 461D 0924 Alarm State:  0
Sat Jul 22 23:48:18 PDT 2017 ON: 20.03 +20.0 19.69 - 4.4 33.2 0A 14 4709 0926 Alarm State:  0
Sat Jul 22 23:47:17 PDT 2017 ON: 20.00 +20.0 19.60 - 2.7 34.0 04 14 470F 0911 Alarm State:  0
Sat Jul 22 23:46:15 PDT 2017 ON: 20.00 +20.0 19.64 - 3.4 33.7 00 14 4629 0921 Alarm State:  0
Sat Jul 22 23:45:14 PDT 2017 ON: 19.99 +20.0 19.67 - 4.1 33.4 00 14 461B 0A01 Alarm State:  0
Sat Jul 22 23:44:12 PDT 2017 ON: 20.03 +20.0 19.72 - 4.8 33.1 0D 12 4632 0905 Alarm State:  0
Sat Jul 22 23:43:11 PDT 2017 ON: 20.02 +20.0 19.65 - 3.9 33.3 00 14 4626 0918 Alarm State:  0
Sat Jul 22 23:42:09 PDT 2017 ON: 19.99 +20.0 19.65 - 3.7 33.9 05 14 4629 0A02 Alarm State:  0
Sat Jul 22 23:41:08 PDT 2017 ON: 20.01 +20.0 19.71 - 4.5 33.3 0D 13 462D 0917 Alarm State:  0
Sat Jul 22 23:40:06 PDT 2017 ON: 20.02 +20.0 19.66 - 3.3 33.7 00 14 471D 0901 Alarm State:  0
Sat Jul 22 23:39:05 PDT 2017 ON: 20.00 +20.0 19.62 - 3.0 34.0 07 14 4705 090C Alarm State:  0
Sat Jul 22 23:38:03 PDT 2017 ON: 20.00 +20.0 19.63 - 3.4 34.0 05 14 461F 0920 Alarm State:  0
Sat Jul 22 23:37:02 PDT 2017 ON: 20.00 +20.0 19.67 - 4.3 33.2 07 14 4617 0A08 Alarm State:  0
Sat Jul 22 23:36:00 PDT 2017 ON: 20.02 +20.0 19.70 - 4.9 32.9 0A 14 4701 0A0E Alarm State:  0
Sat Jul 22 23:34:59 PDT 2017 ON: 19.97 +20.0 19.61 - 3.2 34.2 0A 14 4727 0A02 Alarm State:  0
Sat Jul 22 23:33:57 PDT 2017 ON: 20.01 +20.0 19.69 - 4.6 33.2 0A 14 4722 0918 Alarm State:  0
Sat Jul 22 23:32:56 PDT 2017 ON: 20.02 +20.0 19.70 - 4.6 33.1 0D 13 4722 0913 Alarm State:  0
Sat Jul 22 23:31:54 PDT 2017 ON: 20.01 +20.0 19.67 - 4.3 33.5 00 14 4719 0927 Alarm State:  0
Sat Jul 22 23:30:53 PDT 2017 ON: 20.01 +20.0 19.69 - 4.5 33.3 0D 14 4705 090F Alarm State:  0
Sat Jul 22 23:29:51 PDT 2017 ON: 20.03 +20.0 19.71 - 5.0 32.7 03 13 4712 0903 Alarm State:  0
Sat Jul 22 23:28:50 PDT 2017 ON: 19.99 +20.0 19.61 - 3.0 34.1 00 14 4724 0921 Alarm State:  0
Sat Jul 22 23:27:48 PDT 2017 ON: 20.00 +20.0 19.67 - 4.3 33.2 07 14 4711 0A00 Alarm State:  0
Sat Jul 22 23:26:47 PDT 2017 ON: 20.02 +20.0 19.71 - 4.6 33.4 0D 13 4723 091B Alarm State:  0
Sat Jul 22 23:25:46 PDT 2017 ON: 20.01 +20.0 19.68 - 4.0 33.9 0A 14 4702 0906 Alarm State:  0
Sat Jul 22 23:24:44 PDT 2017 ON: 20.02 +20.0 19.70 - 4.6 33.2 0D 13 4613 0917 Alarm State:  0
Sat Jul 22 23:23:42 PDT 2017 ON: 20.02 +20.0 19.67 - 4.4 33.2 00 14 462E 090E Alarm State:  0
Sat Jul 22 23:22:41 PDT 2017 ON: 19.99 +20.0 19.61 - 3.3 34.1 04 14 462A 090D Alarm State:  0
Sat Jul 22 23:21:40 PDT 2017 ON: 20.00 +20.0 19.68 - 4.5 33.4 05 14 4617 0A13 Alarm State:  0
Sat Jul 22 23:20:38 PDT 2017 ON: 20.00 +20.0 19.60 - 2.5 33.9 00 14 4720 0925 Alarm State:  0
Sat Jul 22 23:19:37 PDT 2017 ON: 20.01 +20.0 19.69 - 4.3 33.3 07 14 4626 0910 Alarm State:  0
Sat Jul 22 23:18:35 PDT 2017 ON: 20.03 +20.0 19.71 - 4.6 33.2 0A 13 470D 0928 Alarm State:  0
Sat Jul 22 23:17:34 PDT 2017 ON: 20.01 +20.0 19.63 - 3.0 33.9 05 14 4700 0913 Alarm State:  0
Sat Jul 22 23:16:32 PDT 2017 ON: 20.00 +20.0 19.68 - 4.1 33.6 07 14 460D 0928 Alarm State:  0
Sat Jul 22 23:15:31 PDT 2017 ON: 20.02 +20.0 19.72 - 5.1 32.8 0D 13 4620 0A00 Alarm State:  0
Sat Jul 22 23:14:29 PDT 2017 ON: 19.98 +20.0 19.60 - 2.8 34.2 01 14 470F 0928 Alarm State:  0
Sat Jul 22 23:13:28 PDT 2017 ON: 20.01 +20.0 19.68 - 4.4 33.2 00 14 462B 091E Alarm State:  0
Sat Jul 22 23:12:26 PDT 2017 ON: 20.02 +20.0 19.64 - 3.4 33.5 00 14 471C 090C Alarm State:  0
Sat Jul 22 23:11:25 PDT 2017 ON: 20.00 +20.0 19.68 - 3.8 33.9 05 14 4713 090C Alarm State:  0
Sat Jul 22 23:10:23 PDT 2017 ON: 20.03 +20.0 19.72 - 5.5 32.7 0D 13 470F 0A03 Alarm State:  0
Sat Jul 22 23:09:22 PDT 2017 ON: 19.98 +20.0 19.59 - 2.6 34.3 04 14 4809 0914 Alarm State:  0
Sat Jul 22 23:08:20 PDT 2017 ON: 20.00 +20.0 19.68 - 4.1 33.8 05 14 4727 090E Alarm State:  0
Sat Jul 22 23:07:19 PDT 2017 ON: 19.99 +20.0 19.67 - 3.5 34.1 07 14 4800 0923 Alarm State:  0
Sat Jul 22 23:06:17 PDT 2017 ON: 20.01 +20.0 19.68 - 4.0 33.6 00 14 4712 090A Alarm State:  0
Sat Jul 22 23:05:16 PDT 2017 ON: 19.98 +20.0 19.61 - 2.9 34.3 0A 14 471C 0929 Alarm State:  0
Sat Jul 22 23:04:14 PDT 2017 ON: 20.01 +20.0 19.68 - 4.0 34.0 05 14 470F 091F Alarm State:  0
Sat Jul 22 23:03:13 PDT 2017 ON: 20.00 +20.0 19.68 - 4.3 33.7 05 14 4630 0903 Alarm State:  0
Sat Jul 22 23:02:11 PDT 2017 ON: 20.02 +20.0 19.73 - 5.4 33.0 0D 12 462B 090F Alarm State:  0
Sat Jul 22 23:01:10 PDT 2017 ON: 19.98 +20.0 19.60 - 2.7 34.2 04 14 4718 0916 Alarm State:  0
Sat Jul 22 23:00:08 PDT 2017 ON: 20.00 +20.0 19.68 - 4.5 33.2 00 14 4632 0A14 Alarm State:  0
Sat Jul 22 22:59:07 PDT 2017 ON: 20.00 +20.0 19.58 - 2.5 34.0 01 14 480A 0926 Alarm State:  0
Sat Jul 22 22:58:05 PDT 2017 ON: 20.01 +20.0 19.68 - 4.4 33.2 02 14 470E 0911 Alarm State:  0
Sat Jul 22 22:57:04 PDT 2017 ON: 20.02 +20.0 19.65 - 3.6 33.5 00 14 4732 0917 Alarm State:  0
Sat Jul 22 22:56:02 PDT 2017 ON: 20.01 +20.0 19.64 - 3.1 33.8 00 14 4729 091F Alarm State:  0
Sat Jul 22 22:55:01 PDT 2017 ON: 19.99 +20.0 19.62 - 3.1 34.1 0A 14 4719 0905 Alarm State:  0
Sat Jul 22 22:53:59 PDT 2017 ON: 20.01 +20.0 19.67 - 4.4 33.1 02 14 462D 090F Alarm State:  0
Sat Jul 22 22:52:58 PDT 2017 ON: 20.03 +20.0 19.68 - 4.4 33.1 00 14 470E 091F Alarm State:  0
Sat Jul 22 22:51:56 PDT 2017 ON: 19.99 +20.0 19.65 - 3.8 33.8 05 14 4632 092E Alarm State:  0
Sat Jul 22 22:50:55 PDT 2017 ON: 20.02 +20.0 19.72 - 5.1 33.0 0D 12 4630 0913 Alarm State:  0
Sat Jul 22 22:49:53 PDT 2017 ON: 20.00 +20.0 19.61 - 2.9 33.8 00 14 471C 0922 Alarm State:  0
Sat Jul 22 22:48:52 PDT 2017 ON: 20.00 +20.0 19.67 - 4.1 33.5 00 14 4706 092D Alarm State:  0
Sat Jul 22 22:47:50 PDT 2017 ON: 20.02 +20.0 19.71 - 4.6 33.5 0D 13 4713 0911 Alarm State:  0
Sat Jul 22 22:46:49 PDT 2017 ON: 20.00 +20.0 19.65 - 4.0 33.7 05 14 4632 0924 Alarm State:  0
Sat Jul 22 22:45:47 PDT 2017 ON: 20.02 +20.0 19.74 - 5.4 32.6 0D 11 462B 091E Alarm State:  0
Sat Jul 22 22:44:46 PDT 2017 ON: 19.97 +20.0 19.62 - 3.3 34.2 07 14 471A 092D Alarm State:  0
Sat Jul 22 22:43:44 PDT 2017 ON: 20.00 +20.0 19.69 - 4.6 33.2 0D 14 470F 091D Alarm State:  0
Sat Jul 22 22:42:43 PDT 2017 ON: 20.00 +20.0 19.62 - 2.9 33.8 00 14 481A 0926 Alarm State:  0
Sat Jul 22 22:41:41 PDT 2017 ON: 20.02 +20.0 19.63 - 3.2 33.8 00 14 4728 0911 Alarm State:  0
Sat Jul 22 22:40:40 PDT 2017 ON: 20.00 +20.0 19.68 - 4.2 33.4 00 14 462D 0926 Alarm State:  0
Sat Jul 22 22:39:38 PDT 2017 ON: 20.03 +20.0 19.70 - 5.1 32.7 0A 13 4713 091E Alarm State:  0
Sat Jul 22 22:38:37 PDT 2017 ON: 19.99 +20.0 19.63 - 3.3 34.2 0A 14 4731 0919 Alarm State:  0
Sat Jul 22 22:37:36 PDT 2017 ON: 20.01 +20.0 19.68 - 4.6 33.5 07 14 472A 0905 Alarm State:  0
Sat Jul 22 22:36:34 PDT 2017 ON: 20.02 +20.0 19.72 - 5.1 33.2 0D 12 4716 0918 Alarm State:  0
Sat Jul 22 22:35:33 PDT 2017 ON: 19.99 +20.0 19.60 - 2.5 34.2 07 14 4808 0924 Alarm State:  0
Sat Jul 22 22:34:31 PDT 2017 ON: 20.00 +20.0 19.63 - 3.6 34.0 07 14 471B 0904 Alarm State:  0
Sat Jul 22 22:33:30 PDT 2017 ON: 20.00 +20.0 19.63 - 3.3 34.2 0A 14 471A 0910 Alarm State:  0
Sat Jul 22 22:32:28 PDT 2017 ON: 20.00 +20.0 19.68 - 4.4 33.4 00 14 4700 091B Alarm State:  0
Sat Jul 22 22:31:27 PDT 2017 ON: 20.02 +20.0 19.63 - 3.5 33.6 00 14 4727 0918 Alarm State:  0
Sat Jul 22 22:30:25 PDT 2017 ON: 19.99 +20.0 19.65 - 3.7 34.0 02 14 4713 0921 Alarm State:  0
Sat Jul 22 22:29:24 PDT 2017 ON: 20.01 +20.0 19.70 - 5.0 33.0 0D 14 4706 0A19 Alarm State:  0
Sat Jul 22 22:28:22 PDT 2017 ON: 19.99 +20.0 19.60 - 2.6 34.0 05 14 4802 092C Alarm State:  0
Sat Jul 22 22:27:21 PDT 2017 ON: 20.01 +20.0 19.64 - 2.9 34.0 02 14 480A 0927 Alarm State:  0
Sat Jul 22 22:26:19 PDT 2017 ON: 20.01 +20.0 19.67 - 3.8 33.7 00 14 4712 0910 Alarm State:  0
Sat Jul 22 22:25:18 PDT 2017 ON: 19.98 +20.0 19.62 - 3.1 34.0 0A 14 470C 0911 Alarm State:  0
Sat Jul 22 22:24:16 PDT 2017 ON: 20.01 +20.0 19.68 - 4.1 33.7 05 14 462A 0915 Alarm State:  0
Sat Jul 22 22:23:15 PDT 2017 ON: 19.99 +20.0 19.65 - 3.7 33.9 02 14 4715 0A0A Alarm State:  0
Sat Jul 22 22:22:13 PDT 2017 ON: 20.01 +20.0 19.69 - 4.5 33.3 0D 14 4710 0922 Alarm State:  0
Sat Jul 22 22:21:12 PDT 2017 ON: 20.03 +20.0 19.73 - 5.5 32.5 08 12 4629 090E Alarm State:  0
Sat Jul 22 22:20:10 PDT 2017 ON: 19.98 +20.0 19.62 - 3.2 34.1 0A 14 4709 0928 Alarm State:  0
Sat Jul 22 22:19:09 PDT 2017 ON: 20.01 +20.0 19.69 - 4.8 33.0 05 14 4628 091D Alarm State:  0
Sat Jul 22 22:18:07 PDT 2017 ON: 20.01 +20.0 19.62 - 3.0 33.6 00 14 4720 0918 Alarm State:  0
Sat Jul 22 22:17:06 PDT 2017 ON: 19.99 +20.0 19.66 - 3.6 34.0 02 14 471C 0915 Alarm State:  0
Sat Jul 22 22:16:04 PDT 2017 ON: 19.99 +20.0 19.68 - 4.5 33.2 05 14 4713 0A07 Alarm State:  0
Sat Jul 22 22:15:03 PDT 2017 ON: 20.01 +20.0 19.62 - 3.0 33.8 00 14 481C 090D Alarm State:  0
Sat Jul 22 22:14:01 PDT 2017 ON: 20.03 +20.0 19.65 - 3.9 33.4 00 14 4718 0921 Alarm State:  0
Sat Jul 22 22:13:00 PDT 2017 ON: 20.00 +20.0 19.66 - 3.7 34.1 02 14 4629 090B Alarm State:  0
Sat Jul 22 22:11:58 PDT 2017 ON: 20.00 +20.0 19.68 - 4.5 33.3 07 14 4616 0A0D Alarm State:  0
Sat Jul 22 22:10:57 PDT 2017 ON: 20.02 +20.0 19.64 - 3.8 33.6 00 14 4715 0906 Alarm State:  0
Sat Jul 22 22:09:55 PDT 2017 ON: 20.00 +20.0 19.62 - 2.7 34.2 00 14 471A 0921 Alarm State:  0
Sat Jul 22 22:08:54 PDT 2017 ON: 19.99 +20.0 19.64 - 3.9 34.1 05 14 4716 092D Alarm State:  0
Sat Jul 22 22:07:52 PDT 2017 ON: 20.01 +20.0 19.69 - 4.7 33.3 0D 14 4711 091F Alarm State:  0
Sat Jul 22 22:06:51 PDT 2017 ON: 20.00 +20.0 19.63 - 2.9 34.0 00 14 4812 091C Alarm State:  0
Sat Jul 22 22:05:49 PDT 2017 ON: 20.02 +20.0 19.67 - 4.3 33.4 00 14 472C 0903 Alarm State:  0
Sat Jul 22 22:04:48 PDT 2017 ON: 19.98 +20.0 19.61 - 2.9 34.1 00 14 4726 0904 Alarm State:  0
Sat Jul 22 22:03:46 PDT 2017 ON: 20.00 +20.0 19.66 - 4.4 33.3 07 14 4709 0910 Alarm State:  0
Sat Jul 22 22:02:45 PDT 2017 ON: 20.02 +20.0 19.69 - 4.8 32.9 0A 14 4723 0922 Alarm State:  0
Sat Jul 22 22:01:43 PDT 2017 ON: 19.98 +20.0 19.61 - 2.9 34.2 05 14 480B 092E Alarm State:  0
Sat Jul 22 22:00:42 PDT 2017 ON: 20.01 +20.0 19.68 - 4.5 33.5 05 14 4726 0925 Alarm State:  0
Sat Jul 22 21:59:40 PDT 2017 ON: 20.01 +20.0 19.69 - 4.3 33.4 0D 14 4715 090A Alarm State:  0
Sat Jul 22 21:58:39 PDT 2017 ON: 20.03 +20.0 19.67 - 4.2 33.2 00 14 4723 091E Alarm State:  0
Sat Jul 22 21:57:37 PDT 2017 ON: 20.01 +20.0 19.66 - 3.7 34.0 05 14 4726 0928 Alarm State:  0
Sat Jul 22 21:56:36 PDT 2017 ON: 20.00 +20.0 19.68 - 4.6 33.3 00 14 4710 0928 Alarm State:  0
Sat Jul 22 21:55:34 PDT 2017 ON: 20.01 +20.0 19.70 - 4.5 33.4 0D 13 4715 0905 Alarm State:  0
Sat Jul 22 21:54:33 PDT 2017 ON: 20.03 +20.0 19.71 - 4.6 33.3 0A 13 4707 0908 Alarm State:  0
Sat Jul 22 21:53:31 PDT 2017 ON: 20.02 +20.0 19.65 - 3.8 33.4 00 14 4716 0902 Alarm State:  0
Sat Jul 22 21:52:30 PDT 2017 ON: 19.99 +20.0 19.65 - 3.4 34.0 05 14 4710 0924 Alarm State:  0
Sat Jul 22 21:51:28 PDT 2017 ON: 19.99 +20.0 19.68 - 4.4 33.2 00 14 470D 0A22 Alarm State:  0
Sat Jul 22 21:50:27 PDT 2017 ON: 20.01 +20.0 19.60 - 3.1 33.7 00 14 4814 0928 Alarm State:  0
Sat Jul 22 21:49:25 PDT 2017 ON: 19.99 +20.0 19.67 - 4.0 33.6 00 14 4801 092B Alarm State:  0
Sat Jul 22 21:48:24 PDT 2017 ON: 20.01 +20.0 19.69 - 4.6 33.6 0D 14 4803 090C Alarm State:  0
Sat Jul 22 21:47:22 PDT 2017 ON: 20.00 +20.0 19.66 - 3.8 33.9 02 14 4711 0920 Alarm State:  0
Sat Jul 22 21:46:21 PDT 2017 ON: 19.98 +20.0 19.67 - 4.6 33.2 00 14 4632 0B00 Alarm State:  0
Sat Jul 22 21:45:19 PDT 2017 ON: 19.99 +20.0 19.59 - 2.4 34.0 00 14 4809 0927 Alarm State:  0
Sat Jul 22 21:44:18 PDT 2017 ON: 19.99 +20.0 19.67 - 4.0 33.9 0A 14 472A 092C Alarm State:  0
Sat Jul 22 21:43:16 PDT 2017 ON: 20.01 +20.0 19.69 - 4.4 33.7 0D 14 4727 0916 Alarm State:  0
Sat Jul 22 21:42:15 PDT 2017 ON: 19.99 +20.0 19.64 - 3.3 34.1 05 14 472B 0907 Alarm State:  0
Sat Jul 22 21:41:13 PDT 2017 ON: 20.00 +20.0 19.67 - 4.2 33.8 05 14 471A 0909 Alarm State:  0
Sat Jul 22 21:40:12 PDT 2017 ON: 20.01 +20.0 19.69 - 4.7 33.1 07 14 462F 091A Alarm State:  0
Sat Jul 22 21:39:10 PDT 2017 ON: 20.01 +20.0 19.62 - 3.0 33.8 00 14 4731 0924 Alarm State:  0
Sat Jul 22 21:38:09 PDT 2017 ON: 19.99 +20.0 19.67 - 4.2 33.5 07 14 4715 0A02 Alarm State:  0
Sat Jul 22 21:37:07 PDT 2017 ON: 20.01 +20.0 19.70 - 4.8 33.2 0D 13 471A 091E Alarm State:  0
Sat Jul 22 21:36:06 PDT 2017 ON: 19.99 +20.0 19.60 - 2.8 33.9 00 14 4812 0926 Alarm State:  0
Sat Jul 22 21:35:05 PDT 2017 ON: 20.02 +20.0 19.65 - 3.0 33.9 00 14 472F 0910 Alarm State:  0
Sat Jul 22 21:34:03 PDT 2017 ON: 20.00 +20.0 19.70 - 4.4 33.3 0A 13 462D 0924 Alarm State:  0
Sat Jul 22 21:33:02 PDT 2017 ON: 20.03 +20.0 19.71 - 5.2 32.9 0D 13 4708 0907 Alarm State:  0
Sat Jul 22 21:32:00 PDT 2017 ON: 19.99 +20.0 19.61 - 3.0 33.9 02 14 4707 0909 Alarm State:  0
Sat Jul 22 21:30:59 PDT 2017 ON: 19.99 +20.0 19.66 - 4.6 32.9 07 14 462E 0A04 Alarm State:  0
Sat Jul 22 21:29:57 PDT 2017 ON: 20.04 +20.0 19.70 - 4.3 33.3 08 13 471C 091D Alarm State:  0
Sat Jul 22 21:28:56 PDT 2017 ON: 20.01 +20.0 19.69 - 4.6 33.3 0A 14 4708 0905 Alarm State:  0
Sat Jul 22 21:27:54 PDT 2017 ON: 20.03 +20.0 19.68 - 4.9 32.7 00 14 4701 0903 Alarm State:  0
Sat Jul 22 21:26:53 PDT 2017 ON: 19.98 +20.0 19.66 - 3.8 34.0 02 14 4707 0921 Alarm State:  0
Sat Jul 22 21:25:51 PDT 2017 ON: 20.01 +20.0 19.68 - 4.7 33.0 02 14 470C 0A07 Alarm State:  0
Sat Jul 22 21:24:50 PDT 2017 ON: 20.01 +20.0 19.61 - 3.1 33.7 00 14 4809 0921 Alarm State:  0
Sat Jul 22 21:23:48 PDT 2017 ON: 20.00 +20.0 19.63 - 3.3 33.8 00 14 472D 0900 Alarm State:  0
Sat Jul 22 21:22:47 PDT 2017 ON: 20.02 +20.0 19.66 - 4.0 33.5 02 14 471F 090D Alarm State:  0
Sat Jul 22 21:21:45 PDT 2017 ON: 20.01 +20.0 19.63 - 3.6 33.6 00 14 4718 0921 Alarm State:  0
Sat Jul 22 21:20:44 PDT 2017 ON: 20.00 +20.0 19.69 - 4.4 33.3 00 14 462F 0A09 Alarm State:  0
Sat Jul 22 21:19:42 PDT 2017 ON: 20.03 +20.0 19.71 - 5.2 32.9 08 13 470D 0913 Alarm State:  0
Sat Jul 22 21:18:41 PDT 2017 ON: 20.00 +20.0 19.62 - 3.1 34.0 00 14 4701 0910 Alarm State:  0
Sat Jul 22 21:17:39 PDT 2017 ON: 20.00 +20.0 19.68 - 4.7 33.3 05 14 4611 091C Alarm State:  0
Sat Jul 22 21:16:38 PDT 2017 ON: 20.00 +20.0 19.61 - 3.3 33.6 00 14 4714 0914 Alarm State:  0
Sat Jul 22 21:15:36 PDT 2017 ON: 19.99 +20.0 19.66 - 3.6 34.1 07 14 4709 0912 Alarm State:  0
Sat Jul 22 21:14:35 PDT 2017 ON: 20.00 +20.0 19.68 - 4.3 33.7 05 14 4630 0903 Alarm State:  0
Sat Jul 22 21:13:33 PDT 2017 ON: 19.99 +20.0 19.63 - 2.9 34.2 07 14 4716 0921 Alarm State:  0
Sat Jul 22 21:12:32 PDT 2017 ON: 20.01 +20.0 19.68 - 4.3 33.6 00 14 470A 091C Alarm State:  0
Sat Jul 22 21:11:30 PDT 2017 ON: 20.02 +20.0 19.72 - 5.3 32.7 0D 13 470B 0A1B Alarm State:  0
Sat Jul 22 21:10:29 PDT 2017 ON: 19.98 +20.0 19.61 - 3.2 34.2 07 14 4731 0A01 Alarm State:  0
Sat Jul 22 21:09:27 PDT 2017 ON: 20.01 +20.0 19.69 - 4.6 33.3 0A 14 4722 091D Alarm State:  0
Sat Jul 22 21:08:26 PDT 2017 ON: 20.02 +20.0 19.71 - 4.9 33.3 0A 13 4710 0928 Alarm State:  0
Sat Jul 22 21:07:24 PDT 2017 ON: 19.99 +20.0 19.61 - 2.9 34.1 05 14 4717 0922 Alarm State:  0
Sat Jul 22 21:06:23 PDT 2017 ON: 20.00 +20.0 19.68 - 4.3 33.6 05 14 470F 0927 Alarm State:  0
Sat Jul 22 21:05:21 PDT 2017 ON: 20.01 +20.0 19.68 - 4.0 33.9 02 14 4716 0902 Alarm State:  0
Sat Jul 22 21:04:20 PDT 2017 ON: 20.01 +20.0 19.66 - 3.5 33.9 00 14 4712 090F Alarm State:  0
Sat Jul 22 21:03:18 PDT 2017 ON: 20.01 +20.0 19.61 - 2.7 34.0 02 14 4719 0903 Alarm State:  0
Sat Jul 22 21:02:17 PDT 2017 ON: 20.01 +20.0 19.68 - 4.3 33.6 07 14 4624 0918 Alarm State:  0
Sat Jul 22 21:01:15 PDT 2017 ON: 20.01 +20.0 19.72 - 5.2 32.9 0D 13 4625 0A12 Alarm State:  0
Sat Jul 22 21:00:14 PDT 2017 ON: 19.99 +20.0 19.60 - 2.6 34.1 07 14 4722 092A Alarm State:  0
Sat Jul 22 20:59:12 PDT 2017 ON: 20.01 +20.0 19.68 - 4.4 33.2 02 14 4632 090B Alarm State:  0
Sat Jul 22 20:58:11 PDT 2017 ON: 20.03 +20.0 19.68 - 4.4 33.2 00 14 4719 0923 Alarm State:  0
Sat Jul 22 20:57:09 PDT 2017 ON: 19.98 +20.0 19.64 - 3.6 34.0 05 14 472C 092F Alarm State:  0
Sat Jul 22 20:56:08 PDT 2017 ON: 20.01 +20.0 19.71 - 4.5 33.7 0D 13 4732 090E Alarm State:  0
Sat Jul 22 20:55:06 PDT 2017 ON: 20.01 +20.0 19.71 - 4.7 33.2 0D 13 4703 0922 Alarm State:  0
Sat Jul 22 20:54:05 PDT 2017 ON: 20.00 +20.0 19.62 - 2.8 33.9 02 14 472F 0910 Alarm State:  0
Sat Jul 22 20:53:03 PDT 2017 ON: 20.00 +20.0 19.67 - 3.6 34.0 0A 14 471A 0914 Alarm State:  0
Sat Jul 22 20:52:02 PDT 2017 ON: 20.00 +20.0 19.67 - 4.6 33.2 07 14 4708 0917 Alarm State:  0
Sat Jul 22 20:51:00 PDT 2017 ON: 20.03 +20.0 19.66 - 3.9 33.4 00 14 4731 0914 Alarm State:  0
Sat Jul 22 20:49:59 PDT 2017 ON: 19.99 +20.0 19.61 - 2.9 34.2 02 14 480E 0918 Alarm State:  0
Sat Jul 22 20:48:57 PDT 2017 ON: 20.01 +20.0 19.70 - 4.5 33.4 0A 13 472A 0916 Alarm State:  0
Sat Jul 22 20:47:56 PDT 2017 ON: 20.02 +20.0 19.71 - 4.9 33.2 0D 13 4726 0913 Alarm State:  0
Sat Jul 22 20:46:54 PDT 2017 ON: 20.02 +20.0 19.70 - 5.0 32.8 05 13 4717 0925 Alarm State:  0
Sat Jul 22 20:45:53 PDT 2017 ON: 19.98 +20.0 19.62 - 3.3 34.2 07 14 4802 091A Alarm State:  0
Sat Jul 22 20:44:51 PDT 2017 ON: 20.00 +20.0 19.68 - 4.3 33.4 0A 14 480F 0927 Alarm State:  0
Sat Jul 22 20:43:50 PDT 2017 ON: 20.02 +20.0 19.68 - 4.5 33.2 0A 14 4823 0911 Alarm State:  0
Sat Jul 22 20:42:48 PDT 2017 ON: 20.01 +20.0 19.69 - 4.5 33.3 0D 14 472D 0925 Alarm State:  0
Sat Jul 22 20:41:47 PDT 2017 ON: 20.02 +20.0 19.68 - 4.1 33.5 00 14 4727 0909 Alarm State:  0
Sat Jul 22 20:40:45 PDT 2017 ON: 20.03 +20.0 19.71 - 4.7 33.2 0D 13 4621 091D Alarm State:  0
Sat Jul 22 20:39:44 PDT 2017 ON: 20.04 +20.0 19.73 - 5.1 32.9 08 12 461F 0901 Alarm State:  0
Sat Jul 22 20:38:42 PDT 2017 ON: 19.99 +20.0 19.62 - 3.1 33.8 05 14 4624 091C Alarm State:  0
Sat Jul 22 20:37:41 PDT 2017 ON: 19.97 +20.0 19.64 - 4.0 33.2 07 14 470B 0A05 Alarm State:  0
Sat Jul 22 20:36:39 PDT 2017 ON: 20.01 +20.0 19.63 - 2.9 33.8 00 14 4813 0906 Alarm State:  0
Sat Jul 22 20:35:38 PDT 2017 ON: 20.01 +20.0 19.67 - 4.1 33.6 00 14 470A 091B Alarm State:  0
Sat Jul 22 20:34:36 PDT 2017 ON: 19.99 +20.0 19.67 - 3.9 33.9 05 14 462A 091F Alarm State:  0
Sat Jul 22 20:33:35 PDT 2017 ON: 20.00 +20.0 19.69 - 4.8 33.3 05 14 462C 0906 Alarm State:  0
Sat Jul 22 20:32:33 PDT 2017 ON: 19.99 +20.0 19.68 - 4.2 33.3 00 14 4712 0A10 Alarm State:  0
Sat Jul 22 20:31:32 PDT 2017 ON: 20.02 +20.0 19.69 - 4.5 33.6 0A 14 4726 0917 Alarm State:  0
Sat Jul 22 20:30:30 PDT 2017 ON: 19.99 +20.0 19.64 - 3.5 34.1 02 14 470F 0919 Alarm State:  0
Sat Jul 22 20:29:29 PDT 2017 ON: 20.01 +20.0 19.69 - 4.6 33.2 00 14 462A 0916 Alarm State:  0
Sat Jul 22 20:28:27 PDT 2017 ON: 20.02 +20.0 19.66 - 4.0 33.5 00 14 471A 0919 Alarm State:  0
Sat Jul 22 20:27:26 PDT 2017 ON: 19.99 +20.0 19.65 - 3.7 34.0 05 14 4726 0A0A Alarm State:  0
Sat Jul 22 20:26:24 PDT 2017 ON: 20.01 +20.0 19.69 - 4.4 33.6 0D 14 4723 0924 Alarm State:  0
Sat Jul 22 20:25:23 PDT 2017 ON: 20.00 +20.0 19.69 - 4.6 33.2 0D 14 4717 0929 Alarm State:  0
Sat Jul 22 20:24:21 PDT 2017 ON: 20.00 +20.0 19.61 - 2.8 33.8 00 14 481F 090A Alarm State:  0
Sat Jul 22 20:23:20 PDT 2017 ON: 20.01 +20.0 19.63 - 3.4 33.7 05 14 4726 091F Alarm State:  0
Sat Jul 22 20:22:18 PDT 2017 ON: 19.99 +20.0 19.64 - 3.0 34.0 00 14 471D 0921 Alarm State:  0
Sat Jul 22 20:21:17 PDT 2017 ON: 20.01 +20.0 19.63 - 3.4 34.0 07 14 4711 0905 Alarm State:  0
Sat Jul 22 20:20:15 PDT 2017 ON: 20.00 +20.0 19.68 - 4.1 33.7 05 14 462B 0919 Alarm State:  0
Sat Jul 22 20:19:14 PDT 2017 ON: 20.02 +20.0 19.70 - 5.0 33.2 0D 13 4629 091A Alarm State:  0
Sat Jul 22 20:18:12 PDT 2017 ON: 19.99 +20.0 19.61 - 2.8 33.9 00 14 471F 0922 Alarm State:  0
Sat Jul 22 20:17:11 PDT 2017 ON: 20.00 +20.0 19.69 - 4.2 33.7 05 14 462E 092F Alarm State:  0
Sat Jul 22 20:16:09 PDT 2017 ON: 20.00 +20.0 19.70 - 4.5 33.4 0D 13 4708 0921 Alarm State:  0
Sat Jul 22 20:15:08 PDT 2017 ON: 20.00 +20.0 19.71 - 4.7 33.1 0D 13 470C 0924 Alarm State:  0
Sat Jul 22 20:14:06 PDT 2017 ON: 20.03 +20.0 19.69 - 4.4 33.3 05 14 4721 090D Alarm State:  0
Sat Jul 22 20:13:05 PDT 2017 ON: 20.02 +20.0 19.71 - 5.1 33.1 0A 13 4618 0922 Alarm State:  0
Sat Jul 22 20:12:03 PDT 2017 ON: 19.98 +20.0 19.60 - 2.7 34.1 07 14 4700 0928 Alarm State:  0
Sat Jul 22 20:11:02 PDT 2017 ON: 19.99 +20.0 19.67 - 4.8 33.0 00 14 4617 0A0A Alarm State:  0
Sat Jul 22 20:10:00 PDT 2017 ON: 20.01 +20.0 19.65 - 3.8 33.4 00 14 471B 091B Alarm State:  0
Sat Jul 22 20:08:59 PDT 2017 ON: 19.98 +20.0 19.62 - 3.5 34.1 02 14 472F 0928 Alarm State:  0
Sat Jul 22 20:07:57 PDT 2017 ON: 20.02 +20.0 19.71 - 4.9 33.1 0D 13 4728 090E Alarm State:  0
Sat Jul 22 20:06:56 PDT 2017 ON: 20.01 +20.0 19.66 - 3.8 33.5 00 14 4730 0911 Alarm State:  0
Sat Jul 22 20:05:54 PDT 2017 ON: 20.02 +20.0 19.67 - 4.1 33.4 00 14 4725 091D Alarm State:  0
Sat Jul 22 20:04:53 PDT 2017 ON: 20.04 +20.0 19.70 - 5.0 32.7 0D 13 470B 0903 Alarm State:  0
Sat Jul 22 20:03:51 PDT 2017 ON: 19.99 +20.0 19.63 - 3.5 34.0 0A 14 4702 0931 Alarm State:  0
Sat Jul 22 20:02:50 PDT 2017 ON: 20.00 +20.0 19.69 - 4.7 33.1 07 14 4621 092A Alarm State:  0
Sat Jul 22 20:01:48 PDT 2017 ON: 19.99 +20.0 19.62 - 2.8 33.8 00 14 4727 0901 Alarm State:  0
Sat Jul 22 20:00:47 PDT 2017 ON: 19.98 +20.0 19.67 - 3.9 33.9 0A 14 4721 091E Alarm State:  0
Sat Jul 22 19:59:45 PDT 2017 ON: 20.01 +20.0 19.70 - 4.8 33.3 0D 13 4722 0925 Alarm State:  0
Sat Jul 22 19:58:44 PDT 2017 ON: 20.00 +20.0 19.69 - 4.4 33.5 0D 14 4712 0909 Alarm State:  0
Sat Jul 22 19:57:42 PDT 2017 ON: 20.02 +20.0 19.70 - 4.4 33.3 0D 13 4713 0922 Alarm State:  0
Sat Jul 22 19:56:41 PDT 2017 ON: 20.02 +20.0 19.67 - 4.6 33.2 00 14 471A 0928 Alarm State:  0
Sat Jul 22 19:55:39 PDT 2017 ON: 20.02 +20.0 19.67 - 4.1 33.2 00 14 462B 0912 Alarm State:  0
Sat Jul 22 19:54:38 PDT 2017 ON: 19.99 +20.0 19.66 - 3.9 33.8 00 14 462A 0A02 Alarm State:  0
Sat Jul 22 19:53:36 PDT 2017 ON: 20.01 +20.0 19.70 - 4.8 33.3 0A 13 4705 0911 Alarm State:  0
Sat Jul 22 19:52:35 PDT 2017 ON: 20.00 +20.0 19.70 - 4.6 33.0 0D 13 4704 0915 Alarm State:  0
Sat Jul 22 19:51:33 PDT 2017 ON: 20.02 +20.0 19.64 - 3.8 33.5 00 14 472E 0911 Alarm State:  0
Sat Jul 22 19:50:32 PDT 2017 ON: 20.00 +20.0 19.63 - 3.4 33.7 00 14 4727 0921 Alarm State:  0
Sat Jul 22 19:49:30 PDT 2017 ON: 19.98 +20.0 19.67 - 3.9 33.9 0A 14 4717 0926 Alarm State:  0
Sat Jul 22 19:48:29 PDT 2017 ON: 20.01 +20.0 19.68 - 4.6 33.3 00 14 4716 0910 Alarm State:  0
Sat Jul 22 19:47:27 PDT 2017 ON: 20.03 +20.0 19.69 - 4.9 32.9 0D 14 4710 0907 Alarm State:  0
Sat Jul 22 19:46:26 PDT 2017 ON: 19.98 +20.0 19.62 - 3.3 34.1 02 14 4713 092B Alarm State:  0
Sat Jul 22 19:45:24 PDT 2017 ON: 20.01 +20.0 19.67 - 4.2 33.7 07 14 470B 0926 Alarm State:  0
Sat Jul 22 19:44:23 PDT 2017 ON: 20.03 +20.0 19.74 - 5.2 33.1 0D 11 4629 091C Alarm State:  0
Sat Jul 22 19:43:21 PDT 2017 ON: 20.01 +20.0 19.63 - 3.3 33.7 00 14 4702 0900 Alarm State:  0
Sat Jul 22 19:42:20 PDT 2017 ON: 19.99 +20.0 19.66 - 4.1 33.3 00 14 462E 092D Alarm State:  0
Sat Jul 22 19:41:18 PDT 2017 ON: 20.02 +20.0 19.69 - 4.6 33.2 08 14 4719 091B Alarm State:  0
Sat Jul 22 19:40:17 PDT 2017 ON: 20.00 +20.0 19.67 - 4.0 33.9 05 14 470E 0929 Alarm State:  0
Sat Jul 22 19:39:15 PDT 2017 ON: 20.01 +20.0 19.69 - 4.7 33.3 0D 14 4708 0923 Alarm State:  0
Sat Jul 22 19:38:14 PDT 2017 ON: 20.01 +20.0 19.60 - 3.0 33.8 00 14 480A 0919 Alarm State:  0
Sat Jul 22 19:37:12 PDT 2017 ON: 20.03 +20.0 19.67 - 4.3 33.2 00 14 4632 0905 Alarm State:  0
Sat Jul 22 19:36:11 PDT 2017 ON: 19.99 +20.0 19.65 - 4.0 33.7 05 14 462B 0A07 Alarm State:  0
Sat Jul 22 19:35:09 PDT 2017 ON: 20.01 +20.0 19.71 - 5.2 33.1 0D 13 4702 0A18 Alarm State:  0
Sat Jul 22 19:34:08 PDT 2017 ON: 19.99 +20.0 19.60 - 2.4 34.2 00 14 4804 0929 Alarm State:  0
Sat Jul 22 19:33:06 PDT 2017 ON: 20.00 +20.0 19.68 - 4.4 33.1 00 14 4723 0928 Alarm State:  0
Sat Jul 22 19:32:05 PDT 2017 ON: 20.02 +20.0 19.67 - 4.1 33.6 00 14 4813 0915 Alarm State:  0
Sat Jul 22 19:31:03 PDT 2017 ON: 20.00 +20.0 19.61 - 3.0 34.0 02 14 4803 091E Alarm State:  0
Sat Jul 22 19:30:02 PDT 2017 ON: 20.02 +20.0 19.64 - 3.8 33.5 02 14 4715 0909 Alarm State:  0
Sat Jul 22 19:29:00 PDT 2017 ON: 19.99 +20.0 19.66 - 4.2 33.2 07 14 4707 0A0A Alarm State:  0
Sat Jul 22 19:27:59 PDT 2017 ON: 20.02 +20.0 19.72 - 4.8 33.3 0A 12 4720 090A Alarm State:  0
Sat Jul 22 19:26:57 PDT 2017 ON: 20.02 +20.0 19.71 - 4.9 33.2 0D 13 461B 091F Alarm State:  0
Sat Jul 22 19:25:56 PDT 2017 ON: 19.99 +20.0 19.59 - 2.5 34.0 00 14 4715 090D Alarm State:  0
Sat Jul 22 19:24:54 PDT 2017 ON: 20.00 +20.0 19.67 - 4.3 33.3 07 14 462A 091E Alarm State:  0
Sat Jul 22 19:23:53 PDT 2017 ON: 20.02 +20.0 19.69 - 4.6 33.0 08 14 4716 091B Alarm State:  0
Sat Jul 22 19:22:51 PDT 2017 ON: 20.01 +20.0 19.65 - 4.1 33.4 02 14 462B 0907 Alarm State:  0
Sat Jul 22 19:21:50 PDT 2017 ON: 19.99 +20.0 19.63 - 3.1 34.1 05 14 462A 0925 Alarm State:  0
Sat Jul 22 19:20:48 PDT 2017 ON: 19.99 +20.0 19.67 - 4.6 33.1 00 14 4624 0924 Alarm State:  0
Sat Jul 22 19:19:47 PDT 2017 ON: 20.01 +20.0 19.71 - 4.9 33.1 0A 13 470E 090B Alarm State:  0
Sat Jul 22 19:18:45 PDT 2017 ON: 19.99 +20.0 19.61 - 2.9 33.9 00 14 4801 0903 Alarm State:  0
Sat Jul 22 19:17:44 PDT 2017 ON: 19.99 +20.0 19.62 - 3.1 34.1 05 14 4808 0929 Alarm State:  0
Sat Jul 22 19:16:42 PDT 2017 ON: 20.01 +20.0 19.65 - 3.6 33.9 02 14 4729 0911 Alarm State:  0
Sat Jul 22 19:15:41 PDT 2017 ON: 19.99 +20.0 19.66 - 3.9 34.0 02 14 4706 091F Alarm State:  0
Sat Jul 22 19:14:39 PDT 2017 ON: 20.02 +20.0 19.69 - 4.7 33.3 00 14 4629 091A Alarm State:  0
Sat Jul 22 19:13:38 PDT 2017 ON: 20.00 +20.0 19.63 - 3.3 33.6 02 14 4709 0912 Alarm State:  0
Sat Jul 22 19:12:36 PDT 2017 ON: 19.99 +20.0 19.68 - 4.4 33.1 00 14 462E 0923 Alarm State:  0
Sat Jul 22 19:11:35 PDT 2017 ON: 20.02 +20.0 19.69 - 5.1 32.8 08 14 470E 091C Alarm State:  0
Sat Jul 22 19:10:33 PDT 2017 ON: 19.99 +20.0 19.61 - 3.1 34.1 05 14 4728 0921 Alarm State:  0
Sat Jul 22 19:09:32 PDT 2017 ON: 20.01 +20.0 19.69 - 4.7 33.1 0A 14 4715 091F Alarm State:  0
Sat Jul 22 19:08:30 PDT 2017 ON: 20.01 +20.0 19.70 - 4.7 33.2 0D 13 4727 0925 Alarm State:  0
Sat Jul 22 19:07:29 PDT 2017 ON: 20.02 +20.0 19.69 - 4.9 33.0 0D 14 472C 0927 Alarm State:  0
Sat Jul 22 19:06:27 PDT 2017 ON: 20.01 +20.0 19.69 - 4.4 33.5 0A 14 4716 0913 Alarm State:  0
Sat Jul 22 19:05:26 PDT 2017 ON: 20.03 +20.0 19.70 - 5.3 32.9 0A 13 4705 091D Alarm State:  0
Sat Jul 22 19:04:25 PDT 2017 ON: 20.02 +20.0 19.64 - 4.1 33.2 00 14 4705 0905 Alarm State:  0
Sat Jul 22 19:03:23 PDT 2017 ON: 19.99 +20.0 19.64 - 3.7 34.0 0A 14 4702 0931 Alarm State:  0
Sat Jul 22 19:02:22 PDT 2017 ON: 20.02 +20.0 19.69 - 4.8 33.1 0D 14 4702 091C Alarm State:  0
Sat Jul 22 19:01:20 PDT 2017 ON: 20.02 +20.0 19.68 - 4.6 33.2 00 14 4709 0916 Alarm State:  0
Sat Jul 22 19:00:19 PDT 2017 ON: 20.00 +20.0 19.60 - 2.9 34.0 04 14 470F 0911 Alarm State:  0
Sat Jul 22 18:59:17 PDT 2017 ON: 20.00 +20.0 19.65 - 4.4 33.5 07 14 4629 0921 Alarm State:  0
Sat Jul 22 18:58:16 PDT 2017 ON: 20.02 +20.0 19.72 - 5.3 32.8 0D 12 4704 0912 Alarm State:  0
Sat Jul 22 18:57:14 PDT 2017 ON: 20.01 +20.0 19.63 - 3.0 34.0 05 14 4719 0916 Alarm State:  0
Sat Jul 22 18:56:13 PDT 2017 ON: 20.00 +20.0 19.67 - 4.4 33.4 05 14 4703 0A02 Alarm State:  0
Sat Jul 22 18:55:11 PDT 2017 ON: 20.03 +20.0 19.72 - 4.9 33.1 0D 12 4706 091A Alarm State:  0
Sat Jul 22 18:54:10 PDT 2017 ON: 20.03 +20.0 19.62 - 3.6 33.6 00 14 471E 090B Alarm State:  0
Sat Jul 22 18:53:08 PDT 2017 ON: 19.99 +20.0 19.66 - 4.2 33.6 00 14 462A 091D Alarm State:  0
Sat Jul 22 18:52:07 PDT 2017 ON: 20.04 +20.0 19.73 - 5.4 32.9 0D 12 4630 0908 Alarm State:  0
Sat Jul 22 18:51:05 PDT 2017 ON: 19.98 +20.0 19.62 - 3.3 34.2 07 14 470C 091D Alarm State:  0
Sat Jul 22 18:50:04 PDT 2017 ON: 20.02 +20.0 19.68 - 4.1 33.7 02 14 4702 090C Alarm State:  0
Sat Jul 22 18:49:02 PDT 2017 ON: 20.00 +20.0 19.68 - 4.3 33.3 00 14 4618 091C Alarm State:  0
Sat Jul 22 18:48:01 PDT 2017 ON: 20.04 +20.0 19.70 - 4.8 32.8 05 13 4632 091A Alarm State:  0
Sat Jul 22 18:46:59 PDT 2017 ON: 19.98 +20.0 19.64 - 3.6 34.0 02 14 4710 0924 Alarm State:  0
Sat Jul 22 18:45:58 PDT 2017 ON: 20.01 +20.0 19.68 - 4.6 33.2 07 14 470E 0905 Alarm State:  0
Sat Jul 22 18:44:56 PDT 2017 ON: 20.01 +20.0 19.65 - 3.9 33.5 00 14 472D 0924 Alarm State:  0
Sat Jul 22 18:43:55 PDT 2017 ON: 19.98 +20.0 19.63 - 3.4 34.1 0A 14 472B 0919 Alarm State:  0
Sat Jul 22 18:42:53 PDT 2017 ON: 20.01 +20.0 19.67 - 4.3 33.7 0A 14 4718 0913 Alarm State:  0
Sat Jul 22 18:41:52 PDT 2017 ON: 20.01 +20.0 19.68 - 4.7 33.0 07 14 4708 0918 Alarm State:  0
Sat Jul 22 18:40:50 PDT 2017 ON: 20.03 +20.0 19.70 - 4.8 32.9 0D 13 4717 0913 Alarm State:  0
Sat Jul 22 18:39:49 PDT 2017 ON: 20.00 +20.0 19.63 - 3.0 33.9 02 14 4715 0908 Alarm State:  0
Sat Jul 22 18:38:47 PDT 2017 ON: 19.99 +20.0 19.67 - 4.3 33.6 05 14 462D 0916 Alarm State:  0
Sat Jul 22 18:37:46 PDT 2017 ON: 20.00 +20.0 19.69 - 4.6 33.3 0D 14 4703 0925 Alarm State:  0
Sat Jul 22 18:36:44 PDT 2017 ON: 20.01 +20.0 19.71 - 4.8 33.1 0D 13 470B 0922 Alarm State:  0
Sat Jul 22 18:35:43 PDT 2017 ON: 20.02 +20.0 19.70 - 4.9 33.0 0D 13 470B 0908 Alarm State:  0
Sat Jul 22 18:34:41 PDT 2017 ON: 20.01 +20.0 19.70 - 4.4 33.4 0D 13 4712 0902 Alarm State:  0
Sat Jul 22 18:33:40 PDT 2017 ON: 20.01 +20.0 19.70 - 5.1 33.2 0D 13 4622 0916 Alarm State:  0
Sat Jul 22 18:32:38 PDT 2017 ON: 19.99 +20.0 19.61 - 2.9 33.9 05 14 470F 0921 Alarm State:  0
Sat Jul 22 18:31:37 PDT 2017 ON: 20.00 +20.0 19.68 - 4.4 33.4 07 14 4629 0908 Alarm State:  0
Sat Jul 22 18:30:35 PDT 2017 ON: 20.03 +20.0 19.69 - 5.1 32.6 0D 14 4708 0918 Alarm State:  0
Sat Jul 22 18:29:34 PDT 2017 ON: 19.97 +20.0 19.64 - 3.3 34.2 0A 14 4717 0924 Alarm State:  0
Sat Jul 22 18:28:32 PDT 2017 ON: 20.00 +20.0 19.68 - 4.7 33.2 00 14 470B 0A13 Alarm State:  0
Sat Jul 22 18:27:31 PDT 2017 ON: 20.02 +20.0 19.63 - 2.9 33.9 00 14 4811 0903 Alarm State:  0
Sat Jul 22 18:26:29 PDT 2017 ON: 20.02 +20.0 19.63 - 3.3 34.0 02 14 471E 0916 Alarm State:  0
Sat Jul 22 18:25:28 PDT 2017 ON: 20.00 +20.0 19.68 - 4.2 33.9 05 14 462E 0928 Alarm State:  0
Sat Jul 22 18:24:26 PDT 2017 ON: 20.02 +20.0 19.71 - 5.0 33.1 0D 13 4626 091D Alarm State:  0
Sat Jul 22 18:23:25 PDT 2017 ON: 20.00 +20.0 19.61 - 3.1 33.8 02 14 4722 091F Alarm State:  0
Sat Jul 22 18:22:23 PDT 2017 ON: 20.00 +20.0 19.67 - 4.5 33.4 02 14 4708 0909 Alarm State:  0
Sat Jul 22 18:21:22 PDT 2017 ON: 20.03 +20.0 19.72 - 5.2 33.0 0D 12 470B 0901 Alarm State:  0
Sat Jul 22 18:20:20 PDT 2017 ON: 20.00 +20.0 19.63 - 3.2 33.8 07 14 4705 0908 Alarm State:  0
Sat Jul 22 18:19:19 PDT 2017 ON: 19.98 +20.0 19.66 - 4.3 33.2 00 14 4627 0A08 Alarm State:  0
Sat Jul 22 18:18:17 PDT 2017 ON: 20.02 +20.0 19.64 - 3.7 33.5 00 14 4722 0912 Alarm State:  0
Sat Jul 22 18:17:16 PDT 2017 ON: 20.00 +20.0 19.63 - 3.9 34.0 02 14 4707 091C Alarm State:  0
Sat Jul 22 18:16:14 PDT 2017 ON: 20.01 +20.0 19.69 - 4.9 33.0 07 14 4624 0925 Alarm State:  0
Sat Jul 22 18:15:13 PDT 2017 ON: 20.00 +20.0 19.61 - 3.2 33.7 00 14 4720 0923 Alarm State:  0
Sat Jul 22 18:14:11 PDT 2017 ON: 19.99 +20.0 19.64 - 3.8 34.0 0A 14 4708 0926 Alarm State:  0
Sat Jul 22 18:13:10 PDT 2017 ON: 20.01 +20.0 19.69 - 4.8 32.9 00 14 462C 091E Alarm State:  0
Sat Jul 22 18:12:08 PDT 2017 ON: 20.04 +20.0 19.67 - 4.4 33.1 00 14 471B 090A Alarm State:  0
Sat Jul 22 18:11:07 PDT 2017 ON: 19.98 +20.0 19.66 - 4.0 33.7 05 14 470C 0A06 Alarm State:  0
Sat Jul 22 18:10:05 PDT 2017 ON: 20.02 +20.0 19.71 - 4.9 33.5 0D 13 4712 0917 Alarm State:  0
Sat Jul 22 18:09:04 PDT 2017 ON: 20.00 +20.0 19.69 - 4.6 33.2 02 14 4610 0929 Alarm State:  0
Sat Jul 22 18:08:02 PDT 2017 ON: 20.02 +20.0 19.65 - 3.8 33.4 00 14 470D 0911 Alarm State:  0
Sat Jul 22 18:07:01 PDT 2017 ON: 19.98 +20.0 19.65 - 4.1 33.6 05 14 470A 0A07 Alarm State:  0
Sat Jul 22 18:05:59 PDT 2017 ON: 20.00 +20.0 19.68 - 4.6 33.1 0D 14 4805 092B Alarm State:  0
Sat Jul 22 18:04:58 PDT 2017 ON: 20.01 +20.0 19.63 - 3.5 33.7 00 14 4907 090A Alarm State:  0
Sat Jul 22 18:03:56 PDT 2017 ON: 20.02 +20.0 19.68 - 4.8 33.1 02 14 472F 091F Alarm State:  0
Sat Jul 22 18:02:55 PDT 2017 ON: 20.01 +20.0 19.70 - 4.4 33.6 0D 13 4805 0921 Alarm State:  0
Sat Jul 22 18:01:53 PDT 2017 ON: 20.01 +20.0 19.68 - 4.6 33.6 05 14 4732 0903 Alarm State:  0
Sat Jul 22 18:00:52 PDT 2017 ON: 20.02 +20.0 19.69 - 4.7 33.7 0D 14 470F 0917 Alarm State:  0
Sat Jul 22 17:59:50 PDT 2017 ON: 19.99 +20.0 19.68 - 4.3 33.8 0A 14 4620 0928 Alarm State:  0
Sat Jul 22 17:58:49 PDT 2017 ON: 20.01 +20.0 19.71 - 4.9 33.2 0D 13 4619 0914 Alarm State:  0
Sat Jul 22 17:57:47 PDT 2017 ON: 19.99 +20.0 19.60 - 2.7 33.9 04 14 471C 0915 Alarm State:  0
Sat Jul 22 17:56:46 PDT 2017 ON: 20.01 +20.0 19.68 - 4.6 33.4 05 14 4628 0927 Alarm State:  0
Sat Jul 22 17:55:45 PDT 2017 ON: 20.00 +20.0 19.71 - 5.3 33.0 0D 13 4632 0A08 Alarm State:  0
Sat Jul 22 17:54:43 PDT 2017 ON: 19.98 +20.0 19.60 - 2.4 34.1 02 14 4805 090F Alarm State:  0
Sat Jul 22 17:53:42 PDT 2017 ON: 20.00 +20.0 19.65 - 4.2 33.5 05 14 4805 0A06 Alarm State:  0
Sat Jul 22 17:52:40 PDT 2017 ON: 20.03 +20.0 19.70 - 5.0 33.2 0D 13 4802 091E Alarm State:  0
Sat Jul 22 17:51:39 PDT 2017 ON: 20.00 +20.0 19.61 - 2.9 34.0 02 14 4806 0915 Alarm State:  0
Sat Jul 22 17:50:37 PDT 2017 ON: 20.01 +20.0 19.66 - 4.2 33.7 07 14 4704 0900 Alarm State:  0
Sat Jul 22 17:49:36 PDT 2017 ON: 20.02 +20.0 19.72 - 5.4 32.8 0A 13 4619 0A15 Alarm State:  0
Sat Jul 22 17:48:34 PDT 2017 ON: 19.98 +20.0 19.60 - 2.6 34.0 04 14 470D 092C Alarm State:  0
Sat Jul 22 17:47:33 PDT 2017 ON: 19.98 +20.0 19.62 - 3.4 34.1 07 14 471B 0917 Alarm State:  0
Sat Jul 22 17:46:31 PDT 2017 ON: 20.00 +20.0 19.65 - 4.0 33.8 05 14 470E 0911 Alarm State:  0
Sat Jul 22 17:45:30 PDT 2017 ON: 20.00 +20.0 19.62 - 3.0 33.9 02 14 471F 090F Alarm State:  0
Sat Jul 22 17:44:28 PDT 2017 ON: 19.99 +20.0 19.67 - 4.2 33.7 07 14 471D 0920 Alarm State:  0
Sat Jul 22 17:43:27 PDT 2017 ON: 20.01 +20.0 19.71 - 4.9 33.2 0D 13 4722 0904 Alarm State:  0
Sat Jul 22 17:42:25 PDT 2017 ON: 20.00 +20.0 19.61 - 2.8 33.9 00 14 4817 0906 Alarm State:  0
Sat Jul 22 17:41:24 PDT 2017 ON: 19.99 +20.0 19.67 - 3.9 33.9 05 14 4723 091A Alarm State:  0
Sat Jul 22 17:40:22 PDT 2017 ON: 20.00 +20.0 19.69 - 4.9 33.1 0D 14 470D 0A02 Alarm State:  0
Sat Jul 22 17:39:21 PDT 2017 ON: 20.00 +20.0 19.60 - 2.5 34.0 00 14 4817 090D Alarm State:  0
Sat Jul 22 17:38:19 PDT 2017 ON: 20.01 +20.0 19.62 - 3.5 33.8 02 14 472C 0920 Alarm State:  0
Sat Jul 22 17:37:18 PDT 2017 ON: 20.00 +20.0 19.64 - 3.4 34.0 05 14 470F 0907 Alarm State:  0
Sat Jul 22 17:36:16 PDT 2017 ON: 20.00 +20.0 19.67 - 4.6 33.0 00 14 4705 0A14 Alarm State:  0
Sat Jul 22 17:35:15 PDT 2017 ON: 20.00 +20.0 19.59 - 2.5 33.9 00 14 480F 0911 Alarm State:  0
Sat Jul 22 17:34:13 PDT 2017 ON: 20.00 +20.0 19.67 - 4.4 33.4 00 14 4710 0926 Alarm State:  0
Sat Jul 22 17:33:12 PDT 2017 ON: 20.03 +20.0 19.71 - 5.2 32.8 0A 13 470B 0903 Alarm State:  0
Sat Jul 22 17:32:10 PDT 2017 ON: 19.98 +20.0 19.64 - 3.6 34.1 07 14 4707 091F Alarm State:  0
Sat Jul 22 17:31:09 PDT 2017 ON: 20.00 +20.0 19.68 - 4.6 33.3 05 14 4704 0A17 Alarm State:  0
Sat Jul 22 17:30:07 PDT 2017 ON: 20.00 +20.0 19.61 - 2.6 33.9 00 14 480D 0921 Alarm State:  0
Sat Jul 22 17:29:06 PDT 2017 ON: 20.00 +20.0 19.65 - 3.6 34.0 05 14 4717 090A Alarm State:  0
Sat Jul 22 17:28:04 PDT 2017 ON: 20.00 +20.0 19.67 - 4.6 33.1 02 14 462A 091F Alarm State:  0
Sat Jul 22 17:27:03 PDT 2017 ON: 20.02 +20.0 19.64 - 3.6 33.6 00 14 4728 090A Alarm State:  0
Sat Jul 22 17:26:01 PDT 2017 ON: 20.02 +20.0 19.69 - 5.0 32.9 00 14 461F 091F Alarm State:  0
Sat Jul 22 17:25:00 PDT 2017 ON: 19.99 +20.0 19.62 - 3.0 33.9 00 14 4717 0925 Alarm State:  0
Sat Jul 22 17:23:58 PDT 2017 ON: 20.00 +20.0 19.63 - 3.2 33.8 02 14 472B 0918 Alarm State:  0
Sat Jul 22 17:22:57 PDT 2017 ON: 20.00 +20.0 19.63 - 3.5 34.1 02 14 471A 0924 Alarm State:  0
Sat Jul 22 17:21:55 PDT 2017 ON: 20.01 +20.0 19.69 - 4.9 32.9 02 14 4631 090C Alarm State:  0
Sat Jul 22 17:20:54 PDT 2017 ON: 20.02 +20.0 19.64 - 4.0 33.4 00 14 471F 090D Alarm State:  0
Sat Jul 22 17:19:52 PDT 2017 ON: 19.99 +20.0 19.63 - 3.3 34.1 02 14 471D 0910 Alarm State:  0
Sat Jul 22 17:18:51 PDT 2017 ON: 20.01 +20.0 19.68 - 4.8 33.1 02 14 462D 091C Alarm State:  0
Sat Jul 22 17:17:49 PDT 2017 ON: 20.00 +20.0 19.61 - 3.0 33.7 00 14 472A 0912 Alarm State:  0
Sat Jul 22 17:16:48 PDT 2017 ON: 19.99 +20.0 19.66 - 4.4 33.1 05 14 4721 0A14 Alarm State:  0
Sat Jul 22 17:15:46 PDT 2017 ON: 20.03 +20.0 19.72 - 5.2 32.7 08 12 4804 0913 Alarm State:  0
Sat Jul 22 17:14:45 PDT 2017 ON: 20.00 +20.0 19.63 - 3.0 33.9 00 14 4803 0A05 Alarm State:  0
Sat Jul 22 17:13:43 PDT 2017 ON: 19.98 +20.0 19.63 - 4.2 33.4 07 14 472E 0A1F Alarm State:  0
Sat Jul 22 17:12:42 PDT 2017 ON: 20.01 +20.0 19.63 - 2.9 33.7 00 14 4830 0920 Alarm State:  0
Sat Jul 22 17:11:40 PDT 2017 ON: 20.02 +20.0 19.67 - 4.4 33.1 00 14 4727 090C Alarm State:  0
Sat Jul 22 17:10:39 PDT 2017 ON: 20.01 +20.0 19.64 - 3.3 33.8 00 14 472E 0904 Alarm State:  0
Sat Jul 22 17:09:37 PDT 2017 ON: 20.00 +20.0 19.61 - 3.1 33.9 02 14 4724 0901 Alarm State:  0
Sat Jul 22 17:08:36 PDT 2017 ON: 20.01 +20.0 19.68 - 4.6 33.3 02 14 462A 0915 Alarm State:  0
Sat Jul 22 17:07:34 PDT 2017 ON: 20.00 +20.0 19.59 - 3.1 33.7 00 14 4729 0903 Alarm State:  0
Sat Jul 22 17:06:33 PDT 2017 ON: 19.98 +20.0 19.63 - 3.8 34.0 0A 14 472E 0923 Alarm State:  0
Sat Jul 22 17:05:32 PDT 2017 ON: 19.99 +20.0 19.67 - 3.9 34.0 05 14 480E 092C Alarm State:  0
Sat Jul 22 17:04:30 PDT 2017 ON: 20.01 +20.0 19.68 - 4.2 33.9 05 14 472B 0900 Alarm State:  0
Sat Jul 22 17:03:29 PDT 2017 ON: 20.02 +20.0 19.70 - 5.0 33.1 0A 13 4625 0914 Alarm State:  0
Sat Jul 22 17:02:27 PDT 2017 ON: 20.00 +20.0 19.61 - 3.0 33.8 02 14 470C 0903 Alarm State:  0
Sat Jul 22 17:01:26 PDT 2017 ON: 19.99 +20.0 19.66 - 4.0 33.9 02 14 4701 0A07 Alarm State:  0
Sat Jul 22 17:00:24 PDT 2017 ON: 20.01 +20.0 19.68 - 4.3 33.8 05 14 4632 0922 Alarm State:  0
Sat Jul 22 16:59:23 PDT 2017 ON: 20.01 +20.0 19.71 - 5.4 33.0 0D 13 4615 0A0D Alarm State:  0
Sat Jul 22 16:58:21 PDT 2017 ON: 19.98 +20.0 19.60 - 2.7 34.0 01 14 4714 0927 Alarm State:  0
Sat Jul 22 16:57:20 PDT 2017 ON: 19.99 +20.0 19.66 - 4.2 33.8 02 14 4709 092D Alarm State:  0
Sat Jul 22 16:56:18 PDT 2017 ON: 20.00 +20.0 19.68 - 4.6 33.1 07 14 470B 0916 Alarm State:  0
Sat Jul 22 16:55:17 PDT 2017 ON: 20.02 +20.0 19.64 - 3.5 33.5 00 14 472A 0904 Alarm State:  0
Sat Jul 22 16:54:15 PDT 2017 ON: 20.00 +20.0 19.66 - 4.2 33.7 07 14 4706 0919 Alarm State:  0
Sat Jul 22 16:53:14 PDT 2017 ON: 20.02 +20.0 19.72 - 5.3 32.9 0A 12 4705 090D Alarm State:  0
Sat Jul 22 16:52:12 PDT 2017 ON: 20.00 +20.0 19.63 - 3.1 33.9 00 14 4725 0917 Alarm State:  0
Sat Jul 22 16:51:11 PDT 2017 ON: 20.00 +20.0 19.65 - 3.4 34.1 05 14 4716 0925 Alarm State:  0
Sat Jul 22 16:50:09 PDT 2017 ON: 20.01 +20.0 19.68 - 4.7 33.5 05 14 462B 0905 Alarm State:  0
Sat Jul 22 16:49:08 PDT 2017 ON: 20.00 +20.0 19.69 - 4.6 33.2 0D 14 4713 0924 Alarm State:  0
Sat Jul 22 16:48:06 PDT 2017 ON: 20.01 +20.0 19.69 - 4.6 33.3 0D 14 4800 0924 Alarm State:  0
Sat Jul 22 16:47:05 PDT 2017 ON: 20.01 +20.0 19.71 - 5.1 33.0 0A 13 471A 090D Alarm State:  0
Sat Jul 22 16:46:03 PDT 2017 ON: 20.02 +20.0 19.66 - 3.7 33.4 02 14 4801 0901 Alarm State:  0
Sat Jul 22 16:45:02 PDT 2017 ON: 20.02 +20.0 19.66 - 4.1 33.5 02 14 4725 0913 Alarm State:  0
Sat Jul 22 16:44:00 PDT 2017 ON: 20.00 +20.0 19.63 - 3.6 34.0 02 14 4707 091C Alarm State:  0
Sat Jul 22 16:42:59 PDT 2017 ON: 20.00 +20.0 19.69 - 5.1 33.0 05 14 461F 0A24 Alarm State:  0
Sat Jul 22 16:41:57 PDT 2017 ON: 19.99 +20.0 19.59 - 3.0 33.7 00 14 472A 0A07 Alarm State:  0
Sat Jul 22 16:40:56 PDT 2017 ON: 19.97 +20.0 19.64 - 4.0 33.2 07 14 4822 0A06 Alarm State:  0
Sat Jul 22 16:39:54 PDT 2017 ON: 20.01 +20.0 19.69 - 4.2 33.3 0A 14 490F 0920 Alarm State:  0
Sat Jul 22 16:38:53 PDT 2017 ON: 20.02 +20.0 19.66 - 4.1 33.6 05 14 4809 090B Alarm State:  0
Sat Jul 22 16:37:51 PDT 2017 ON: 20.01 +20.0 19.63 - 3.3 33.8 00 14 4712 0920 Alarm State:  0
Sat Jul 22 16:36:50 PDT 2017 ON: 20.00 +20.0 19.68 - 4.6 33.3 00 14 4610 0A0B Alarm State:  0
Sat Jul 22 16:35:48 PDT 2017 ON: 20.02 +20.0 19.71 - 4.6 33.1 0D 13 4705 090C Alarm State:  0
Sat Jul 22 16:34:47 PDT 2017 ON: 20.02 +20.0 19.64 - 3.9 33.5 00 14 472E 090F Alarm State:  0
Sat Jul 22 16:33:45 PDT 2017 ON: 19.99 +20.0 19.64 - 3.5 34.1 02 14 4722 0916 Alarm State:  0
Sat Jul 22 16:32:44 PDT 2017 ON: 20.01 +20.0 19.68 - 4.6 33.4 07 14 470F 0910 Alarm State:  0
Sat Jul 22 16:31:42 PDT 2017 ON: 20.03 +20.0 19.66 - 3.8 33.5 00 14 4723 090D Alarm State:  0
Sat Jul 22 16:30:41 PDT 2017 ON: 20.02 +20.0 19.69 - 4.6 33.3 00 14 4621 0921 Alarm State:  0
Sat Jul 22 16:29:39 PDT 2017 ON: 20.02 +20.0 19.61 - 3.3 33.7 00 14 4631 0910 Alarm State:  0
Sat Jul 22 16:28:38 PDT 2017 ON: 20.00 +20.0 19.66 - 3.9 33.9 05 14 4626 0912 Alarm State:  0
Sat Jul 22 16:27:36 PDT 2017 ON: 20.01 +20.0 19.71 - 4.8 33.5 0D 13 4628 0905 Alarm State:  0
Sat Jul 22 16:26:35 PDT 2017 ON: 19.99 +20.0 19.66 - 3.7 34.1 07 14 4718 092A Alarm State:  0
Sat Jul 22 16:25:33 PDT 2017 ON: 20.01 +20.0 19.68 - 4.3 33.9 0A 14 470C 091B Alarm State:  0
Sat Jul 22 16:24:32 PDT 2017 ON: 20.00 +20.0 19.69 - 4.5 33.2 02 14 4620 092F Alarm State:  0
Sat Jul 22 16:23:30 PDT 2017 ON: 20.02 +20.0 19.61 - 3.7 33.5 00 14 4718 091A Alarm State:  0
Sat Jul 22 16:22:29 PDT 2017 ON: 19.99 +20.0 19.68 - 4.1 33.8 02 14 462B 0A06 Alarm State:  0
Sat Jul 22 16:21:27 PDT 2017 ON: 20.02 +20.0 19.72 - 4.8 33.2 0A 12 462A 0926 Alarm State:  0
Sat Jul 22 16:20:26 PDT 2017 ON: 20.01 +20.0 19.61 - 3.2 33.7 00 14 471D 0913 Alarm State:  0
Sat Jul 22 16:19:24 PDT 2017 ON: 20.00 +20.0 19.66 - 3.9 34.0 05 14 4704 0921 Alarm State:  0
Sat Jul 22 16:18:23 PDT 2017 ON: 20.00 +20.0 19.68 - 4.5 33.3 07 14 4708 0922 Alarm State:  0
Sat Jul 22 16:17:21 PDT 2017 ON: 20.02 +20.0 19.69 - 4.8 33.1 0D 14 4723 0925 Alarm State:  0
Sat Jul 22 16:16:20 PDT 2017 ON: 20.02 +20.0 19.67 - 4.7 32.8 00 14 4723 0A07 Alarm State:  0
Sat Jul 22 16:15:19 PDT 2017 ON: 19.98 +20.0 19.65 - 3.7 33.9 05 14 4732 0A0A Alarm State:  0
Sat Jul 22 16:14:17 PDT 2017 ON: 20.02 +20.0 19.70 - 4.8 33.5 0D 13 4803 0919 Alarm State:  0
Sat Jul 22 16:13:16 PDT 2017 ON: 19.99 +20.0 19.68 - 4.2 33.8 05 14 4703 0904 Alarm State:  0
Sat Jul 22 16:12:14 PDT 2017 ON: 20.00 +20.0 19.68 - 4.3 33.6 05 14 4701 090F Alarm State:  0
Sat Jul 22 16:11:13 PDT 2017 ON: 20.01 +20.0 19.69 - 4.8 33.3 0D 14 4708 0922 Alarm State:  0
Sat Jul 22 16:10:11 PDT 2017 ON: 20.00 +20.0 19.62 - 3.3 33.6 00 14 480F 0909 Alarm State:  0
Sat Jul 22 16:09:10 PDT 2017 ON: 19.98 +20.0 19.64 - 3.5 34.0 07 14 4818 0914 Alarm State:  0
Sat Jul 22 16:08:08 PDT 2017 ON: 20.01 +20.0 19.68 - 4.1 33.9 0D 14 4810 0901 Alarm State:  0
Sat Jul 22 16:07:07 PDT 2017 ON: 20.01 +20.0 19.68 - 4.6 33.4 02 14 4706 0915 Alarm State:  0
Sat Jul 22 16:06:05 PDT 2017 ON: 20.00 +20.0 19.61 - 2.9 33.9 05 14 4710 0908 Alarm State:  0
Sat Jul 22 16:05:04 PDT 2017 ON: 19.99 +20.0 19.66 - 4.3 33.3 00 14 4628 0A1A Alarm State:  0
Sat Jul 22 16:04:02 PDT 2017 ON: 20.02 +20.0 19.66 - 3.8 33.5 00 14 471B 090B Alarm State:  0
Sat Jul 22 16:03:01 PDT 2017 ON: 20.02 +20.0 19.66 - 4.0 33.4 00 14 4629 091F Alarm State:  0
Sat Jul 22 16:01:59 PDT 2017 ON: 19.98 +20.0 19.65 - 3.8 33.9 02 14 462B 0A0E Alarm State:  0
Sat Jul 22 16:00:58 PDT 2017 ON: 20.02 +20.0 19.70 - 4.8 33.2 0D 13 462E 0922 Alarm State:  0
Sat Jul 22 15:59:56 PDT 2017 ON: 20.01 +20.0 19.68 - 4.3 33.2 00 14 470D 0911 Alarm State:  0
Sat Jul 22 15:58:55 PDT 2017 ON: 20.03 +20.0 19.68 - 4.3 33.1 00 14 4712 0A0E Alarm State:  0
Sat Jul 22 15:57:53 PDT 2017 ON: 19.97 +20.0 19.66 - 4.2 33.1 00 14 4714 0A21 Alarm State:  0
Sat Jul 22 15:56:52 PDT 2017 ON: 20.03 +20.0 19.68 - 4.3 33.2 03 14 4806 0909 Alarm State:  0
Sat Jul 22 15:55:50 PDT 2017 ON: 19.99 +20.0 19.63 - 3.5 34.0 02 14 4731 0908 Alarm State:  0
Sat Jul 22 15:54:49 PDT 2017 ON: 20.01 +20.0 19.68 - 4.8 33.0 05 14 470A 090C Alarm State:  0
Sat Jul 22 15:53:47 PDT 2017 ON: 20.01 +20.0 19.65 - 3.7 33.5 00 14 4726 091A Alarm State:  0
Sat Jul 22 15:52:46 PDT 2017 ON: 20.02 +20.0 19.66 - 4.6 32.9 00 14 462C 0905 Alarm State:  0
Sat Jul 22 15:51:44 PDT 2017 ON: 20.00 +20.0 19.62 - 3.2 33.8 02 14 470F 091D Alarm State:  0
Sat Jul 22 15:50:43 PDT 2017 ON: 19.99 +20.0 19.62 - 2.8 34.1 00 14 471E 0915 Alarm State:  0
Sat Jul 22 15:49:41 PDT 2017 ON: 20.00 +20.0 19.68 - 4.5 33.1 00 14 4631 0922 Alarm State:  0
Sat Jul 22 15:48:40 PDT 2017 ON: 20.03 +20.0 19.66 - 4.1 33.3 00 14 471D 090D Alarm State:  0
Sat Jul 22 15:47:38 PDT 2017 ON: 19.99 +20.0 19.66 - 3.9 34.0 02 14 4709 0A12 Alarm State:  0
Sat Jul 22 15:46:37 PDT 2017 ON: 19.99 +20.0 19.69 - 5.2 33.0 0D 14 4702 0B08 Alarm State:  0
Sat Jul 22 15:45:35 PDT 2017 ON: 19.97 +20.0 19.58 - 2.2 34.3 00 14 480D 092E Alarm State:  0
Sat Jul 22 15:44:34 PDT 2017 ON: 20.01 +20.0 19.67 - 4.0 33.6 00 14 472B 0926 Alarm State:  0
Sat Jul 22 15:43:32 PDT 2017 ON: 20.00 +20.0 19.62 - 2.9 34.1 07 14 4730 0918 Alarm State:  0
Sat Jul 22 15:42:31 PDT 2017 ON: 20.00 +20.0 19.64 - 3.7 34.0 05 14 4706 0925 Alarm State:  0
Sat Jul 22 15:41:29 PDT 2017 ON: 20.01 +20.0 19.68 - 4.9 33.2 00 14 4610 0A0E Alarm State:  0
Sat Jul 22 15:40:28 PDT 2017 ON: 20.00 +20.0 19.62 - 2.9 33.8 00 14 4711 091A Alarm State:  0
Sat Jul 22 15:39:26 PDT 2017 ON: 19.99 +20.0 19.65 - 4.0 33.9 05 14 462B 092A Alarm State:  0
Sat Jul 22 15:38:25 PDT 2017 ON: 20.00 +20.0 19.69 - 4.7 33.0 00 14 4629 0925 Alarm State:  0
Sat Jul 22 15:37:23 PDT 2017 ON: 20.02 +20.0 19.71 - 5.0 33.0 0D 13 4707 090E Alarm State:  0
Sat Jul 22 15:36:22 PDT 2017 ON: 20.01 +20.0 19.63 - 3.2 33.8 00 14 4711 0923 Alarm State:  0
Sat Jul 22 15:35:20 PDT 2017 ON: 19.99 +20.0 19.67 - 4.4 33.4 07 14 462F 0A02 Alarm State:  0
Sat Jul 22 15:34:19 PDT 2017 ON: 20.01 +20.0 19.70 - 4.9 33.2 0A 14 470A 0A01 Alarm State:  0
Sat Jul 22 15:33:17 PDT 2017 ON: 19.98 +20.0 19.61 - 2.6 34.1 05 14 480C 091A Alarm State:  0
Sat Jul 22 15:32:16 PDT 2017 ON: 20.00 +20.0 19.64 - 3.6 34.0 02 14 4721 0927 Alarm State:  0
Sat Jul 22 15:31:14 PDT 2017 ON: 20.00 +20.0 19.67 - 4.6 33.0 02 14 470C 0A0E Alarm State:  0
Sat Jul 22 15:30:13 PDT 2017 ON: 20.00 +20.0 19.60 - 2.6 33.8 00 14 4817 0916 Alarm State:  0
Sat Jul 22 15:29:11 PDT 2017 ON: 20.01 +20.0 19.64 - 3.5 33.6 00 14 472F 0928 Alarm State:  0
Sat Jul 22 15:28:10 PDT 2017 ON: 20.00 +20.0 19.60 - 3.0 34.0 04 14 4719 0902 Alarm State:  0
Sat Jul 22 15:27:08 PDT 2017 ON: 20.01 +20.0 19.68 - 4.6 33.1 00 14 4627 0914 Alarm State:  0
Sat Jul 22 15:26:07 PDT 2017 ON: 20.02 +20.0 19.66 - 4.3 33.1 00 14 470E 091E Alarm State:  0
Sat Jul 22 15:25:05 PDT 2017 ON: 19.98 +20.0 19.66 - 4.2 33.4 05 14 4715 0A08 Alarm State:  0
Sat Jul 22 15:24:04 PDT 2017 ON: 20.02 +20.0 19.70 - 4.8 33.0 0A 13 4729 0903 Alarm State:  0
Sat Jul 22 15:23:02 PDT 2017 ON: 20.02 +20.0 19.62 - 3.5 33.5 00 14 4724 0911 Alarm State:  0
Sat Jul 22 15:22:01 PDT 2017 ON: 20.00 +20.0 19.66 - 4.1 33.7 05 14 4702 0922 Alarm State:  0
Sat Jul 22 15:20:59 PDT 2017 ON: 20.03 +20.0 19.72 - 5.4 32.7 0D 12 462E 0912 Alarm State:  0
Sat Jul 22 15:19:58 PDT 2017 ON: 20.00 +20.0 19.63 - 3.1 33.9 00 14 4713 0924 Alarm State:  0
Sat Jul 22 15:18:56 PDT 2017 ON: 20.00 +20.0 19.65 - 3.4 34.0 0A 14 4710 0907 Alarm State:  0
Sat Jul 22 15:17:55 PDT 2017 ON: 20.01 +20.0 19.69 - 4.9 32.9 05 14 4627 091A Alarm State:  0
Sat Jul 22 15:16:53 PDT 2017 ON: 20.01 +20.0 19.59 - 2.9 33.8 00 14 4727 0911 Alarm State:  0
Sat Jul 22 15:15:52 PDT 2017 ON: 20.00 +20.0 19.64 - 3.3 33.8 02 14 4632 0926 Alarm State:  0
Sat Jul 22 15:14:50 PDT 2017 ON: 19.99 +20.0 19.66 - 4.2 33.5 00 14 461D 0A05 Alarm State:  0
Sat Jul 22 15:13:49 PDT 2017 ON: 20.02 +20.0 19.71 - 5.0 32.9 0D 13 4702 0912 Alarm State:  0
Sat Jul 22 15:12:47 PDT 2017 ON: 20.00 +20.0 19.64 - 3.7 33.6 00 14 471F 0903 Alarm State:  0
Sat Jul 22 15:11:46 PDT 2017 ON: 19.99 +20.0 19.64 - 3.7 34.1 0A 14 472F 0920 Alarm State:  0
Sat Jul 22 15:10:44 PDT 2017 ON: 20.01 +20.0 19.71 - 5.0 33.1 0A 13 4728 0A08 Alarm State:  0
Sat Jul 22 15:09:43 PDT 2017 ON: 19.99 +20.0 19.61 - 2.7 34.1 02 14 481F 0920 Alarm State:  0
Sat Jul 22 15:08:41 PDT 2017 ON: 20.00 +20.0 19.66 - 4.1 33.8 05 14 472F 0901 Alarm State:  0
Sat Jul 22 15:07:40 PDT 2017 ON: 20.01 +20.0 19.69 - 4.8 33.3 0D 14 4717 0916 Alarm State:  0
Sat Jul 22 15:06:38 PDT 2017 ON: 20.01 +20.0 19.69 - 4.5 33.2 0A 14 4708 0901 Alarm State:  0
Sat Jul 22 15:05:37 PDT 2017 ON: 20.03 +20.0 19.71 - 5.0 32.9 0A 13 470E 091F Alarm State:  0
Sat Jul 22 15:04:35 PDT 2017 ON: 20.00 +20.0 19.63 - 3.2 34.1 05 14 4632 0921 Alarm State:  0
Sat Jul 22 15:03:24 PDT 2017  Alarm State: 0
Sat Jul 22 15:03:24 PDT 2017 Chiller did not report ON, got this reading: 
Sat Jul 22 15:02:23 PDT 2017 ON: 20.02 +20.0 19.70 - 4.8 33.0 0D 13 4700 091C Alarm State:  0
Sat Jul 22 15:01:21 PDT 2017 ON: 19.99 +20.0 19.61 - 2.9 33.9 00 14 471C 0929 Alarm State:  0
Sat Jul 22 15:00:20 PDT 2017 ON: 19.99 +20.0 19.64 - 3.5 34.2 0A 14 4715 0927 Alarm State:  0
Sat Jul 22 14:59:18 PDT 2017 ON: 20.00 +20.0 19.69 - 4.6 33.3 0D 14 4701 0926 Alarm State:  0
Sat Jul 22 14:58:17 PDT 2017 ON: 20.03 +20.0 19.70 - 5.0 32.8 05 13 470A 0918 Alarm State:  0
Sat Jul 22 14:57:15 PDT 2017 ON: 19.99 +20.0 19.63 - 3.1 34.2 05 14 471A 0911 Alarm State:  0
Sat Jul 22 14:56:14 PDT 2017 ON: 20.00 +20.0 19.69 - 4.2 33.6 0D 14 470F 0913 Alarm State:  0
Sat Jul 22 14:55:12 PDT 2017 ON: 20.00 +20.0 19.69 - 4.6 33.1 0D 14 4723 090E Alarm State:  0
Sat Jul 22 14:54:11 PDT 2017 ON: 20.02 +20.0 19.67 - 4.1 33.5 00 14 480B 0923 Alarm State:  0
Sat Jul 22 14:53:09 PDT 2017 ON: 20.03 +20.0 19.68 - 4.7 32.9 00 14 4702 090F Alarm State:  0
Sat Jul 22 14:52:08 PDT 2017 ON: 19.98 +20.0 19.64 - 3.9 33.8 05 14 462E 0931 Alarm State:  0
Sat Jul 22 14:51:06 PDT 2017 ON: 20.02 +20.0 19.71 - 4.8 33.3 0D 13 4701 0914 Alarm State:  0
Sat Jul 22 14:50:05 PDT 2017 ON: 20.02 +20.0 19.69 - 4.8 33.2 02 14 4625 0926 Alarm State:  0
Sat Jul 22 14:49:03 PDT 2017 ON: 20.00 +20.0 19.60 - 3.1 33.8 00 14 470A 0909 Alarm State:  0
Sat Jul 22 14:48:02 PDT 2017 ON: 19.99 +20.0 19.67 - 4.2 33.1 07 14 4630 0A0B Alarm State:  0
Sat Jul 22 14:47:00 PDT 2017 ON: 20.04 +20.0 19.67 - 4.1 33.3 00 14 4723 091F Alarm State:  0
Sat Jul 22 14:45:59 PDT 2017 ON: 20.02 +20.0 19.72 - 5.4 32.8 0D 13 4619 0A0A Alarm State:  0
Sat Jul 22 14:44:57 PDT 2017 ON: 19.99 +20.0 19.61 - 3.0 34.2 05 14 470A 0930 Alarm State:  0
Sat Jul 22 14:43:56 PDT 2017 ON: 20.01 +20.0 19.69 - 4.3 33.5 00 14 4630 0924 Alarm State:  0
Sat Jul 22 14:42:54 PDT 2017 ON: 20.01 +20.0 19.69 - 4.4 33.3 0D 14 4709 0911 Alarm State:  0
Sat Jul 22 14:41:53 PDT 2017 ON: 20.03 +20.0 19.67 - 4.3 33.3 00 14 471A 0903 Alarm State:  0
Sat Jul 22 14:40:51 PDT 2017 ON: 19.99 +20.0 19.66 - 4.1 33.7 05 14 470A 0A06 Alarm State:  0
Sat Jul 22 14:39:50 PDT 2017 ON: 20.02 +20.0 19.70 - 4.9 33.1 0A 13 470F 0912 Alarm State:  0
Sat Jul 22 14:38:48 PDT 2017 ON: 20.00 +20.0 19.61 - 2.7 33.9 00 14 4727 0921 Alarm State:  0
Sat Jul 22 14:37:47 PDT 2017 ON: 20.00 +20.0 19.66 - 4.5 33.0 07 14 4700 0A0A Alarm State:  0
Sat Jul 22 14:36:45 PDT 2017 ON: 20.03 +20.0 19.65 - 3.6 33.5 00 14 4726 0907 Alarm State:  0
Sat Jul 22 14:35:44 PDT 2017 ON: 20.01 +20.0 19.63 - 3.1 33.9 02 14 4713 0913 Alarm State:  0
Sat Jul 22 14:34:42 PDT 2017 ON: 20.00 +20.0 19.67 - 4.4 33.2 00 14 461C 0928 Alarm State:  0
Sat Jul 22 14:33:41 PDT 2017 ON: 20.01 +20.0 19.69 - 4.5 33.1 0D 14 470C 091B Alarm State:  0
Sat Jul 22 14:32:39 PDT 2017 ON: 20.01 +20.0 19.69 - 4.5 33.0 0A 14 4714 0912 Alarm State:  0
Sat Jul 22 14:31:38 PDT 2017 ON: 20.02 +20.0 19.66 - 3.8 33.5 00 14 4721 0908 Alarm State:  0
Sat Jul 22 14:30:36 PDT 2017 ON: 20.02 +20.0 19.70 - 4.9 33.0 08 13 462C 091D Alarm State:  0
Sat Jul 22 14:29:35 PDT 2017 ON: 19.99 +20.0 19.62 - 2.8 34.0 05 14 470C 0905 Alarm State:  0
Sat Jul 22 14:28:33 PDT 2017 ON: 19.99 +20.0 19.67 - 3.9 33.9 0A 14 4631 0916 Alarm State:  0
Sat Jul 22 14:27:32 PDT 2017 ON: 20.01 +20.0 19.70 - 4.7 33.1 0D 13 4624 090A Alarm State:  0
Sat Jul 22 14:26:30 PDT 2017 ON: 20.01 +20.0 19.62 - 3.8 33.4 00 14 470A 0927 Alarm State:  0
Sat Jul 22 14:25:29 PDT 2017 ON: 19.98 +20.0 19.62 - 3.1 34.2 07 14 470E 091E Alarm State:  0
Sat Jul 22 14:24:27 PDT 2017 ON: 20.00 +20.0 19.69 - 4.6 33.3 07 14 4627 0919 Alarm State:  0
Sat Jul 22 14:23:26 PDT 2017 ON: 20.02 +20.0 19.66 - 3.6 33.5 00 14 4713 0903 Alarm State:  0
Sat Jul 22 14:22:24 PDT 2017 ON: 19.99 +20.0 19.67 - 4.1 33.4 05 14 4632 0A0C Alarm State:  0
Sat Jul 22 14:21:23 PDT 2017 ON: 20.02 +20.0 19.69 - 4.6 33.3 0D 14 4712 090E Alarm State:  0
Sat Jul 22 14:20:21 PDT 2017 ON: 20.00 +20.0 19.62 - 3.1 33.7 02 14 4728 0926 Alarm State:  0
Sat Jul 22 14:19:20 PDT 2017 ON: 19.99 +20.0 19.65 - 4.3 33.0 00 14 4719 0A16 Alarm State:  0
Sat Jul 22 14:18:18 PDT 2017 ON: 20.03 +20.0 19.67 - 3.9 33.3 00 14 480A 0907 Alarm State:  0
Sat Jul 22 14:17:17 PDT 2017 ON: 20.01 +20.0 19.68 - 4.6 33.1 00 14 4700 091B Alarm State:  0
Sat Jul 22 14:16:15 PDT 2017 ON: 20.01 +20.0 19.63 - 3.3 33.6 00 14 4706 091A Alarm State:  0
Sat Jul 22 14:15:14 PDT 2017 ON: 20.00 +20.0 19.63 - 3.4 34.0 05 14 4618 0905 Alarm State:  0
Sat Jul 22 14:14:12 PDT 2017 ON: 19.99 +20.0 19.67 - 4.5 33.4 00 14 4608 0A12 Alarm State:  0
Sat Jul 22 14:13:11 PDT 2017 ON: 20.00 +20.0 19.60 - 3.0 33.8 00 14 4712 090D Alarm State:  0
Sat Jul 22 14:12:09 PDT 2017 ON: 19.98 +20.0 19.61 - 3.0 34.2 0A 14 472E 0918 Alarm State:  0
Sat Jul 22 14:11:08 PDT 2017 ON: 19.99 +20.0 19.67 - 4.5 33.1 02 14 4725 0A0A Alarm State:  0
Sat Jul 22 14:10:06 PDT 2017 ON: 20.01 +20.0 19.63 - 3.2 33.7 00 14 4820 0920 Alarm State:  0
Sat Jul 22 14:09:05 PDT 2017 ON: 20.02 +20.0 19.66 - 4.0 33.3 00 14 4730 090B Alarm State:  0
Sat Jul 22 14:08:03 PDT 2017 ON: 20.02 +20.0 19.68 - 4.3 33.4 00 14 4724 091A Alarm State:  0
Sat Jul 22 14:07:02 PDT 2017 ON: 20.02 +20.0 19.63 - 3.4 33.7 00 14 472B 091A Alarm State:  0
Sat Jul 22 14:06:00 PDT 2017 ON: 20.01 +20.0 19.64 - 3.5 33.6 02 14 4705 0906 Alarm State:  0
Sat Jul 22 14:04:59 PDT 2017 ON: 19.99 +20.0 19.65 - 4.3 33.2 02 14 4621 0A02 Alarm State:  0
Sat Jul 22 14:03:57 PDT 2017 ON: 20.02 +20.0 19.65 - 3.4 33.6 00 14 471C 0912 Alarm State:  0
Sat Jul 22 14:02:56 PDT 2017 ON: 19.99 +20.0 19.66 - 3.6 34.1 05 14 470F 0920 Alarm State:  0
Sat Jul 22 14:01:54 PDT 2017 ON: 20.00 +20.0 19.69 - 4.4 33.4 0D 14 4708 0918 Alarm State:  0
Sat Jul 22 14:00:53 PDT 2017 ON: 20.02 +20.0 19.65 - 4.0 33.3 00 14 472E 0907 Alarm State:  0
Sat Jul 22 13:59:51 PDT 2017 ON: 20.02 +20.0 19.68 - 4.4 33.3 07 14 4713 091B Alarm State:  0
Sat Jul 22 13:58:50 PDT 2017 ON: 20.03 +20.0 19.71 - 5.1 33.1 0D 13 4713 0910 Alarm State:  0
Sat Jul 22 13:57:48 PDT 2017 ON: 19.99 +20.0 19.62 - 2.8 34.1 02 14 4712 090A Alarm State:  0
Sat Jul 22 13:56:47 PDT 2017 ON: 20.01 +20.0 19.67 - 4.5 33.2 07 14 4617 091D Alarm State:  0
Sat Jul 22 13:55:45 PDT 2017 ON: 20.02 +20.0 19.70 - 4.7 33.0 0A 13 462E 090D Alarm State:  0
Sat Jul 22 13:54:44 PDT 2017 ON: 19.99 +20.0 19.59 - 2.6 34.1 01 14 4709 0917 Alarm State:  0
Sat Jul 22 13:53:42 PDT 2017 ON: 20.00 +20.0 19.66 - 4.2 33.3 00 14 4625 0A00 Alarm State:  0
Sat Jul 22 13:52:41 PDT 2017 ON: 20.02 +20.0 19.68 - 3.9 33.6 00 14 471C 0918 Alarm State:  0
Sat Jul 22 13:51:39 PDT 2017 ON: 19.99 +20.0 19.60 - 2.9 34.1 07 14 4711 0916 Alarm State:  0
Sat Jul 22 13:50:38 PDT 2017 ON: 19.99 +20.0 19.68 - 4.4 33.2 07 14 4620 0925 Alarm State:  0
Sat Jul 22 13:49:36 PDT 2017 ON: 20.02 +20.0 19.66 - 3.9 33.5 00 14 471A 090E Alarm State:  0
Sat Jul 22 13:48:35 PDT 2017 ON: 19.99 +20.0 19.62 - 3.0 34.0 05 14 471A 0901 Alarm State:  0
Sat Jul 22 13:47:33 PDT 2017 ON: 20.00 +20.0 19.62 - 3.1 34.1 02 14 470B 0907 Alarm State:  0
Sat Jul 22 13:46:32 PDT 2017 ON: 20.01 +20.0 19.69 - 4.5 33.4 05 14 4620 0A18 Alarm State:  0
Sat Jul 22 13:45:30 PDT 2017 ON: 20.01 +20.0 19.64 - 3.9 33.3 00 14 471A 0A11 Alarm State:  0
Sat Jul 22 13:44:29 PDT 2017 ON: 19.98 +20.0 19.63 - 3.5 34.0 05 14 472E 0A11 Alarm State:  0
Sat Jul 22 13:43:27 PDT 2017 ON: 20.02 +20.0 19.69 - 4.7 33.2 0D 14 4800 091B Alarm State:  0
Sat Jul 22 13:42:26 PDT 2017 ON: 20.03 +20.0 19.66 - 4.1 33.5 00 14 4729 0903 Alarm State:  0
Sat Jul 22 13:41:24 PDT 2017 ON: 20.01 +20.0 19.70 - 4.6 33.0 0D 13 462B 0917 Alarm State:  0
Sat Jul 22 13:40:23 PDT 2017 ON: 20.04 +20.0 19.70 - 4.9 33.0 0A 13 470C 091B Alarm State:  0
Sat Jul 22 13:39:21 PDT 2017 ON: 19.98 +20.0 19.62 - 3.2 34.1 02 14 4707 0913 Alarm State:  0
Sat Jul 22 13:38:20 PDT 2017 ON: 20.01 +20.0 19.68 - 4.5 33.2 07 14 461E 090E Alarm State:  0
Sat Jul 22 13:37:18 PDT 2017 ON: 20.02 +20.0 19.65 - 3.6 33.5 00 14 4710 091B Alarm State:  0
Sat Jul 22 13:36:17 PDT 2017 ON: 19.99 +20.0 19.67 - 3.8 34.0 02 14 4629 0924 Alarm State:  0
Sat Jul 22 13:35:15 PDT 2017 ON: 20.01 +20.0 19.70 - 4.6 33.2 0D 13 4624 0912 Alarm State:  0
Sat Jul 22 13:34:14 PDT 2017 ON: 20.01 +20.0 19.62 - 3.0 33.7 00 14 4711 091A Alarm State:  0
Sat Jul 22 13:33:12 PDT 2017 ON: 19.99 +20.0 19.66 - 4.0 33.5 07 14 4627 0A18 Alarm State:  0
Sat Jul 22 13:32:11 PDT 2017 ON: 20.03 +20.0 19.70 - 4.7 33.0 0A 13 470E 0917 Alarm State:  0
Sat Jul 22 13:31:09 PDT 2017 ON: 19.99 +20.0 19.62 - 2.8 34.0 00 14 470B 0923 Alarm State:  0
Sat Jul 22 13:30:08 PDT 2017 ON: 20.00 +20.0 19.64 - 3.9 34.0 02 14 4618 090D Alarm State:  0
Sat Jul 22 13:29:06 PDT 2017 ON: 20.01 +20.0 19.70 - 4.9 33.1 0D 14 4603 0A11 Alarm State:  0
Sat Jul 22 13:28:05 PDT 2017 ON: 19.99 +20.0 19.61 - 2.6 34.0 05 14 470C 0919 Alarm State:  0
Sat Jul 22 13:27:03 PDT 2017 ON: 19.99 +20.0 19.65 - 4.1 33.4 07 14 4705 0A0F Alarm State:  0
Sat Jul 22 13:26:02 PDT 2017 ON: 20.01 +20.0 19.70 - 4.2 33.2 0D 13 472B 0902 Alarm State:  0
Sat Jul 22 13:25:00 PDT 2017 ON: 20.03 +20.0 19.65 - 3.6 33.5 00 14 4732 0908 Alarm State:  0
Sat Jul 22 13:23:59 PDT 2017 ON: 20.00 +20.0 19.63 - 3.2 34.1 05 14 4728 091B Alarm State:  0
Sat Jul 22 13:22:57 PDT 2017 ON: 20.02 +20.0 19.69 - 4.7 33.1 07 14 4630 0902 Alarm State:  0
Sat Jul 22 13:21:56 PDT 2017 ON: 20.02 +20.0 19.68 - 4.4 33.3 00 14 4713 0922 Alarm State:  0
Sat Jul 22 13:20:54 PDT 2017 ON: 19.99 +20.0 19.60 - 2.8 34.1 00 14 4724 090E Alarm State:  0
Sat Jul 22 13:19:53 PDT 2017 ON: 20.00 +20.0 19.67 - 4.4 33.0 00 14 470E 0919 Alarm State:  0
Sat Jul 22 13:18:51 PDT 2017 ON: 20.03 +20.0 19.68 - 4.2 33.3 08 14 4802 0914 Alarm State:  0
Sat Jul 22 13:17:50 PDT 2017 ON: 20.01 +20.0 19.61 - 3.0 33.9 02 14 472D 0900 Alarm State:  0
Sat Jul 22 13:16:48 PDT 2017 ON: 20.00 +20.0 19.67 - 3.8 34.0 05 14 470E 0914 Alarm State:  0
Sat Jul 22 13:15:47 PDT 2017 ON: 20.01 +20.0 19.69 - 4.7 33.0 0D 14 4700 091F Alarm State:  0
Sat Jul 22 13:14:45 PDT 2017 ON: 20.01 +20.0 19.65 - 3.6 33.6 00 14 471F 0901 Alarm State:  0
Sat Jul 22 13:13:44 PDT 2017 ON: 19.99 +20.0 19.65 - 3.4 34.1 05 14 4717 0925 Alarm State:  0
Sat Jul 22 13:12:42 PDT 2017 ON: 20.01 +20.0 19.69 - 4.5 33.3 0D 14 4702 0929 Alarm State:  0
Sat Jul 22 13:11:41 PDT 2017 ON: 20.00 +20.0 19.62 - 2.8 33.9 00 14 4805 090E Alarm State:  0
Sat Jul 22 13:10:39 PDT 2017 ON: 20.01 +20.0 19.69 - 4.1 33.7 0D 14 4707 0922 Alarm State:  0
Sat Jul 22 13:09:38 PDT 2017 ON: 20.02 +20.0 19.71 - 4.9 33.2 0D 13 462C 090C Alarm State:  0
Sat Jul 22 13:08:36 PDT 2017 ON: 20.01 +20.0 19.62 - 3.0 33.9 02 14 4714 0916 Alarm State:  0
Sat Jul 22 13:07:35 PDT 2017 ON: 19.99 +20.0 19.65 - 4.0 33.8 05 14 4631 0A21 Alarm State:  0
Sat Jul 22 13:06:33 PDT 2017 ON: 20.01 +20.0 19.71 - 5.0 33.1 0D 13 4705 0A2A Alarm State:  0
Sat Jul 22 13:05:32 PDT 2017 ON: 19.98 +20.0 19.58 - 2.5 34.2 00 14 480E 092A Alarm State:  0
Sat Jul 22 13:04:30 PDT 2017 ON: 20.00 +20.0 19.63 - 3.1 34.1 00 14 4813 091C Alarm State:  0
Sat Jul 22 13:03:29 PDT 2017 ON: 20.01 +20.0 19.65 - 3.2 33.9 02 14 4730 0908 Alarm State:  0
Sat Jul 22 13:02:27 PDT 2017 ON: 20.01 +20.0 19.64 - 3.4 33.7 00 14 4632 091C Alarm State:  0
Sat Jul 22 13:01:26 PDT 2017 ON: 19.99 +20.0 19.65 - 4.1 33.3 00 14 4622 0A17 Alarm State:  0
Sat Jul 22 13:00:24 PDT 2017 ON: 20.02 +20.0 19.66 - 3.7 33.6 00 14 4718 0905 Alarm State:  0
Sat Jul 22 12:59:23 PDT 2017 ON: 20.00 +20.0 19.65 - 3.5 34.1 0A 14 462D 0918 Alarm State:  0
Sat Jul 22 12:58:21 PDT 2017 ON: 20.00 +20.0 19.67 - 4.4 33.3 07 14 4614 0901 Alarm State:  0
Sat Jul 22 12:57:20 PDT 2017 ON: 20.02 +20.0 19.65 - 4.1 33.2 00 14 4709 0911 Alarm State:  0
Sat Jul 22 12:56:18 PDT 2017 ON: 19.98 +20.0 19.65 - 3.9 33.5 00 14 470A 0929 Alarm State:  0
Sat Jul 22 12:55:17 PDT 2017 ON: 20.02 +20.0 19.69 - 4.5 33.2 0D 14 4726 0917 Alarm State:  0
Sat Jul 22 12:54:15 PDT 2017 ON: 20.03 +20.0 19.69 - 4.8 32.8 0D 14 470D 0900 Alarm State:  0
Sat Jul 22 12:53:14 PDT 2017 ON: 19.99 +20.0 19.61 - 2.8 34.1 02 14 471D 0912 Alarm State:  0
Sat Jul 22 12:52:12 PDT 2017 ON: 20.00 +20.0 19.64 - 3.3 33.9 02 14 471A 0912 Alarm State:  0
Sat Jul 22 12:51:11 PDT 2017 ON: 20.00 +20.0 19.62 - 3.0 34.1 07 14 4722 091B Alarm State:  0
Sat Jul 22 12:50:09 PDT 2017 ON: 20.00 +20.0 19.68 - 4.5 33.1 00 14 4703 092B Alarm State:  0
Sat Jul 22 12:49:08 PDT 2017 ON: 20.02 +20.0 19.65 - 3.5 33.6 00 14 4804 090F Alarm State:  0
Sat Jul 22 12:48:06 PDT 2017 ON: 20.02 +20.0 19.67 - 4.2 33.3 00 14 4722 091F Alarm State:  0
Sat Jul 22 12:47:05 PDT 2017 ON: 20.00 +20.0 19.65 - 3.1 33.9 00 14 4732 0910 Alarm State:  0
Sat Jul 22 12:46:03 PDT 2017 ON: 20.01 +20.0 19.63 - 3.1 33.8 00 14 4727 0924 Alarm State:  0
Sat Jul 22 12:45:02 PDT 2017 ON: 20.00 +20.0 19.67 - 4.2 33.5 07 14 462A 0910 Alarm State:  0
Sat Jul 22 12:44:00 PDT 2017 ON: 20.03 +20.0 19.70 - 4.9 32.9 03 13 4706 090C Alarm State:  0
Sat Jul 22 12:42:59 PDT 2017 ON: 19.99 +20.0 19.60 - 2.9 34.1 04 14 470E 0922 Alarm State:  0
Sat Jul 22 12:41:57 PDT 2017 ON: 20.00 +20.0 19.66 - 4.4 33.3 07 14 4624 0A05 Alarm State:  0
Sat Jul 22 12:40:56 PDT 2017 ON: 20.02 +20.0 19.68 - 4.6 32.9 00 14 4717 0A13 Alarm State:  0
Sat Jul 22 12:39:54 PDT 2017 ON: 19.97 +20.0 19.63 - 3.7 33.6 05 14 4728 0A08 Alarm State:  0
Sat Jul 22 12:38:53 PDT 2017 ON: 20.02 +20.0 19.70 - 4.6 33.2 0A 13 4803 090D Alarm State:  0
Sat Jul 22 12:37:51 PDT 2017 ON: 20.02 +20.0 19.65 - 3.7 33.4 00 14 4802 0919 Alarm State:  0
Sat Jul 22 12:36:50 PDT 2017 ON: 19.99 +20.0 19.66 - 3.8 33.9 05 14 4725 091A Alarm State:  0
Sat Jul 22 12:35:48 PDT 2017 ON: 20.01 +20.0 19.71 - 5.2 33.0 0D 13 471E 0A0A Alarm State:  0
Sat Jul 22 12:34:47 PDT 2017 ON: 19.99 +20.0 19.62 - 2.6 34.2 00 14 4817 092A Alarm State:  0
Sat Jul 22 12:33:46 PDT 2017 ON: 20.01 +20.0 19.67 - 3.9 33.7 02 14 4727 0909 Alarm State:  0
Sat Jul 22 12:32:44 PDT 2017 ON: 19.99 +20.0 19.62 - 2.8 34.1 05 14 481B 0929 Alarm State:  0
Sat Jul 22 12:31:43 PDT 2017 ON: 20.00 +20.0 19.63 - 3.1 34.1 00 14 4809 0909 Alarm State:  0
Sat Jul 22 12:30:41 PDT 2017 ON: 20.00 +20.0 19.67 - 4.0 33.8 05 14 470F 091D Alarm State:  0
Sat Jul 22 12:29:40 PDT 2017 ON: 20.02 +20.0 19.69 - 4.8 33.2 0D 14 4703 0903 Alarm State:  0
Sat Jul 22 12:28:28 PDT 2017 ON: 20.02 +20.0 19.65 - 3.5 33.6 00 14 471C 0918 Alarm State:  0
Sat Jul 22 12:27:27 PDT 2017 ON: 20.02 +20.0 19.68 - 4.5 33.1 00 14 4611 0904 Alarm State:  0
Sat Jul 22 12:26:25 PDT 2017 ON: 20.02 +20.0 19.69 - 4.7 32.8 00 14 460E 0A0E Alarm State:  0
Sat Jul 22 12:25:24 PDT 2017 ON: 19.97 +20.0 19.63 - 3.8 33.4 07 14 461A 0A0A Alarm State:  0
Sat Jul 22 12:24:22 PDT 2017 ON: 20.03 +20.0 19.70 - 4.7 32.8 08 14 4704 0A02 Alarm State:  0
Sat Jul 22 12:23:21 PDT 2017 ON: 19.99 +20.0 19.62 - 3.2 33.7 02 14 470E 0A0C Alarm State:  0
Sat Jul 22 12:22:19 PDT 2017 ON: 19.98 +20.0 19.65 - 4.0 33.1 07 14 4729 0A0F Alarm State:  0
Sat Jul 22 12:21:17 PDT 2017 ON: 20.02 +20.0 19.68 - 4.1 33.4 0A 14 4820 091F Alarm State:  0
Sat Jul 22 12:20:16 PDT 2017 ON: 20.01 +20.0 19.68 - 4.5 33.2 02 14 472B 090B Alarm State:  0
Sat Jul 22 12:19:14 PDT 2017 ON: 20.04 +20.0 19.70 - 5.1 32.6 05 13 470E 091F Alarm State:  0
Sat Jul 22 12:18:13 PDT 2017 ON: 19.99 +20.0 19.65 - 3.6 34.0 02 14 4712 0912 Alarm State:  0
Sat Jul 22 12:17:11 PDT 2017 ON: 20.02 +20.0 19.70 - 5.0 33.1 0D 13 4707 090C Alarm State:  0
Sat Jul 22 12:16:10 PDT 2017 ON: 20.01 +20.0 19.64 - 3.3 33.6 00 14 4723 0914 Alarm State:  0
Sat Jul 22 12:15:08 PDT 2017 ON: 20.00 +20.0 19.62 - 3.0 34.0 07 14 4718 091C Alarm State:  0
Sat Jul 22 12:14:07 PDT 2017 ON: 20.00 +20.0 19.69 - 4.1 33.4 0D 14 4718 0923 Alarm State:  0
Sat Jul 22 12:13:05 PDT 2017 ON: 20.01 +20.0 19.70 - 4.4 33.2 0A 13 472B 0924 Alarm State:  0
Sat Jul 22 12:12:04 PDT 2017 ON: 20.04 +20.0 19.68 - 4.5 33.0 00 14 4725 0906 Alarm State:  0
Sat Jul 22 12:11:02 PDT 2017 ON: 20.00 +20.0 19.62 - 3.2 34.0 00 14 4716 0914 Alarm State:  0
Sat Jul 22 12:10:01 PDT 2017 ON: 19.99 +20.0 19.69 - 4.3 33.4 00 14 4625 0929 Alarm State:  0
Sat Jul 22 12:08:59 PDT 2017 ON: 20.03 +20.0 19.68 - 4.7 32.8 00 14 4711 0905 Alarm State:  0
Sat Jul 22 12:07:58 PDT 2017 ON: 19.99 +20.0 19.64 - 3.4 34.1 05 14 470F 0908 Alarm State:  0
Sat Jul 22 12:06:56 PDT 2017 ON: 20.01 +20.0 19.69 - 4.6 33.3 00 14 4629 0906 Alarm State:  0
Sat Jul 22 12:05:55 PDT 2017 ON: 20.01 +20.0 19.63 - 2.9 33.7 00 14 4720 091A Alarm State:  0
Sat Jul 22 12:04:53 PDT 2017 ON: 19.99 +20.0 19.69 - 4.1 33.5 00 14 4630 092A Alarm State:  0
Sat Jul 22 12:03:42 PDT 2017 ON: 20.02 +20.0 19.70 - 5.0 33.1 0D 13 4632 0911 Alarm State:  0
Sat Jul 22 12:02:40 PDT 2017 ON: 20.01 +20.0 19.62 - 3.1 33.8 00 14 4724 0928 Alarm State:  0
Sat Jul 22 12:01:39 PDT 2017 ON: 19.99 +20.0 19.65 - 3.5 34.1 0A 14 4714 0904 Alarm State:  0
Sat Jul 22 12:00:37 PDT 2017 ON: 20.00 +20.0 19.65 - 3.7 33.8 02 14 4709 090C Alarm State:  0
Sat Jul 22 11:59:36 PDT 2017 ON: 19.98 +20.0 19.62 - 2.8 34.1 00 14 472D 0929 Alarm State:  0
Sat Jul 22 11:58:34 PDT 2017 ON: 20.00 +20.0 19.65 - 3.5 33.9 02 14 4722 0904 Alarm State:  0
Sat Jul 22 11:57:33 PDT 2017 ON: 20.01 +20.0 19.62 - 2.9 33.9 05 14 4732 0911 Alarm State:  0
Sat Jul 22 11:56:31 PDT 2017 ON: 20.00 +20.0 19.66 - 4.3 33.2 07 14 4707 0925 Alarm State:  0
Sat Jul 22 11:55:30 PDT 2017 ON: 20.03 +20.0 19.72 - 4.9 32.7 05 13 471D 0A02 Alarm State:  0
Sat Jul 22 11:54:28 PDT 2017 ON: 19.98 +20.0 19.62 - 3.5 33.9 05 14 4730 092D Alarm State:  0
Sat Jul 22 11:53:27 PDT 2017 ON: 20.01 +20.0 19.69 - 4.8 33.0 0D 14 472E 0910 Alarm State:  0
Sat Jul 22 11:52:25 PDT 2017 ON: 20.01 +20.0 19.68 - 4.2 33.2 00 14 4731 0906 Alarm State:  0
Sat Jul 22 11:51:24 PDT 2017 ON: 20.03 +20.0 19.68 - 4.6 33.1 02 14 4717 091B Alarm State:  0
Sat Jul 22 11:50:22 PDT 2017 ON: 20.00 +20.0 19.63 - 3.1 33.9 07 14 470E 091D Alarm State:  0
Sat Jul 22 11:49:21 PDT 2017 ON: 20.00 +20.0 19.69 - 4.5 32.9 00 14 4615 092E Alarm State:  0
Sat Jul 22 11:48:19 PDT 2017 ON: 20.02 +20.0 19.68 - 4.2 33.0 00 14 4707 0919 Alarm State:  0
Sat Jul 22 11:47:18 PDT 2017 ON: 19.98 +20.0 19.64 - 3.1 33.9 07 14 4707 0910 Alarm State:  0
Sat Jul 22 11:46:16 PDT 2017 ON: 19.99 +20.0 19.66 - 4.1 33.4 05 14 4629 0A12 Alarm State:  0
Sat Jul 22 11:45:15 PDT 2017 ON: 20.02 +20.0 19.64 - 3.7 33.4 00 14 4720 0901 Alarm State:  0
Sat Jul 22 11:44:13 PDT 2017 ON: 20.01 +20.0 19.62 - 3.0 33.9 05 14 4711 0911 Alarm State:  0
Sat Jul 22 11:43:12 PDT 2017 ON: 20.00 +20.0 19.66 - 4.0 33.9 02 14 462A 091C Alarm State:  0
Sat Jul 22 11:42:10 PDT 2017 ON: 19.99 +20.0 19.68 - 4.1 33.5 00 14 4712 092B Alarm State:  0
Sat Jul 22 11:41:09 PDT 2017 ON: 20.01 +20.0 19.70 - 4.4 33.3 0D 13 4722 090D Alarm State:  0
Sat Jul 22 11:40:07 PDT 2017 ON: 20.03 +20.0 19.66 - 3.6 33.5 00 14 4731 0901 Alarm State:  0
Sat Jul 22 11:39:06 PDT 2017 ON: 20.01 +20.0 19.62 - 3.3 33.7 02 14 4718 0915 Alarm State:  0
Sat Jul 22 11:38:04 PDT 2017 ON: 19.99 +20.0 19.64 - 3.2 34.0 07 14 470C 091A Alarm State:  0
Sat Jul 22 11:37:03 PDT 2017 ON: 19.98 +20.0 19.64 - 3.4 34.2 07 14 4720 0A01 Alarm State:  0
Sat Jul 22 11:36:01 PDT 2017 ON: 20.02 +20.0 19.68 - 4.0 33.8 07 14 4713 0927 Alarm State:  0
Sat Jul 22 11:35:00 PDT 2017 ON: 19.99 +20.0 19.68 - 4.0 33.7 07 14 4703 0928 Alarm State:  0
Sat Jul 22 11:33:58 PDT 2017 ON: 20.00 +20.0 19.70 - 4.8 33.1 0D 13 471A 0927 Alarm State:  0
Sat Jul 22 11:32:57 PDT 2017 ON: 20.01 +20.0 19.63 - 3.4 33.6 00 14 481F 0915 Alarm State:  0
Sat Jul 22 11:31:55 PDT 2017 ON: 20.00 +20.0 19.65 - 3.5 33.9 05 14 4818 091F Alarm State:  0
Sat Jul 22 11:30:54 PDT 2017 ON: 20.01 +20.0 19.62 - 3.0 34.1 05 14 480B 090A Alarm State:  0
Sat Jul 22 11:29:52 PDT 2017 ON: 20.01 +20.0 19.66 - 4.1 33.6 05 14 4708 091F Alarm State:  0
Sat Jul 22 11:28:51 PDT 2017 ON: 20.00 +20.0 19.61 - 2.6 34.2 02 14 472F 0927 Alarm State:  0
Sat Jul 22 11:27:49 PDT 2017 ON: 20.00 +20.0 19.66 - 3.6 34.0 05 14 4715 0913 Alarm State:  0
Sat Jul 22 11:26:48 PDT 2017 ON: 19.99 +20.0 19.65 - 3.2 34.2 05 14 470E 0911 Alarm State:  0
Sat Jul 22 11:25:46 PDT 2017 ON: 20.00 +20.0 19.63 - 3.1 34.0 05 14 471A 091A Alarm State:  0
Sat Jul 22 11:24:45 PDT 2017 ON: 19.99 +20.0 19.66 - 4.2 33.4 00 14 4632 0920 Alarm State:  0
Sat Jul 22 11:23:43 PDT 2017 ON: 20.01 +20.0 19.71 - 4.7 33.4 0A 13 471B 091E Alarm State:  0
Sat Jul 22 11:22:42 PDT 2017 ON: 20.01 +20.0 19.64 - 3.4 33.7 02 14 472C 091C Alarm State:  0
Sat Jul 22 11:21:41 PDT 2017 ON: 19.99 +20.0 19.62 - 3.1 34.2 05 14 471A 0929 Alarm State:  0
Sat Jul 22 11:20:39 PDT 2017 ON: 20.01 +20.0 19.69 - 4.3 33.8 00 14 4626 090A Alarm State:  0
Sat Jul 22 11:19:38 PDT 2017 ON: 20.03 +20.0 19.74 - 5.5 33.0 0D 11 460C 091F Alarm State:  0
Sat Jul 22 11:18:36 PDT 2017 ON: 19.99 +20.0 19.62 - 2.8 34.1 02 14 461D 0909 Alarm State:  0
Sat Jul 22 11:17:35 PDT 2017 ON: 20.00 +20.0 19.66 - 4.4 33.1 02 14 4617 0A02 Alarm State:  0
Sat Jul 22 11:16:33 PDT 2017 ON: 20.01 +20.0 19.64 - 3.5 33.6 00 14 471B 0913 Alarm State:  0
Sat Jul 22 11:15:32 PDT 2017 ON: 20.00 +20.0 19.65 - 3.8 33.5 00 14 470D 0924 Alarm State:  0
Sat Jul 22 11:14:30 PDT 2017 ON: 20.02 +20.0 19.65 - 3.5 33.8 00 14 471E 0914 Alarm State:  0
Sat Jul 22 11:13:29 PDT 2017 ON: 19.98 +20.0 19.65 - 3.8 33.9 02 14 472E 0931 Alarm State:  0
Sat Jul 22 11:12:27 PDT 2017 ON: 20.02 +20.0 19.70 - 4.4 33.8 0D 13 4731 0913 Alarm State:  0
Sat Jul 22 11:11:26 PDT 2017 ON: 20.00 +20.0 19.66 - 3.5 34.1 05 14 4632 0928 Alarm State:  0
Sat Jul 22 11:10:24 PDT 2017 ON: 20.00 +20.0 19.69 - 4.7 33.3 05 14 4603 0A13 Alarm State:  0
Sat Jul 22 11:09:23 PDT 2017 ON: 20.00 +20.0 19.63 - 3.0 33.8 00 14 470E 0923 Alarm State:  0
Sat Jul 22 11:08:21 PDT 2017 ON: 19.99 +20.0 19.66 - 3.7 34.1 0A 14 4711 091B Alarm State:  0
Sat Jul 22 11:07:20 PDT 2017 ON: 20.00 +20.0 19.67 - 4.1 33.9 05 14 4717 0906 Alarm State:  0
Sat Jul 22 11:06:18 PDT 2017 ON: 20.00 +20.0 19.68 - 3.9 34.1 05 14 4718 090C Alarm State:  0
Sat Jul 22 11:05:17 PDT 2017 ON: 20.01 +20.0 19.70 - 4.8 33.2 0A 14 4704 0A1B Alarm State:  0
Sat Jul 22 11:04:15 PDT 2017 ON: 19.99 +20.0 19.61 - 2.4 34.2 02 14 480A 0928 Alarm State:  0
Sat Jul 22 11:03:14 PDT 2017 ON: 20.00 +20.0 19.67 - 4.1 33.7 05 14 4727 090C Alarm State:  0
Sat Jul 22 11:02:12 PDT 2017 ON: 20.01 +20.0 19.69 - 4.4 33.3 0D 14 472A 0906 Alarm State:  0
Sat Jul 22 11:01:11 PDT 2017 ON: 20.03 +20.0 19.66 - 4.2 33.3 00 14 471E 0917 Alarm State:  0
Sat Jul 22 11:00:09 PDT 2017 ON: 20.00 +20.0 19.65 - 3.7 34.0 0A 14 4630 0923 Alarm State:  0
Sat Jul 22 10:59:08 PDT 2017 ON: 20.00 +20.0 19.68 - 4.5 33.4 07 14 4616 090B Alarm State:  0
Sat Jul 22 10:58:06 PDT 2017 ON: 20.01 +20.0 19.62 - 3.6 33.5 00 14 4712 0914 Alarm State:  0
Sat Jul 22 10:57:05 PDT 2017 ON: 19.99 +20.0 19.65 - 3.7 34.0 02 14 470C 0911 Alarm State:  0
Sat Jul 22 10:56:03 PDT 2017 ON: 20.01 +20.0 19.68 - 4.7 33.2 05 14 4705 0A05 Alarm State:  0
Sat Jul 22 10:55:02 PDT 2017 ON: 20.01 +20.0 19.60 - 2.5 34.0 00 14 4808 090F Alarm State:  0
Sat Jul 22 10:54:00 PDT 2017 ON: 20.02 +20.0 19.68 - 4.2 33.5 02 14 4702 0923 Alarm State:  0
Sat Jul 22 10:52:59 PDT 2017 ON: 19.99 +20.0 19.62 - 3.3 34.1 02 14 4629 0924 Alarm State:  0
Sat Jul 22 10:51:57 PDT 2017 ON: 19.99 +20.0 19.68 - 4.3 33.4 07 14 4628 0A1C Alarm State:  0
Sat Jul 22 10:50:56 PDT 2017 ON: 20.01 +20.0 19.66 - 3.5 33.7 00 14 4800 0922 Alarm State:  0
Sat Jul 22 10:49:54 PDT 2017 ON: 19.99 +20.0 19.62 - 2.9 34.2 05 14 4732 0922 Alarm State:  0
Sat Jul 22 10:48:53 PDT 2017 ON: 20.01 +20.0 19.65 - 3.6 34.1 02 14 4712 090A Alarm State:  0
Sat Jul 22 10:47:51 PDT 2017 ON: 20.01 +20.0 19.69 - 4.5 33.2 02 14 461E 091E Alarm State:  0
Sat Jul 22 10:46:50 PDT 2017 ON: 20.02 +20.0 19.68 - 4.4 33.3 00 14 4709 0905 Alarm State:  0
Sat Jul 22 10:45:48 PDT 2017 ON: 20.01 +20.0 19.67 - 3.9 33.4 00 14 462F 0915 Alarm State:  0
Sat Jul 22 10:44:47 PDT 2017 ON: 20.02 +20.0 19.66 - 4.1 33.5 00 14 4629 091A Alarm State:  0
Sat Jul 22 10:43:45 PDT 2017 ON: 19.98 +20.0 19.62 - 3.0 34.1 05 14 4622 0910 Alarm State:  0
Sat Jul 22 10:42:44 PDT 2017 ON: 19.99 +20.0 19.67 - 4.4 33.2 00 14 461C 0A11 Alarm State:  0
Sat Jul 22 10:41:42 PDT 2017 ON: 20.00 +20.0 19.62 - 2.7 33.8 00 14 4722 090E Alarm State:  0
Sat Jul 22 10:40:41 PDT 2017 ON: 20.00 +20.0 19.66 - 3.8 34.0 02 14 4700 091F Alarm State:  0
Sat Jul 22 10:39:39 PDT 2017 ON: 20.00 +20.0 19.67 - 4.6 33.4 05 14 461A 0A00 Alarm State:  0
Sat Jul 22 10:38:38 PDT 2017 ON: 20.00 +20.0 19.60 - 2.6 33.9 01 14 4725 0908 Alarm State:  0
Sat Jul 22 10:37:36 PDT 2017 ON: 20.00 +20.0 19.67 - 4.2 33.5 05 14 4706 091C Alarm State:  0
Sat Jul 22 10:36:35 PDT 2017 ON: 20.02 +20.0 19.70 - 4.9 33.2 0D 13 470C 0907 Alarm State:  0
Sat Jul 22 10:35:33 PDT 2017 ON: 19.99 +20.0 19.62 - 2.6 34.1 05 14 4721 091C Alarm State:  0
Sat Jul 22 10:34:32 PDT 2017 ON: 20.01 +20.0 19.68 - 4.6 33.1 00 14 461D 0905 Alarm State:  0
Sat Jul 22 10:33:30 PDT 2017 ON: 20.03 +20.0 19.63 - 3.8 33.5 00 14 4627 091F Alarm State:  0
Sat Jul 22 10:32:29 PDT 2017 ON: 19.99 +20.0 19.67 - 3.9 33.9 05 14 4608 0929 Alarm State:  0
Sat Jul 22 10:31:27 PDT 2017 ON: 20.01 +20.0 19.70 - 4.8 33.3 0D 13 4604 0927 Alarm State:  0
Sat Jul 22 10:30:26 PDT 2017 ON: 20.00 +20.0 19.62 - 2.9 33.8 00 14 462D 0927 Alarm State:  0
Sat Jul 22 10:29:24 PDT 2017 ON: 19.99 +20.0 19.64 - 4.0 33.5 05 14 4631 092D Alarm State:  0
Sat Jul 22 10:28:23 PDT 2017 ON: 20.02 +20.0 19.73 - 5.1 33.2 0D 12 470D 0924 Alarm State:  0
Sat Jul 22 10:27:21 PDT 2017 ON: 19.98 +20.0 19.61 - 3.1 34.1 05 14 470D 0926 Alarm State:  0
Sat Jul 22 10:26:20 PDT 2017 ON: 20.00 +20.0 19.67 - 4.5 33.4 05 14 4631 0A1E Alarm State:  0
Sat Jul 22 10:25:18 PDT 2017 ON: 20.00 +20.0 19.58 - 2.2 34.1 00 14 4809 091A Alarm State:  0
Sat Jul 22 10:24:17 PDT 2017 ON: 20.02 +20.0 19.68 - 4.2 33.6 05 14 4711 0905 Alarm State:  0
Sat Jul 22 10:23:15 PDT 2017 ON: 19.98 +20.0 19.65 - 3.7 34.1 07 14 462E 0A04 Alarm State:  0
Sat Jul 22 10:22:14 PDT 2017 ON: 20.03 +20.0 19.70 - 5.2 32.9 0D 13 4629 0920 Alarm State:  0
Sat Jul 22 10:21:12 PDT 2017 ON: 20.01 +20.0 19.62 - 2.9 33.9 00 14 4718 090B Alarm State:  0
Sat Jul 22 10:20:11 PDT 2017 ON: 19.99 +20.0 19.67 - 3.9 33.4 02 14 4713 0A01 Alarm State:  0
Sat Jul 22 10:19:10 PDT 2017 ON: 20.02 +20.0 19.67 - 3.8 33.4 00 14 4804 0915 Alarm State:  0
Sat Jul 22 10:18:08 PDT 2017 ON: 20.02 +20.0 19.67 - 4.5 33.0 02 14 4704 0900 Alarm State:  0
Sat Jul 22 10:17:07 PDT 2017 ON: 19.99 +20.0 19.61 - 3.1 34.1 05 14 4708 0920 Alarm State:  0
Sat Jul 22 10:16:05 PDT 2017 ON: 20.01 +20.0 19.69 - 4.4 33.0 07 14 462E 0A18 Alarm State:  0
Sat Jul 22 10:15:04 PDT 2017 ON: 20.02 +20.0 19.64 - 2.9 33.8 00 14 4731 0907 Alarm State:  0
Sat Jul 22 10:14:02 PDT 2017 ON: 20.00 +20.0 19.67 - 4.2 33.7 05 14 4706 091B Alarm State:  0
Sat Jul 22 10:13:01 PDT 2017 ON: 20.01 +20.0 19.72 - 5.1 33.0 0D 12 462D 091E Alarm State:  0
Sat Jul 22 10:11:59 PDT 2017 ON: 20.00 +20.0 19.60 - 2.8 33.8 00 14 471D 0926 Alarm State:  0
Sat Jul 22 10:10:58 PDT 2017 ON: 19.98 +20.0 19.67 - 4.1 33.2 00 14 471B 092E Alarm State:  0
Sat Jul 22 10:09:56 PDT 2017 ON: 20.03 +20.0 19.70 - 4.7 33.3 0D 13 472C 0900 Alarm State:  0
Sat Jul 22 10:08:55 PDT 2017 ON: 20.01 +20.0 19.69 - 4.6 33.2 07 14 4623 0915 Alarm State:  0
Sat Jul 22 10:07:53 PDT 2017 ON: 20.01 +20.0 19.63 - 3.5 33.5 00 14 470D 0908 Alarm State:  0
Sat Jul 22 10:06:52 PDT 2017 ON: 19.99 +20.0 19.64 - 3.3 33.9 07 14 462E 0911 Alarm State:  0
Sat Jul 22 10:05:50 PDT 2017 ON: 19.99 +20.0 19.65 - 3.8 33.7 05 14 4718 0915 Alarm State:  0
Sat Jul 22 10:04:49 PDT 2017 ON: 20.02 +20.0 19.70 - 4.8 33.5 0D 13 4712 0900 Alarm State:  0
Sat Jul 22 10:03:47 PDT 2017 ON: 20.00 +20.0 19.70 - 4.5 33.2 0A 13 461A 0912 Alarm State:  0
Sat Jul 22 10:02:46 PDT 2017 ON: 20.01 +20.0 19.71 - 5.1 32.7 0D 13 4628 0922 Alarm State:  0
Sat Jul 22 10:01:44 PDT 2017 ON: 20.00 +20.0 19.63 - 2.8 34.1 07 14 471C 091A Alarm State:  0
Sat Jul 22 10:00:43 PDT 2017 ON: 20.00 +20.0 19.64 - 3.5 33.7 00 14 4714 0921 Alarm State:  0
Sat Jul 22 09:59:41 PDT 2017 ON: 19.99 +20.0 19.65 - 3.8 33.8 00 14 4705 0929 Alarm State:  0
Sat Jul 22 09:58:40 PDT 2017 ON: 20.02 +20.0 19.72 - 4.9 33.3 0A 12 4632 0912 Alarm State:  0
Sat Jul 22 09:57:38 PDT 2017 ON: 19.99 +20.0 19.60 - 2.7 34.2 07 14 4720 092B Alarm State:  0
Sat Jul 22 09:56:37 PDT 2017 ON: 20.00 +20.0 19.66 - 3.7 34.1 02 14 4715 0A02 Alarm State:  0
Sat Jul 22 09:55:35 PDT 2017 ON: 19.99 +20.0 19.65 - 4.3 33.5 05 14 470B 0A2E Alarm State:  0
Sat Jul 22 09:54:34 PDT 2017 ON: 20.00 +20.0 19.61 - 2.7 34.1 00 14 4813 0927 Alarm State:  0
Sat Jul 22 09:53:32 PDT 2017 ON: 20.01 +20.0 19.68 - 3.8 33.9 00 14 4722 0911 Alarm State:  0
Sat Jul 22 09:52:31 PDT 2017 ON: 20.02 +20.0 19.66 - 4.1 33.5 00 14 470C 0922 Alarm State:  0
Sat Jul 22 09:51:29 PDT 2017 ON: 19.98 +20.0 19.66 - 3.9 34.1 05 14 4701 0922 Alarm State:  0
Sat Jul 22 09:50:28 PDT 2017 ON: 20.01 +20.0 19.70 - 4.7 33.2 0D 13 4702 0904 Alarm State:  0
Sat Jul 22 09:49:26 PDT 2017 ON: 20.01 +20.0 19.66 - 4.1 33.6 00 14 4720 0914 Alarm State:  0
Sat Jul 22 09:48:25 PDT 2017 ON: 20.00 +20.0 19.64 - 3.4 34.0 02 14 472B 090A Alarm State:  0
Sat Jul 22 09:47:23 PDT 2017 ON: 20.02 +20.0 19.68 - 3.9 33.6 00 14 472B 0917 Alarm State:  0
Sat Jul 22 09:46:22 PDT 2017 ON: 20.02 +20.0 19.66 - 4.2 33.6 00 14 4718 0915 Alarm State:  0
Sat Jul 22 09:45:20 PDT 2017 ON: 20.01 +20.0 19.67 - 4.3 33.4 00 14 470E 0920 Alarm State:  0
Sat Jul 22 09:44:19 PDT 2017 ON: 20.01 +20.0 19.68 - 4.1 33.5 0D 14 480A 0924 Alarm State:  0
Sat Jul 22 09:43:17 PDT 2017 ON: 20.03 +20.0 19.71 - 4.8 33.5 08 13 480A 0923 Alarm State:  0
Sat Jul 22 09:42:16 PDT 2017 ON: 20.00 +20.0 19.69 - 4.6 33.0 0A 14 4708 090E Alarm State:  0
Sat Jul 22 09:41:14 PDT 2017 ON: 20.02 +20.0 19.68 - 4.0 33.5 00 14 4728 0912 Alarm State:  0
Sat Jul 22 09:40:13 PDT 2017 ON: 20.02 +20.0 19.71 - 5.2 33.1 0A 13 4622 0926 Alarm State:  0
Sat Jul 22 09:39:11 PDT 2017 ON: 19.99 +20.0 19.68 - 4.4 33.5 05 14 4632 092F Alarm State:  0
Sat Jul 22 09:38:10 PDT 2017 ON: 20.04 +20.0 19.74 - 5.5 32.6 08 12 4708 0A07 Alarm State:  0
Sat Jul 22 09:37:08 PDT 2017 ON: 19.98 +20.0 19.62 - 3.4 34.1 0A 14 4728 0923 Alarm State:  0
Sat Jul 22 09:36:07 PDT 2017 ON: 20.01 +20.0 19.68 - 4.3 33.7 05 14 4727 0905 Alarm State:  0
Sat Jul 22 09:35:05 PDT 2017 ON: 20.00 +20.0 19.68 - 4.2 33.8 05 14 470F 0918 Alarm State:  0
Sat Jul 22 09:34:04 PDT 2017 ON: 20.01 +20.0 19.70 - 4.4 33.7 0D 13 462D 0922 Alarm State:  0
Sat Jul 22 09:33:02 PDT 2017 ON: 19.98 +20.0 19.63 - 3.2 34.1 07 14 462B 0923 Alarm State:  0
Sat Jul 22 09:32:01 PDT 2017 ON: 20.00 +20.0 19.68 - 4.6 33.2 07 14 4616 091D Alarm State:  0
Sat Jul 22 09:30:59 PDT 2017 ON: 20.00 +20.0 19.60 - 2.7 33.8 01 14 4715 0918 Alarm State:  0
Sat Jul 22 09:29:58 PDT 2017 ON: 20.00 +20.0 19.67 - 4.2 33.5 07 14 4700 0924 Alarm State:  0
Sat Jul 22 09:28:56 PDT 2017 ON: 20.01 +20.0 19.70 - 4.5 33.3 0D 13 4720 091C Alarm State:  0
Sat Jul 22 09:27:55 PDT 2017 ON: 20.01 +20.0 19.69 - 4.4 33.6 0D 14 471F 0922 Alarm State:  0
Sat Jul 22 09:26:54 PDT 2017 ON: 20.00 +20.0 19.68 - 4.4 33.5 05 14 470F 0A0C Alarm State:  0
Sat Jul 22 09:25:52 PDT 2017 ON: 20.00 +20.0 19.68 - 4.0 33.8 05 14 472A 091C Alarm State:  0
Sat Jul 22 09:24:51 PDT 2017 ON: 20.01 +20.0 19.66 - 3.8 33.9 02 14 471C 091B Alarm State:  0
Sat Jul 22 09:23:49 PDT 2017 ON: 20.01 +20.0 19.68 - 4.7 33.2 07 14 4616 0A06 Alarm State:  0
Sat Jul 22 09:22:48 PDT 2017 ON: 20.01 +20.0 19.60 - 2.7 33.8 00 14 4717 0924 Alarm State:  0
Sat Jul 22 09:21:46 PDT 2017 ON: 20.00 +20.0 19.67 - 4.1 33.3 00 14 4700 0A05 Alarm State:  0
Sat Jul 22 09:20:45 PDT 2017 ON: 20.04 +20.0 19.71 - 4.6 33.4 03 13 471C 0902 Alarm State:  0
Sat Jul 22 09:19:43 PDT 2017 ON: 20.01 +20.0 19.73 - 5.5 32.6 0D 12 461A 0A16 Alarm State:  0
Sat Jul 22 09:18:42 PDT 2017 ON: 19.96 +20.0 19.60 - 2.9 34.3 01 14 4723 0922 Alarm State:  0
Sat Jul 22 09:17:40 PDT 2017 ON: 20.01 +20.0 19.69 - 4.5 33.1 0A 14 472C 0A02 Alarm State:  0
Sat Jul 22 09:16:39 PDT 2017 ON: 20.01 +20.0 19.64 - 3.3 33.7 00 14 482B 091C Alarm State:  0
Sat Jul 22 09:15:37 PDT 2017 ON: 20.01 +20.0 19.67 - 3.7 33.8 05 14 472F 0907 Alarm State:  0
Sat Jul 22 09:14:36 PDT 2017 ON: 20.00 +20.0 19.62 - 3.2 33.9 00 14 471B 0918 Alarm State:  0
Sat Jul 22 09:13:34 PDT 2017 ON: 20.00 +20.0 19.67 - 4.1 33.4 07 14 4702 0924 Alarm State:  0
Sat Jul 22 09:12:33 PDT 2017 ON: 20.03 +20.0 19.71 - 4.4 33.2 0A 13 471D 0915 Alarm State:  0
Sat Jul 22 09:11:31 PDT 2017 ON: 20.02 +20.0 19.66 - 3.6 33.6 00 14 4703 0928 Alarm State:  0
Sat Jul 22 09:10:30 PDT 2017 ON: 20.00 +20.0 19.68 - 4.0 33.5 00 14 4621 0A09 Alarm State:  0
Sat Jul 22 09:09:28 PDT 2017 ON: 20.03 +20.0 19.73 - 5.2 32.8 0D 12 462D 090E Alarm State:  0
Sat Jul 22 09:08:27 PDT 2017 ON: 19.99 +20.0 19.59 - 2.7 34.1 04 14 4707 0920 Alarm State:  0
Sat Jul 22 09:07:25 PDT 2017 ON: 19.99 +20.0 19.66 - 4.1 33.3 02 14 470D 0A11 Alarm State:  0
Sat Jul 22 09:06:24 PDT 2017 ON: 20.01 +20.0 19.65 - 3.3 33.7 00 14 480B 0918 Alarm State:  0
Sat Jul 22 09:05:22 PDT 2017 ON: 20.03 +20.0 19.66 - 4.3 33.1 00 14 4704 0904 Alarm State:  0
Sat Jul 22 09:04:21 PDT 2017 ON: 19.99 +20.0 19.66 - 3.6 34.1 0A 14 4628 0910 Alarm State:  0
Sat Jul 22 09:03:19 PDT 2017 ON: 20.01 +20.0 19.70 - 4.9 33.2 0D 13 4612 0905 Alarm State:  0
Sat Jul 22 09:02:18 PDT 2017 ON: 20.00 +20.0 19.59 - 2.5 34.0 04 14 470A 0900 Alarm State:  0
Sat Jul 22 09:01:16 PDT 2017 ON: 19.99 +20.0 19.67 - 4.1 33.4 07 14 4625 0A11 Alarm State:  0
Sat Jul 22 09:00:15 PDT 2017 ON: 20.02 +20.0 19.69 - 4.7 33.1 0D 14 4707 0915 Alarm State:  0
Sat Jul 22 08:59:13 PDT 2017 ON: 20.02 +20.0 19.67 - 3.7 33.5 00 14 4719 090A Alarm State:  0
Sat Jul 22 08:58:12 PDT 2017 ON: 19.99 +20.0 19.59 - 2.3 34.2 01 14 4726 0920 Alarm State:  0
Sat Jul 22 08:57:10 PDT 2017 ON: 20.02 +20.0 19.65 - 3.9 33.5 00 14 4700 0904 Alarm State:  0
Sat Jul 22 08:56:09 PDT 2017 ON: 19.99 +20.0 19.67 - 3.9 33.5 07 14 4620 092E Alarm State:  0
Sat Jul 22 08:55:07 PDT 2017 ON: 20.02 +20.0 19.69 - 4.3 33.2 08 14 4715 0910 Alarm State:  0
Sat Jul 22 08:54:06 PDT 2017 ON: 19.98 +20.0 19.63 - 3.2 34.2 07 14 471A 092E Alarm State:  0
Sat Jul 22 08:53:04 PDT 2017 ON: 20.01 +20.0 19.69 - 4.3 33.4 0D 14 470C 0921 Alarm State:  0
Sat Jul 22 08:52:03 PDT 2017 ON: 20.03 +20.0 19.67 - 4.5 33.1 00 14 470F 0900 Alarm State:  0
Sat Jul 22 08:51:01 PDT 2017 ON: 19.99 +20.0 19.67 - 4.0 33.4 07 14 4713 0928 Alarm State:  0
Sat Jul 22 08:50:00 PDT 2017 ON: 20.03 +20.0 19.71 - 4.8 33.0 08 13 4724 0900 Alarm State:  0
Sat Jul 22 08:48:49 PDT 2017  Alarm State: 0
Sat Jul 22 08:48:49 PDT 2017 Chiller did not report ON, got this reading: 
Sat Jul 22 08:47:47 PDT 2017 ON: 20.02 +20.0 19.64 - 3.5 33.5 00 14 471F 0909 Alarm State:  0
Sat Jul 22 08:46:36 PDT 2017 ON: 19.98 +20.0 19.66 - 3.8 33.6 05 14 4718 0A05 Alarm State:  0
Sat Jul 22 08:45:34 PDT 2017 ON: 20.03 +20.0 19.70 - 4.8 33.1 0A 13 4726 0908 Alarm State:  0
Sat Jul 22 08:44:33 PDT 2017 ON: 20.01 +20.0 19.63 - 3.6 33.4 00 14 471B 0914 Alarm State:  0
Sat Jul 22 08:43:31 PDT 2017 ON: 19.98 +20.0 19.65 - 3.6 33.8 05 14 4723 0A01 Alarm State:  0
Sat Jul 22 08:42:30 PDT 2017 ON: 20.02 +20.0 19.69 - 4.5 33.4 0D 14 4728 0911 Alarm State:  0
Sat Jul 22 08:41:28 PDT 2017 ON: 20.02 +20.0 19.68 - 4.4 33.3 05 14 4708 091E Alarm State:  0
Sat Jul 22 08:40:27 PDT 2017 ON: 20.00 +20.0 19.62 - 2.9 34.1 05 14 470D 0916 Alarm State:  0
Sat Jul 22 08:39:25 PDT 2017 ON: 19.99 +20.0 19.65 - 3.9 33.4 00 14 4713 0A0F Alarm State:  0
Sat Jul 22 08:38:24 PDT 2017 ON: 20.03 +20.0 19.67 - 4.0 33.5 00 14 4801 0913 Alarm State:  0
Sat Jul 22 08:37:22 PDT 2017 ON: 20.03 +20.0 19.68 - 4.8 32.9 00 14 4629 0928 Alarm State:  0
Sat Jul 22 08:36:21 PDT 2017 ON: 19.99 +20.0 19.63 - 3.0 34.1 05 14 4703 0910 Alarm State:  0
Sat Jul 22 08:35:19 PDT 2017 ON: 20.00 +20.0 19.66 - 4.3 33.3 02 14 461C 0A0F Alarm State:  0
Sat Jul 22 08:34:18 PDT 2017 ON: 20.01 +20.0 19.61 - 3.2 33.7 00 14 4720 091E Alarm State:  0
Sat Jul 22 08:33:06 PDT 2017 ON: 19.99 +20.0 19.63 - 3.3 34.1 05 14 4712 092C Alarm State:  0
Sat Jul 22 08:32:05 PDT 2017 ON: 19.98 +20.0 19.66 - 4.2 33.4 05 14 4715 0A1A Alarm State:  0
Sat Jul 22 08:31:03 PDT 2017 ON: 20.00 +20.0 19.58 - 2.3 34.0 00 14 4820 0914 Alarm State:  0
Sat Jul 22 08:30:02 PDT 2017 ON: 20.01 +20.0 19.64 - 3.2 33.9 02 14 4722 0928 Alarm State:  0
Sat Jul 22 08:29:00 PDT 2017 ON: 20.00 +20.0 19.66 - 4.1 33.5 07 14 4700 0A14 Alarm State:  0
Sat Jul 22 08:27:59 PDT 2017 ON: 20.03 +20.0 19.63 - 3.8 33.3 00 14 4727 090A Alarm State:  0
Sat Jul 22 08:26:57 PDT 2017 ON: 20.00 +20.0 19.64 - 3.3 34.1 02 14 4725 090F Alarm State:  0
Sat Jul 22 08:25:56 PDT 2017 ON: 20.00 +20.0 19.66 - 4.0 33.8 05 14 4710 0905 Alarm State:  0
Sat Jul 22 08:24:54 PDT 2017 ON: 20.02 +20.0 19.69 - 4.6 33.0 07 14 4623 091A Alarm State:  0
Sat Jul 22 08:23:53 PDT 2017 ON: 20.01 +20.0 19.64 - 3.4 33.6 00 14 471D 0922 Alarm State:  0
Sat Jul 22 08:22:51 PDT 2017 ON: 19.99 +20.0 19.66 - 3.3 34.2 02 14 470B 0929 Alarm State:  0
Sat Jul 22 08:21:50 PDT 2017 ON: 20.02 +20.0 19.68 - 4.4 33.4 02 14 4629 0925 Alarm State:  0
Sat Jul 22 08:20:48 PDT 2017 ON: 20.01 +20.0 19.64 - 3.3 33.6 00 14 4704 0922 Alarm State:  0
Sat Jul 22 08:19:47 PDT 2017 ON: 19.98 +20.0 19.67 - 3.8 33.6 00 14 462E 0A16 Alarm State:  0
Sat Jul 22 08:18:45 PDT 2017 ON: 20.01 +20.0 19.69 - 4.5 33.4 0D 14 470D 0919 Alarm State:  0
Sat Jul 22 08:17:44 PDT 2017 ON: 20.02 +20.0 19.66 - 4.0 33.2 00 14 4710 0921 Alarm State:  0
Sat Jul 22 08:16:42 PDT 2017 ON: 19.98 +20.0 19.65 - 3.3 34.1 0A 14 4720 092C Alarm State:  0
Sat Jul 22 08:15:41 PDT 2017 ON: 20.00 +20.0 19.69 - 3.8 34.0 0D 14 4725 0910 Alarm State:  0
Sat Jul 22 08:14:39 PDT 2017 ON: 20.00 +20.0 19.68 - 3.8 33.9 00 14 4701 0925 Alarm State:  0
Sat Jul 22 08:13:38 PDT 2017 ON: 20.00 +20.0 19.72 - 5.1 32.9 0D 13 4627 0A10 Alarm State:  0
Sat Jul 22 08:12:36 PDT 2017 ON: 19.97 +20.0 19.61 - 2.4 34.3 05 14 4730 0916 Alarm State:  0
Sat Jul 22 08:11:35 PDT 2017 ON: 20.00 +20.0 19.69 - 4.2 33.3 0D 14 471D 090C Alarm State:  0
Sat Jul 22 08:10:33 PDT 2017 ON: 20.02 +20.0 19.68 - 3.9 33.5 02 14 4729 0903 Alarm State:  0
Sat Jul 22 08:09:32 PDT 2017 ON: 20.03 +20.0 19.72 - 5.3 32.8 0A 12 4621 0917 Alarm State:  0
Sat Jul 22 08:08:30 PDT 2017 ON: 20.00 +20.0 19.63 - 3.0 33.9 05 14 4623 0912 Alarm State:  0
Sat Jul 22 08:07:29 PDT 2017 ON: 19.99 +20.0 19.65 - 3.9 33.5 00 14 4618 0A08 Alarm State:  0
Sat Jul 22 08:06:27 PDT 2017 ON: 20.01 +20.0 19.68 - 3.9 33.4 00 14 4711 091C Alarm State:  0
Sat Jul 22 08:05:26 PDT 2017 ON: 19.98 +20.0 19.63 - 3.0 34.2 02 14 4708 0914 Alarm State:  0
Sat Jul 22 08:04:24 PDT 2017 ON: 20.00 +20.0 19.69 - 4.3 33.4 05 14 462F 0911 Alarm State:  0
Sat Jul 22 08:03:23 PDT 2017 ON: 20.02 +20.0 19.71 - 4.5 33.1 0A 13 4715 0911 Alarm State:  0
Sat Jul 22 08:02:21 PDT 2017 ON: 19.99 +20.0 19.61 - 2.9 34.2 0A 14 4725 091B Alarm State:  0
Sat Jul 22 08:01:20 PDT 2017 ON: 20.00 +20.0 19.68 - 4.2 33.6 05 14 470E 0915 Alarm State:  0
Sat Jul 22 08:00:18 PDT 2017 ON: 20.00 +20.0 19.71 - 4.3 33.3 0D 13 470C 0920 Alarm State:  0
Sat Jul 22 07:59:17 PDT 2017 ON: 20.02 +20.0 19.69 - 4.2 33.4 0A 14 4715 0901 Alarm State:  0
Sat Jul 22 07:58:15 PDT 2017 ON: 20.02 +20.0 19.67 - 3.8 33.4 00 14 462C 0916 Alarm State:  0
Sat Jul 22 07:57:14 PDT 2017 ON: 19.99 +20.0 19.61 - 3.0 34.0 01 14 4621 091E Alarm State:  0
Sat Jul 22 07:56:12 PDT 2017 ON: 20.00 +20.0 19.68 - 4.1 33.4 05 14 4607 092D Alarm State:  0
Sat Jul 22 07:55:11 PDT 2017 ON: 20.02 +20.0 19.70 - 5.0 32.9 0D 14 4616 0A0D Alarm State:  0
Sat Jul 22 07:54:09 PDT 2017 ON: 19.99 +20.0 19.61 - 2.8 34.2 05 14 4707 0A09 Alarm State:  0
Sat Jul 22 07:53:08 PDT 2017 ON: 19.99 +20.0 19.69 - 4.6 33.3 05 14 4627 0A2E Alarm State:  0
Sat Jul 22 07:52:06 PDT 2017 ON: 19.99 +20.0 19.59 - 2.1 34.1 04 14 4732 0922 Alarm State:  0
Sat Jul 22 07:51:05 PDT 2017 ON: 19.99 +20.0 19.64 - 3.9 33.3 07 14 480A 0A10 Alarm State:  0
Sat Jul 22 07:50:03 PDT 2017 ON: 20.02 +20.0 19.69 - 3.9 33.7 0A 14 4828 0903 Alarm State:  0
Sat Jul 22 07:49:02 PDT 2017 ON: 20.01 +20.0 19.69 - 4.2 33.5 0D 14 471E 0917 Alarm State:  0
Sat Jul 22 07:48:00 PDT 2017 ON: 20.01 +20.0 19.69 - 4.2 33.5 0D 14 470E 0901 Alarm State:  0
Sat Jul 22 07:46:59 PDT 2017 ON: 20.04 +20.0 19.72 - 5.1 32.9 0D 12 462A 0913 Alarm State:  0
Sat Jul 22 07:45:57 PDT 2017 ON: 19.99 +20.0 19.61 - 2.8 34.2 01 14 4632 0A00 Alarm State:  0
Sat Jul 22 07:44:56 PDT 2017 ON: 20.00 +20.0 19.69 - 4.2 33.4 00 14 4615 0905 Alarm State:  0
Sat Jul 22 07:43:54 PDT 2017 ON: 20.04 +20.0 19.66 - 4.2 33.2 00 14 462F 0927 Alarm State:  0
Sat Jul 22 07:42:53 PDT 2017 ON: 19.99 +20.0 19.65 - 3.9 33.6 05 14 462E 0A11 Alarm State:  0
Sat Jul 22 07:41:51 PDT 2017 ON: 20.01 +20.0 19.72 - 5.1 32.8 0A 13 470B 0A18 Alarm State:  0
Sat Jul 22 07:40:50 PDT 2017 ON: 19.97 +20.0 19.61 - 2.7 34.3 02 14 480B 091F Alarm State:  0
Sat Jul 22 07:39:48 PDT 2017 ON: 20.02 +20.0 19.67 - 3.7 33.8 02 14 4803 090A Alarm State:  0
Sat Jul 22 07:38:47 PDT 2017 ON: 20.00 +20.0 19.64 - 2.9 34.0 05 14 470B 091E Alarm State:  0
Sat Jul 22 07:37:45 PDT 2017 ON: 19.99 +20.0 19.67 - 4.1 33.3 00 14 4624 0A27 Alarm State:  0
Sat Jul 22 07:36:44 PDT 2017 ON: 20.02 +20.0 19.65 - 3.0 33.7 00 14 4720 0907 Alarm State:  0
Sat Jul 22 07:35:42 PDT 2017 ON: 20.02 +20.0 19.69 - 4.5 33.1 05 14 4615 091C Alarm State:  0
Sat Jul 22 07:34:41 PDT 2017 ON: 20.01 +20.0 19.64 - 3.2 33.6 00 14 4705 0926 Alarm State:  0
Sat Jul 22 07:33:39 PDT 2017 ON: 19.98 +20.0 19.64 - 3.8 33.3 00 14 4705 0A0B Alarm State:  0
Sat Jul 22 07:32:38 PDT 2017 ON: 20.04 +20.0 19.69 - 4.2 33.1 03 14 4724 0A01 Alarm State:  0
Sat Jul 22 07:31:36 PDT 2017 ON: 19.98 +20.0 19.64 - 3.4 34.1 02 14 4732 0A07 Alarm State:  0
Sat Jul 22 07:30:35 PDT 2017 ON: 20.01 +20.0 19.68 - 3.9 33.9 0D 14 4800 091B Alarm State:  0
Sat Jul 22 07:29:33 PDT 2017 ON: 20.01 +20.0 19.62 - 3.2 34.0 00 14 4705 0907 Alarm State:  0
Sat Jul 22 07:28:32 PDT 2017 ON: 20.00 +20.0 19.67 - 4.1 33.4 00 14 4619 091B Alarm State:  0
Sat Jul 22 07:27:30 PDT 2017 ON: 20.02 +20.0 19.67 - 4.0 33.4 00 14 470D 0910 Alarm State:  0
Sat Jul 22 07:26:29 PDT 2017 ON: 19.99 +20.0 19.60 - 2.6 34.2 04 14 470F 0909 Alarm State:  0
Sat Jul 22 07:25:27 PDT 2017 ON: 20.00 +20.0 19.69 - 4.4 33.5 05 14 4623 090D Alarm State:  0
Sat Jul 22 07:24:26 PDT 2017 ON: 20.02 +20.0 19.65 - 3.5 33.5 00 14 471E 091D Alarm State:  0
Sat Jul 22 07:23:24 PDT 2017 ON: 19.99 +20.0 19.65 - 3.8 33.7 05 14 4711 091F Alarm State:  0
Sat Jul 22 07:22:23 PDT 2017 ON: 20.01 +20.0 19.70 - 4.3 33.4 0D 13 4717 0927 Alarm State:  0
Sat Jul 22 07:21:22 PDT 2017 ON: 20.00 +20.0 19.60 - 2.6 34.0 04 14 4728 091F Alarm State:  0
Sat Jul 22 07:20:20 PDT 2017 ON: 20.00 +20.0 19.67 - 3.6 34.0 0A 14 462D 0909 Alarm State:  0
Sat Jul 22 07:19:19 PDT 2017 ON: 20.00 +20.0 19.68 - 4.5 33.3 07 14 460C 091D Alarm State:  0
Sat Jul 22 07:18:17 PDT 2017 ON: 20.00 +20.0 19.60 - 2.4 34.0 01 14 4715 090E Alarm State:  0
Sat Jul 22 07:17:16 PDT 2017 ON: 20.00 +20.0 19.64 - 3.3 34.1 05 14 4623 0922 Alarm State:  0
Sat Jul 22 07:16:14 PDT 2017 ON: 20.00 +20.0 19.67 - 4.3 33.3 07 14 460D 0A0E Alarm State:  0
Sat Jul 22 07:15:13 PDT 2017 ON: 20.01 +20.0 19.69 - 4.0 33.2 0A 14 470F 0900 Alarm State:  0
Sat Jul 22 07:14:11 PDT 2017 ON: 20.04 +20.0 19.68 - 4.1 33.3 00 14 471B 091C Alarm State:  0
Sat Jul 22 07:13:10 PDT 2017 ON: 20.02 +20.0 19.70 - 4.6 33.3 0A 13 4617 0907 Alarm State:  0
Sat Jul 22 07:12:08 PDT 2017 ON: 20.02 +20.0 19.69 - 4.6 33.0 02 14 461F 090A Alarm State:  0
Sat Jul 22 07:11:07 PDT 2017 ON: 19.99 +20.0 19.64 - 3.2 34.2 05 14 4703 0921 Alarm State:  0
Sat Jul 22 07:10:05 PDT 2017 ON: 20.01 +20.0 19.71 - 5.0 33.2 0D 13 4624 0A12 Alarm State:  0
Sat Jul 22 07:09:04 PDT 2017 ON: 19.98 +20.0 19.58 - 2.3 34.1 07 14 4722 092B Alarm State:  0
Sat Jul 22 07:08:02 PDT 2017 ON: 20.00 +20.0 19.66 - 3.9 33.8 05 14 4712 0905 Alarm State:  0
Sat Jul 22 07:07:01 PDT 2017 ON: 20.00 +20.0 19.69 - 4.5 33.3 0D 14 4701 0A05 Alarm State:  0
Sat Jul 22 07:05:59 PDT 2017 ON: 19.99 +20.0 19.59 - 2.2 34.0 00 14 4808 090F Alarm State:  0
Sat Jul 22 07:04:57 PDT 2017 ON: 20.01 +20.0 19.66 - 3.9 33.5 00 14 470E 0921 Alarm State:  0
Sat Jul 22 07:03:56 PDT 2017 ON: 20.03 +20.0 19.62 - 3.0 33.7 05 14 4712 091A Alarm State:  0
Sat Jul 22 07:02:54 PDT 2017 ON: 19.99 +20.0 19.68 - 4.1 33.5 00 14 4622 092C Alarm State:  0
Sat Jul 22 07:01:53 PDT 2017 ON: 20.02 +20.0 19.72 - 5.0 33.0 0D 12 4630 090B Alarm State:  0
Sat Jul 22 07:00:52 PDT 2017 ON: 19.99 +20.0 19.61 - 2.8 34.0 02 14 4714 0914 Alarm State:  0
Sat Jul 22 06:59:50 PDT 2017 ON: 20.01 +20.0 19.62 - 3.0 33.9 00 14 471A 091F Alarm State:  0
Sat Jul 22 06:58:49 PDT 2017 ON: 20.01 +20.0 19.64 - 3.1 33.8 00 14 462A 090A Alarm State:  0
Sat Jul 22 06:57:47 PDT 2017 ON: 20.00 +20.0 19.67 - 4.2 33.5 05 14 4602 0919 Alarm State:  0
Sat Jul 22 06:56:46 PDT 2017 ON: 20.01 +20.0 19.70 - 4.9 33.2 0D 13 4607 0926 Alarm State:  0
Sat Jul 22 06:55:44 PDT 2017 ON: 19.98 +20.0 19.60 - 2.3 34.2 01 14 4706 0915 Alarm State:  0
Sat Jul 22 06:54:43 PDT 2017 ON: 19.99 +20.0 19.67 - 4.3 33.2 02 14 4620 0A1B Alarm State:  0
Sat Jul 22 06:53:41 PDT 2017 ON: 20.02 +20.0 19.65 - 3.6 33.5 00 14 471D 0927 Alarm State:  0
Sat Jul 22 06:52:40 PDT 2017 ON: 19.99 +20.0 19.64 - 3.2 34.2 02 14 470E 0927 Alarm State:  0
Sat Jul 22 06:51:38 PDT 2017 ON: 20.01 +20.0 19.67 - 4.3 33.5 00 14 462D 091E Alarm State:  0
Sat Jul 22 06:50:37 PDT 2017 ON: 19.99 +20.0 19.60 - 2.5 34.0 00 14 4727 0928 Alarm State:  0
Sat Jul 22 06:49:35 PDT 2017 ON: 20.00 +20.0 19.68 - 4.1 33.6 07 14 462E 0912 Alarm State:  0
Sat Jul 22 06:48:34 PDT 2017 ON: 20.04 +20.0 19.72 - 5.3 32.6 0A 12 4629 0916 Alarm State:  0
Sat Jul 22 06:47:32 PDT 2017 ON: 19.98 +20.0 19.65 - 3.4 34.1 02 14 4700 0A01 Alarm State:  0
Sat Jul 22 06:46:31 PDT 2017 ON: 20.01 +20.0 19.72 - 5.4 32.7 0D 13 4628 0A25 Alarm State:  0
Sat Jul 22 06:45:29 PDT 2017 ON: 19.97 +20.0 19.61 - 2.8 34.3 0A 14 472B 0A04 Alarm State:  0
Sat Jul 22 06:44:28 PDT 2017 ON: 20.03 +20.0 19.70 - 4.2 33.7 0D 13 4724 0918 Alarm State:  0
Sat Jul 22 06:43:26 PDT 2017 ON: 20.00 +20.0 19.66 - 4.0 33.5 07 14 4702 0929 Alarm State:  0
Sat Jul 22 06:42:25 PDT 2017 ON: 20.02 +20.0 19.70 - 4.9 33.1 0D 13 4705 090F Alarm State:  0
Sat Jul 22 06:41:23 PDT 2017 ON: 20.00 +20.0 19.60 - 2.8 34.0 00 14 4717 0908 Alarm State:  0
Sat Jul 22 06:40:22 PDT 2017 ON: 20.00 +20.0 19.65 - 3.5 34.1 05 14 4629 091C Alarm State:  0
Sat Jul 22 06:39:20 PDT 2017 ON: 20.01 +20.0 19.68 - 4.7 33.0 07 14 460F 0925 Alarm State:  0
Sat Jul 22 06:38:19 PDT 2017 ON: 20.02 +20.0 19.65 - 4.3 33.1 00 14 4709 091C Alarm State:  0
Sat Jul 22 06:37:17 PDT 2017 ON: 19.97 +20.0 19.63 - 3.5 34.0 05 14 471D 092B Alarm State:  0
Sat Jul 22 06:36:16 PDT 2017 ON: 20.02 +20.0 19.69 - 4.1 33.8 0D 14 4728 0903 Alarm State:  0
Sat Jul 22 06:35:14 PDT 2017 ON: 20.02 +20.0 19.69 - 3.9 34.0 0D 14 4700 0918 Alarm State:  0
Sat Jul 22 06:34:13 PDT 2017 ON: 20.00 +20.0 19.68 - 4.6 33.3 05 14 4608 0A03 Alarm State:  0
Sat Jul 22 06:33:11 PDT 2017 ON: 20.00 +20.0 19.60 - 2.5 34.0 00 14 470F 0917 Alarm State:  0
Sat Jul 22 06:32:10 PDT 2017 ON: 20.01 +20.0 19.64 - 3.5 34.0 05 14 4621 0902 Alarm State:  0
Sat Jul 22 06:31:08 PDT 2017 ON: 20.00 +20.0 19.68 - 4.5 33.2 05 14 4613 0913 Alarm State:  0
Sat Jul 22 06:30:07 PDT 2017 ON: 20.01 +20.0 19.64 - 3.8 33.4 00 14 4715 090C Alarm State:  0
Sat Jul 22 06:29:05 PDT 2017 ON: 19.99 +20.0 19.60 - 2.6 34.1 01 14 472D 0919 Alarm State:  0
Sat Jul 22 06:28:04 PDT 2017 ON: 20.00 +20.0 19.65 - 3.0 34.1 05 14 4722 091F Alarm State:  0
Sat Jul 22 06:27:02 PDT 2017 ON: 20.01 +20.0 19.70 - 4.2 33.8 0D 13 462B 0909 Alarm State:  0
Sat Jul 22 06:26:01 PDT 2017 ON: 20.02 +20.0 19.73 - 5.1 33.0 0D 12 4626 0A0F Alarm State:  0
Sat Jul 22 06:24:59 PDT 2017 ON: 19.98 +20.0 19.58 - 2.4 34.2 01 14 471F 092D Alarm State:  0
Sat Jul 22 06:23:58 PDT 2017 ON: 19.99 +20.0 19.65 - 3.7 34.0 02 14 4712 091F Alarm State:  0
Sat Jul 22 06:22:56 PDT 2017 ON: 20.00 +20.0 19.68 - 4.4 33.3 07 14 4704 0928 Alarm State:  0
Sat Jul 22 06:21:55 PDT 2017 ON: 20.01 +20.0 19.57 - 2.5 33.9 01 14 480A 0907 Alarm State:  0
Sat Jul 22 06:20:53 PDT 2017 ON: 20.01 +20.0 19.68 - 3.9 33.4 00 14 4632 091C Alarm State:  0
Sat Jul 22 06:19:52 PDT 2017 ON: 19.98 +20.0 19.66 - 3.6 34.0 05 14 4702 091C Alarm State:  0
Sat Jul 22 06:18:40 PDT 2017 ON: 20.01 +20.0 19.69 - 4.5 33.2 07 14 462D 090B Alarm State:  0
Sat Jul 22 06:17:39 PDT 2017 ON: 20.01 +20.0 19.61 - 2.8 34.0 00 14 4727 0912 Alarm State:  0
Sat Jul 22 06:16:37 PDT 2017 ON: 20.00 +20.0 19.69 - 4.4 33.2 07 14 4626 0927 Alarm State:  0
Sat Jul 22 06:15:36 PDT 2017 ON: 20.02 +20.0 19.67 - 4.5 32.9 00 14 4718 0A10 Alarm State:  0
Sat Jul 22 06:14:34 PDT 2017 ON: 19.99 +20.0 19.66 - 3.4 34.1 05 14 4732 0A0C Alarm State:  0
Sat Jul 22 06:13:33 PDT 2017 ON: 20.01 +20.0 19.68 - 3.9 33.9 0D 14 4800 0920 Alarm State:  0
Sat Jul 22 06:12:31 PDT 2017 ON: 20.01 +20.0 19.67 - 4.5 33.4 00 14 462A 090C Alarm State:  0
Sat Jul 22 06:11:30 PDT 2017 ON: 19.99 +20.0 19.60 - 2.3 34.2 00 14 472C 091C Alarm State:  0
Sat Jul 22 06:10:28 PDT 2017 ON: 20.01 +20.0 19.68 - 3.9 33.9 05 14 4704 0A02 Alarm State:  0
Sat Jul 22 06:09:27 PDT 2017 ON: 20.00 +20.0 19.70 - 4.8 33.2 0D 14 4606 0B16 Alarm State:  0
Sat Jul 22 06:08:25 PDT 2017 ON: 19.99 +20.0 19.58 - 2.2 34.1 00 14 4711 0A10 Alarm State:  0
Sat Jul 22 06:07:24 PDT 2017 ON: 19.98 +20.0 19.64 - 3.8 33.3 07 14 471E 0A1B Alarm State:  0
Sat Jul 22 06:06:22 PDT 2017 ON: 20.03 +20.0 19.69 - 4.0 33.4 05 14 480B 0912 Alarm State:  0
Sat Jul 22 06:05:21 PDT 2017 ON: 20.03 +20.0 19.65 - 3.2 33.7 02 14 470F 0926 Alarm State:  0
Sat Jul 22 06:04:19 PDT 2017 ON: 19.99 +20.0 19.67 - 3.9 33.8 02 14 4626 0A06 Alarm State:  0
Sat Jul 22 06:03:18 PDT 2017 ON: 20.02 +20.0 19.71 - 5.0 33.1 0D 13 461F 0924 Alarm State:  0
Sat Jul 22 06:02:16 PDT 2017 ON: 19.99 +20.0 19.61 - 2.7 33.9 00 14 4712 0903 Alarm State:  0
Sat Jul 22 06:01:15 PDT 2017 ON: 19.99 +20.0 19.66 - 4.2 33.2 02 14 462C 0A11 Alarm State:  0
Sat Jul 22 06:00:13 PDT 2017 ON: 20.03 +20.0 19.69 - 4.4 33.0 08 14 4717 090C Alarm State:  0
Sat Jul 22 05:59:12 PDT 2017 ON: 19.99 +20.0 19.62 - 3.1 34.1 07 14 470A 090C Alarm State:  0
Sat Jul 22 05:58:10 PDT 2017 ON: 20.01 +20.0 19.66 - 4.2 33.3 00 14 462E 0A0A Alarm State:  0
Sat Jul 22 05:57:09 PDT 2017 ON: 20.02 +20.0 19.69 - 4.1 33.3 05 14 4723 090D Alarm State:  0
Sat Jul 22 05:56:07 PDT 2017 ON: 20.02 +20.0 19.69 - 4.5 33.4 0D 14 4718 0917 Alarm State:  0
Sat Jul 22 05:55:06 PDT 2017 ON: 20.02 +20.0 19.70 - 4.6 33.2 0A 13 4629 0903 Alarm State:  0
Sat Jul 22 05:54:04 PDT 2017 ON: 20.02 +20.0 19.64 - 3.8 33.4 00 14 470B 091E Alarm State:  0
Sat Jul 22 05:53:03 PDT 2017 ON: 20.00 +20.0 19.66 - 3.8 34.0 05 14 4630 092B Alarm State:  0
Sat Jul 22 05:52:01 PDT 2017 ON: 20.02 +20.0 19.71 - 4.7 33.2 0D 13 4622 0920 Alarm State:  0
Sat Jul 22 05:51:00 PDT 2017 ON: 20.01 +20.0 19.60 - 2.7 33.9 01 14 4710 0924 Alarm State:  0
Sat Jul 22 05:49:58 PDT 2017 ON: 20.00 +20.0 19.67 - 3.8 34.0 0A 14 4700 092D Alarm State:  0
Sat Jul 22 05:48:57 PDT 2017 ON: 20.01 +20.0 19.69 - 4.3 33.8 02 14 462E 091B Alarm State:  0
Sat Jul 22 05:47:55 PDT 2017 ON: 19.99 +20.0 19.67 - 4.3 33.2 00 14 4624 0A07 Alarm State:  0
Sat Jul 22 05:46:54 PDT 2017 ON: 20.03 +20.0 19.70 - 4.8 33.0 08 13 4708 090B Alarm State:  0
Sat Jul 22 05:45:52 PDT 2017 ON: 19.99 +20.0 19.60 - 2.8 34.0 01 14 4710 0917 Alarm State:  0
Sat Jul 22 05:44:51 PDT 2017 ON: 20.00 +20.0 19.67 - 4.2 33.5 05 14 4628 091F Alarm State:  0
Sat Jul 22 05:43:49 PDT 2017 ON: 20.01 +20.0 19.72 - 4.9 33.0 0D 12 462A 091A Alarm State:  0
Sat Jul 22 05:42:48 PDT 2017 ON: 19.99 +20.0 19.60 - 2.7 33.9 04 14 4718 0916 Alarm State:  0
Sat Jul 22 05:41:46 PDT 2017 ON: 20.00 +20.0 19.61 - 3.1 33.8 05 14 4720 0921 Alarm State:  0
Sat Jul 22 05:40:45 PDT 2017 ON: 19.99 +20.0 19.66 - 4.1 33.4 00 14 4705 0930 Alarm State:  0
Sat Jul 22 05:39:43 PDT 2017 ON: 20.02 +20.0 19.68 - 4.3 33.0 00 14 472C 0913 Alarm State:  0
Sat Jul 22 05:38:42 PDT 2017 ON: 19.98 +20.0 19.64 - 3.4 34.0 07 14 480B 091E Alarm State:  0
Sat Jul 22 05:37:40 PDT 2017 ON: 20.01 +20.0 19.71 - 4.2 33.7 0D 13 4818 091D Alarm State:  0
Sat Jul 22 05:36:39 PDT 2017 ON: 20.01 +20.0 19.68 - 3.9 33.9 05 14 472B 0909 Alarm State:  0
Sat Jul 22 05:35:37 PDT 2017 ON: 20.03 +20.0 19.72 - 4.9 33.3 0D 12 462D 091D Alarm State:  0
Sat Jul 22 05:34:36 PDT 2017 ON: 20.01 +20.0 19.63 - 3.2 33.6 00 14 4704 0A05 Alarm State:  0
Sat Jul 22 05:33:34 PDT 2017 ON: 19.96 +20.0 19.63 - 3.9 33.4 05 14 4703 0A14 Alarm State:  0
Sat Jul 22 05:32:33 PDT 2017 ON: 20.00 +20.0 19.61 - 2.6 33.9 00 14 480E 090E Alarm State:  0
Sat Jul 22 05:31:31 PDT 2017 ON: 20.01 +20.0 19.61 - 2.7 34.1 07 14 4801 091A Alarm State:  0
Sat Jul 22 05:30:30 PDT 2017 ON: 20.00 +20.0 19.66 - 3.8 33.9 05 14 4704 0906 Alarm State:  0
Sat Jul 22 05:29:28 PDT 2017 ON: 20.01 +20.0 19.71 - 5.1 32.9 0D 13 4628 0A10 Alarm State:  0
Sat Jul 22 05:28:27 PDT 2017 ON: 19.98 +20.0 19.60 - 2.6 34.2 04 14 4723 0928 Alarm State:  0
Sat Jul 22 05:27:25 PDT 2017 ON: 20.01 +20.0 19.65 - 3.2 34.0 02 14 4706 0922 Alarm State:  0
Sat Jul 22 05:26:24 PDT 2017 ON: 20.00 +20.0 19.67 - 4.1 33.6 05 14 4607 090E Alarm State:  0
Sat Jul 22 05:25:22 PDT 2017 ON: 20.00 +20.0 19.71 - 4.6 33.1 0A 13 4610 0A02 Alarm State:  0
Sat Jul 22 05:24:21 PDT 2017 ON: 20.00 +20.0 19.62 - 3.0 33.7 00 14 471B 091E Alarm State:  0
Sat Jul 22 05:23:19 PDT 2017 ON: 20.00 +20.0 19.63 - 3.0 33.9 00 14 4716 0916 Alarm State:  0
Sat Jul 22 05:22:18 PDT 2017 ON: 19.99 +20.0 19.61 - 2.8 34.2 02 14 471E 090D Alarm State:  0
Sat Jul 22 05:21:16 PDT 2017 ON: 20.01 +20.0 19.68 - 4.2 33.7 07 14 4705 0911 Alarm State:  0
Sat Jul 22 05:20:15 PDT 2017 ON: 20.01 +20.0 19.72 - 5.1 33.0 0D 12 462E 0922 Alarm State:  0
Sat Jul 22 05:19:13 PDT 2017 ON: 19.99 +20.0 19.61 - 2.6 34.1 02 14 471C 092A Alarm State:  0
Sat Jul 22 05:18:12 PDT 2017 ON: 19.99 +20.0 19.65 - 4.0 33.4 00 14 4714 0A1F Alarm State:  0
Sat Jul 22 05:17:10 PDT 2017 ON: 20.01 +20.0 19.62 - 3.1 33.7 00 14 4816 0901 Alarm State:  0
Sat Jul 22 05:16:09 PDT 2017 ON: 20.00 +20.0 19.67 - 4.0 33.3 05 14 471D 0916 Alarm State:  0
Sat Jul 22 05:15:07 PDT 2017 ON: 20.02 +20.0 19.68 - 4.4 33.1 02 14 472A 0913 Alarm State:  0
Sat Jul 22 05:14:06 PDT 2017 ON: 19.99 +20.0 19.63 - 2.9 34.2 05 14 4803 092C Alarm State:  0
Sat Jul 22 05:13:04 PDT 2017 ON: 20.01 +20.0 19.65 - 3.7 34.0 05 14 472B 0901 Alarm State:  0
Sat Jul 22 05:12:03 PDT 2017 ON: 20.01 +20.0 19.67 - 4.3 33.3 02 14 4711 0910 Alarm State:  0
Sat Jul 22 05:11:01 PDT 2017 ON: 20.02 +20.0 19.68 - 4.2 33.3 00 14 4722 0914 Alarm State:  0
Sat Jul 22 05:10:00 PDT 2017 ON: 20.00 +20.0 19.64 - 2.8 34.0 00 14 4722 0917 Alarm State:  0
Sat Jul 22 05:08:58 PDT 2017 ON: 20.00 +20.0 19.66 - 3.8 34.0 05 14 4628 0902 Alarm State:  0
Sat Jul 22 05:07:57 PDT 2017 ON: 20.01 +20.0 19.69 - 4.5 33.3 07 14 4616 090B Alarm State:  0
Sat Jul 22 05:06:55 PDT 2017 ON: 20.03 +20.0 19.71 - 4.9 32.7 0D 13 4615 0A11 Alarm State:  0
Sat Jul 22 05:05:54 PDT 2017 ON: 19.98 +20.0 19.63 - 3.3 34.1 05 14 4631 0A09 Alarm State:  0
Sat Jul 22 05:04:52 PDT 2017 ON: 20.01 +20.0 19.68 - 4.3 33.5 05 14 4701 091F Alarm State:  0
Sat Jul 22 05:03:51 PDT 2017 ON: 20.02 +20.0 19.72 - 4.9 33.1 0D 12 462E 091A Alarm State:  0
Sat Jul 22 05:02:49 PDT 2017 ON: 20.00 +20.0 19.61 - 2.5 34.0 05 14 4718 090C Alarm State:  0
Sat Jul 22 05:01:48 PDT 2017 ON: 20.02 +20.0 19.68 - 4.3 33.3 00 14 4621 091D Alarm State:  0
Sat Jul 22 05:00:46 PDT 2017 ON: 19.99 +20.0 19.62 - 3.1 34.1 05 14 4628 090F Alarm State:  0
Sat Jul 22 04:59:45 PDT 2017 ON: 19.98 +20.0 19.65 - 3.5 34.1 07 14 4715 0919 Alarm State:  0
Sat Jul 22 04:58:43 PDT 2017 ON: 20.01 +20.0 19.68 - 4.2 33.5 00 14 4710 0901 Alarm State:  0
Sat Jul 22 04:57:42 PDT 2017 ON: 20.01 +20.0 19.67 - 4.6 33.1 00 14 470A 0906 Alarm State:  0
Sat Jul 22 04:56:40 PDT 2017 ON: 20.02 +20.0 19.70 - 4.5 33.2 0A 13 462A 0918 Alarm State:  0
Sat Jul 22 04:55:39 PDT 2017 ON: 19.98 +20.0 19.61 - 2.6 34.2 07 14 4717 0923 Alarm State:  0
Sat Jul 22 04:54:37 PDT 2017 ON: 20.00 +20.0 19.65 - 3.3 33.9 02 14 4706 0927 Alarm State:  0
Sat Jul 22 04:53:36 PDT 2017 ON: 19.99 +20.0 19.66 - 4.1 33.3 07 14 461B 0A09 Alarm State:  0
Sat Jul 22 04:52:34 PDT 2017 ON: 20.03 +20.0 19.68 - 4.3 33.2 00 14 470F 0924 Alarm State:  0
Sat Jul 22 04:51:33 PDT 2017 ON: 19.99 +20.0 19.65 - 3.2 34.2 05 14 4715 0926 Alarm State:  0
Sat Jul 22 04:50:31 PDT 2017 ON: 20.01 +20.0 19.68 - 4.6 33.2 05 14 4631 091E Alarm State:  0
Sat Jul 22 04:49:30 PDT 2017 ON: 20.00 +20.0 19.62 - 2.7 33.9 00 14 4807 0904 Alarm State:  0
Sat Jul 22 04:48:28 PDT 2017 ON: 20.02 +20.0 19.63 - 3.3 33.7 00 14 471B 0918 Alarm State:  0
Sat Jul 22 04:47:27 PDT 2017 ON: 19.99 +20.0 19.65 - 3.5 34.1 0A 14 4701 0925 Alarm State:  0
Sat Jul 22 04:46:25 PDT 2017 ON: 20.00 +20.0 19.66 - 3.5 34.1 07 14 4700 091F Alarm State:  0
Sat Jul 22 04:45:24 PDT 2017 ON: 20.01 +20.0 19.70 - 4.6 33.5 0D 13 4621 0926 Alarm State:  0
Sat Jul 22 04:44:22 PDT 2017 ON: 20.03 +20.0 19.69 - 4.9 32.7 02 14 4612 0911 Alarm State:  0
Sat Jul 22 04:43:21 PDT 2017 ON: 19.98 +20.0 19.63 - 3.6 34.0 02 14 461C 0926 Alarm State:  0
Sat Jul 22 04:42:19 PDT 2017 ON: 20.01 +20.0 19.70 - 4.5 33.3 0A 13 461D 0906 Alarm State:  0
Sat Jul 22 04:41:18 PDT 2017 ON: 20.01 +20.0 19.62 - 2.9 33.7 00 14 4714 0912 Alarm State:  0
Sat Jul 22 04:40:16 PDT 2017 ON: 19.99 +20.0 19.67 - 3.9 33.5 07 14 4707 0A12 Alarm State:  0
Sat Jul 22 04:39:15 PDT 2017 ON: 20.02 +20.0 19.71 - 4.6 33.3 0A 13 4717 0911 Alarm State:  0
Sat Jul 22 04:38:13 PDT 2017 ON: 20.02 +20.0 19.70 - 4.8 33.0 08 13 462D 0923 Alarm State:  0
Sat Jul 22 04:37:12 PDT 2017 ON: 19.99 +20.0 19.60 - 2.3 34.2 01 14 471C 0928 Alarm State:  0
Sat Jul 22 04:36:11 PDT 2017 ON: 20.01 +20.0 19.69 - 4.0 33.8 05 14 4632 090B Alarm State:  0
Sat Jul 22 04:35:09 PDT 2017 ON: 20.00 +20.0 19.68 - 4.0 33.7 05 14 4703 0914 Alarm State:  0
Sat Jul 22 04:34:08 PDT 2017 ON: 20.00 +20.0 19.71 - 4.8 33.1 0D 13 462F 0A1A Alarm State:  0
Sat Jul 22 04:33:06 PDT 2017 ON: 19.99 +20.0 19.60 - 2.3 34.1 01 14 4730 0926 Alarm State:  0
Sat Jul 22 04:32:05 PDT 2017 ON: 20.00 +20.0 19.69 - 4.1 33.4 0D 14 4721 0928 Alarm State:  0
Sat Jul 22 04:31:03 PDT 2017 ON: 20.02 +20.0 19.64 - 3.2 33.7 00 14 4816 0910 Alarm State:  0
Sat Jul 22 04:30:02 PDT 2017 ON: 20.02 +20.0 19.69 - 3.8 33.7 08 14 470C 0924 Alarm State:  0
Sat Jul 22 04:29:00 PDT 2017 ON: 20.00 +20.0 19.65 - 3.5 34.0 02 14 4617 090E Alarm State:  0
Sat Jul 22 04:27:59 PDT 2017 ON: 20.00 +20.0 19.65 - 4.2 33.3 02 14 4614 0A0E Alarm State:  0
Sat Jul 22 04:26:57 PDT 2017 ON: 20.01 +20.0 19.62 - 2.5 33.9 00 14 471D 090C Alarm State:  0
Sat Jul 22 04:25:56 PDT 2017 ON: 20.00 +20.0 19.66 - 4.2 33.2 00 14 462B 0920 Alarm State:  0
Sat Jul 22 04:24:54 PDT 2017 ON: 20.03 +20.0 19.68 - 4.2 33.1 00 14 471C 0918 Alarm State:  0
Sat Jul 22 04:23:53 PDT 2017 ON: 20.00 +20.0 19.63 - 2.9 33.9 00 14 471D 091E Alarm State:  0
Sat Jul 22 04:22:51 PDT 2017 ON: 19.99 +20.0 19.67 - 4.1 33.2 00 14 4632 0A06 Alarm State:  0
Sat Jul 22 04:21:50 PDT 2017 ON: 20.03 +20.0 19.71 - 4.3 33.3 0A 13 4718 0927 Alarm State:  0
Sat Jul 22 04:20:48 PDT 2017 ON: 20.02 +20.0 19.69 - 4.5 33.2 00 14 4628 0912 Alarm State:  0
Sat Jul 22 04:19:47 PDT 2017 ON: 20.00 +20.0 19.62 - 2.7 34.0 02 14 462C 090F Alarm State:  0
Sat Jul 22 04:18:45 PDT 2017 ON: 20.01 +20.0 19.68 - 4.4 33.3 02 14 4530 0923 Alarm State:  0
Sat Jul 22 04:17:44 PDT 2017 ON: 20.03 +20.0 19.68 - 4.0 33.1 00 14 4627 0921 Alarm State:  0
Sat Jul 22 04:16:42 PDT 2017 ON: 19.98 +20.0 19.65 - 3.5 34.1 02 14 462E 0A0D Alarm State:  0
Sat Jul 22 04:15:41 PDT 2017 ON: 20.01 +20.0 19.70 - 4.2 33.8 0D 13 462C 0926 Alarm State:  0
Sat Jul 22 04:14:39 PDT 2017 ON: 20.00 +20.0 19.70 - 4.9 33.1 0D 14 4716 0A28 Alarm State:  0
Sat Jul 22 04:13:38 PDT 2017 ON: 19.97 +20.0 19.57 - 2.0 34.3 00 14 481F 092B Alarm State:  0
Sat Jul 22 04:12:36 PDT 2017 ON: 20.00 +20.0 19.65 - 3.8 33.9 05 14 4820 091F Alarm State:  0
Sat Jul 22 04:11:35 PDT 2017 ON: 20.02 +20.0 19.69 - 3.5 34.0 0D 14 4814 091E Alarm State:  0
Sat Jul 22 04:10:33 PDT 2017 ON: 20.01 +20.0 19.68 - 4.3 33.2 05 14 470A 0909 Alarm State:  0
Sat Jul 22 04:09:32 PDT 2017 ON: 20.03 +20.0 19.69 - 4.4 33.2 03 14 4708 0906 Alarm State:  0
Sat Jul 22 04:08:30 PDT 2017 ON: 19.99 +20.0 19.59 - 2.4 34.2 07 14 4719 090D Alarm State:  0
Sat Jul 22 04:07:29 PDT 2017 ON: 20.00 +20.0 19.68 - 4.0 33.9 00 14 4628 0916 Alarm State:  0
Sat Jul 22 04:06:27 PDT 2017 ON: 19.99 +20.0 19.70 - 4.6 33.3 0D 14 4621 0A24 Alarm State:  0
Sat Jul 22 04:05:26 PDT 2017 ON: 19.99 +20.0 19.57 - 2.1 34.1 00 14 472C 091C Alarm State:  0
Sat Jul 22 04:04:24 PDT 2017 ON: 20.00 +20.0 19.67 - 4.0 33.7 07 14 470B 0924 Alarm State:  0
Sat Jul 22 04:03:23 PDT 2017 ON: 20.01 +20.0 19.73 - 5.2 32.9 0D 12 4705 0A08 Alarm State:  0
Sat Jul 22 04:02:21 PDT 2017 ON: 19.99 +20.0 19.60 - 2.4 34.2 04 14 4724 0921 Alarm State:  0
Sat Jul 22 04:01:20 PDT 2017 ON: 20.00 +20.0 19.67 - 4.0 33.7 00 14 4714 0926 Alarm State:  0
Sat Jul 22 04:00:18 PDT 2017 ON: 20.01 +20.0 19.69 - 4.4 33.4 0D 14 470D 090D Alarm State:  0
Sat Jul 22 03:59:17 PDT 2017 ON: 20.03 +20.0 19.70 - 4.8 33.0 0D 13 4626 0920 Alarm State:  0
Sat Jul 22 03:58:15 PDT 2017 ON: 20.01 +20.0 19.66 - 3.9 33.5 02 14 461B 0905 Alarm State:  0
Sat Jul 22 03:57:14 PDT 2017 ON: 19.99 +20.0 19.62 - 2.8 34.1 00 14 4619 091F Alarm State:  0
Sat Jul 22 03:56:12 PDT 2017 ON: 19.99 +20.0 19.67 - 4.1 33.3 07 14 4616 0A17 Alarm State:  0
Sat Jul 22 03:55:11 PDT 2017 ON: 20.02 +20.0 19.69 - 4.2 33.3 05 14 4707 090A Alarm State:  0
Sat Jul 22 03:54:09 PDT 2017 ON: 20.00 +20.0 19.62 - 3.0 33.8 00 14 470C 0923 Alarm State:  0
Sat Jul 22 03:53:08 PDT 2017 ON: 19.99 +20.0 19.65 - 3.8 33.9 05 14 4704 092A Alarm State:  0
Sat Jul 22 03:52:06 PDT 2017 ON: 20.00 +20.0 19.69 - 4.2 33.5 0D 14 470D 0912 Alarm State:  0
Sat Jul 22 03:51:05 PDT 2017 ON: 20.02 +20.0 19.66 - 3.6 33.6 00 14 4800 0911 Alarm State:  0
Sat Jul 22 03:50:03 PDT 2017 ON: 19.99 +20.0 19.66 - 3.7 33.8 05 14 4716 0923 Alarm State:  0
Sat Jul 22 03:49:02 PDT 2017 ON: 20.02 +20.0 19.69 - 4.4 33.6 0D 14 4718 0912 Alarm State:  0
Sat Jul 22 03:48:00 PDT 2017 ON: 20.02 +20.0 19.72 - 5.0 33.2 0D 12 461A 0926 Alarm State:  0
Sat Jul 22 03:46:59 PDT 2017 ON: 20.01 +20.0 19.68 - 4.0 33.3 00 14 462C 0908 Alarm State:  0
Sat Jul 22 03:45:58 PDT 2017 ON: 19.99 +20.0 19.64 - 3.8 33.8 05 14 4625 092C Alarm State:  0
Sat Jul 22 03:44:56 PDT 2017 ON: 20.01 +20.0 19.71 - 5.0 33.0 0D 13 462B 0909 Alarm State:  0
Sat Jul 22 03:43:55 PDT 2017 ON: 20.01 +20.0 19.66 - 3.9 33.3 00 14 470D 0922 Alarm State:  0
Sat Jul 22 03:42:53 PDT 2017 ON: 20.02 +20.0 19.64 - 3.3 33.6 00 14 4717 091F Alarm State:  0
Sat Jul 22 03:41:52 PDT 2017 ON: 19.99 +20.0 19.66 - 4.2 33.2 07 14 4702 0A1F Alarm State:  0
Sat Jul 22 03:40:50 PDT 2017 ON: 20.02 +20.0 19.69 - 4.6 33.0 05 14 4726 0910 Alarm State:  0
Sat Jul 22 03:39:49 PDT 2017 ON: 19.99 +20.0 19.62 - 3.0 34.2 05 14 4804 091E Alarm State:  0
Sat Jul 22 03:38:47 PDT 2017 ON: 20.00 +20.0 19.68 - 4.1 33.7 00 14 4724 091A Alarm State:  0
Sat Jul 22 03:37:46 PDT 2017 ON: 20.02 +20.0 19.73 - 5.3 32.7 0D 12 4712 0925 Alarm State:  0
Sat Jul 22 03:36:44 PDT 2017 ON: 19.98 +20.0 19.61 - 3.2 34.2 0A 14 4804 0919 Alarm State:  0
Sat Jul 22 03:35:43 PDT 2017 ON: 20.02 +20.0 19.71 - 4.4 33.7 0D 13 4802 0925 Alarm State:  0
Sat Jul 22 03:34:41 PDT 2017 ON: 20.01 +20.0 19.65 - 3.1 34.0 00 14 470A 0910 Alarm State:  0
Sat Jul 22 03:33:40 PDT 2017 ON: 20.00 +20.0 19.67 - 4.2 33.7 05 14 461D 0923 Alarm State:  0
Sat Jul 22 03:32:38 PDT 2017 ON: 20.02 +20.0 19.71 - 4.9 33.1 0D 13 4620 091E Alarm State:  0
Sat Jul 22 03:31:37 PDT 2017 ON: 19.99 +20.0 19.59 - 2.3 34.1 04 14 471D 0919 Alarm State:  0
Sat Jul 22 03:30:35 PDT 2017 ON: 20.00 +20.0 19.67 - 3.9 33.9 05 14 4700 0921 Alarm State:  0
Sat Jul 22 03:29:34 PDT 2017 ON: 20.02 +20.0 19.72 - 5.0 33.1 0D 12 4623 0928 Alarm State:  0
Sat Jul 22 03:28:32 PDT 2017 ON: 20.01 +20.0 19.62 - 3.2 33.7 00 14 4703 0903 Alarm State:  0
Sat Jul 22 03:27:31 PDT 2017 ON: 19.99 +20.0 19.65 - 3.8 33.8 05 14 4628 0A00 Alarm State:  0
Sat Jul 22 03:26:29 PDT 2017 ON: 20.01 +20.0 19.70 - 4.5 33.0 0D 13 462D 0912 Alarm State:  0
Sat Jul 22 03:25:28 PDT 2017 ON: 20.02 +20.0 19.65 - 3.4 33.6 00 14 4720 0914 Alarm State:  0
Sat Jul 22 03:24:26 PDT 2017 ON: 20.00 +20.0 19.62 - 2.9 34.0 07 14 4715 0920 Alarm State:  0
Sat Jul 22 03:23:25 PDT 2017 ON: 20.00 +20.0 19.67 - 4.0 33.7 07 14 4624 090C Alarm State:  0
Sat Jul 22 03:22:23 PDT 2017 ON: 20.03 +20.0 19.72 - 5.0 32.8 08 12 4700 0910 Alarm State:  0
Sat Jul 22 03:21:22 PDT 2017 ON: 19.99 +20.0 19.62 - 2.7 34.1 02 14 4714 0925 Alarm State:  0
Sat Jul 22 03:20:20 PDT 2017 ON: 20.00 +20.0 19.63 - 2.8 34.0 02 14 4725 091F Alarm State:  0
Sat Jul 22 03:19:19 PDT 2017 ON: 20.01 +20.0 19.63 - 3.3 33.9 00 14 4711 090B Alarm State:  0
Sat Jul 22 03:18:17 PDT 2017 ON: 19.99 +20.0 19.66 - 3.7 34.0 0A 14 462D 0A0D Alarm State:  0
Sat Jul 22 03:17:16 PDT 2017 ON: 20.03 +20.0 19.70 - 4.8 33.2 0A 13 4627 0922 Alarm State:  0
Sat Jul 22 03:16:14 PDT 2017 ON: 20.00 +20.0 19.62 - 2.9 33.9 00 14 4701 0905 Alarm State:  0
Sat Jul 22 03:15:13 PDT 2017 ON: 19.99 +20.0 19.66 - 4.1 33.4 00 14 461E 0A0C Alarm State:  0
Sat Jul 22 03:14:11 PDT 2017 ON: 20.01 +20.0 19.65 - 3.3 33.7 00 14 471C 0917 Alarm State:  0
Sat Jul 22 03:13:10 PDT 2017 ON: 20.02 +20.0 19.68 - 4.4 33.0 00 14 4621 0903 Alarm State:  0
Sat Jul 22 03:12:08 PDT 2017 ON: 19.99 +20.0 19.62 - 2.8 34.2 05 14 470B 0912 Alarm State:  0
Sat Jul 22 03:11:07 PDT 2017 ON: 19.99 +20.0 19.67 - 4.1 33.3 07 14 470B 0A11 Alarm State:  0
Sat Jul 22 03:10:05 PDT 2017 ON: 20.02 +20.0 19.69 - 4.4 33.2 05 14 472A 090B Alarm State:  0
Sat Jul 22 03:09:04 PDT 2017 ON: 20.01 +20.0 19.63 - 3.0 33.7 00 14 4803 0908 Alarm State:  0
Sat Jul 22 03:08:02 PDT 2017 ON: 20.00 +20.0 19.67 - 3.7 34.0 05 14 471B 091A Alarm State:  0
Sat Jul 22 03:07:01 PDT 2017 ON: 20.01 +20.0 19.70 - 4.7 33.2 0D 13 470D 0900 Alarm State:  0
Sat Jul 22 03:05:59 PDT 2017 ON: 20.01 +20.0 19.65 - 3.1 33.8 02 14 472A 0911 Alarm State:  0
Sat Jul 22 03:04:58 PDT 2017 ON: 20.00 +20.0 19.61 - 3.0 34.0 02 14 4712 0920 Alarm State:  0
Sat Jul 22 03:03:56 PDT 2017 ON: 20.00 +20.0 19.67 - 3.8 33.7 00 14 462E 0909 Alarm State:  0
Sat Jul 22 03:02:55 PDT 2017 ON: 20.04 +20.0 19.73 - 5.4 32.6 0D 12 462A 090E Alarm State:  0
Sat Jul 22 03:01:53 PDT 2017 ON: 19.98 +20.0 19.64 - 3.2 34.2 05 14 470C 0918 Alarm State:  0
Sat Jul 22 03:00:52 PDT 2017 ON: 20.01 +20.0 19.70 - 4.4 33.3 0D 13 4702 0901 Alarm State:  0
Sat Jul 22 02:59:50 PDT 2017 ON: 20.02 +20.0 19.67 - 4.5 33.1 00 14 470D 0903 Alarm State:  0
Sat Jul 22 02:58:49 PDT 2017 ON: 19.98 +20.0 19.64 - 3.4 34.0 05 14 471B 091E Alarm State:  0
Sat Jul 22 02:57:47 PDT 2017 ON: 20.01 +20.0 19.69 - 4.5 33.4 0D 14 4716 090C Alarm State:  0
Sat Jul 22 02:56:46 PDT 2017 ON: 20.03 +20.0 19.68 - 4.6 32.8 02 14 4700 0921 Alarm State:  0
Sat Jul 22 02:55:44 PDT 2017 ON: 19.99 +20.0 19.64 - 3.3 34.1 02 14 4709 090F Alarm State:  0
Sat Jul 22 02:54:43 PDT 2017 ON: 20.00 +20.0 19.67 - 4.2 33.3 00 14 4705 092B Alarm State:  0
Sat Jul 22 02:53:41 PDT 2017 ON: 20.01 +20.0 19.64 - 3.0 33.7 00 14 4801 0910 Alarm State:  0
Sat Jul 22 02:52:40 PDT 2017 ON: 19.99 +20.0 19.66 - 3.5 34.1 05 14 4728 0913 Alarm State:  0
Sat Jul 22 02:51:38 PDT 2017 ON: 20.00 +20.0 19.66 - 3.6 34.1 0A 14 4721 0911 Alarm State:  0
Sat Jul 22 02:50:37 PDT 2017 ON: 20.00 +20.0 19.69 - 4.2 33.4 0D 14 4702 0925 Alarm State:  0
Sat Jul 22 02:49:35 PDT 2017 ON: 20.04 +20.0 19.67 - 4.2 33.1 00 14 4716 091A Alarm State:  0
Sat Jul 22 02:48:34 PDT 2017 ON: 19.99 +20.0 19.66 - 3.8 33.9 05 14 4630 0926 Alarm State:  0
Sat Jul 22 02:47:32 PDT 2017 ON: 20.01 +20.0 19.72 - 4.8 33.2 0D 12 462A 091F Alarm State:  0
Sat Jul 22 02:46:31 PDT 2017 ON: 20.00 +20.0 19.63 - 2.9 33.8 00 14 471A 0901 Alarm State:  0
Sat Jul 22 02:45:29 PDT 2017 ON: 20.00 +20.0 19.68 - 4.0 33.5 07 14 4629 0914 Alarm State:  0
Sat Jul 22 02:44:28 PDT 2017 ON: 20.02 +20.0 19.71 - 4.7 33.1 0D 13 4630 0923 Alarm State:  0
Sat Jul 22 02:43:27 PDT 2017 ON: 20.03 +20.0 19.69 - 4.4 33.3 02 14 462E 0901 Alarm State:  0
Sat Jul 22 02:42:25 PDT 2017 ON: 20.02 +20.0 19.73 - 5.1 33.1 0D 12 4524 0915 Alarm State:  0
Sat Jul 22 02:41:24 PDT 2017 ON: 19.99 +20.0 19.62 - 2.7 34.1 07 14 4605 092C Alarm State:  0
Sat Jul 22 02:40:22 PDT 2017 ON: 20.00 +20.0 19.69 - 4.5 33.1 07 14 451D 0A09 Alarm State:  0
Sat Jul 22 02:39:21 PDT 2017 ON: 20.03 +20.0 19.70 - 4.6 32.9 08 14 4612 0A0A Alarm State:  0
Sat Jul 22 02:38:19 PDT 2017 ON: 19.97 +20.0 19.63 - 3.5 33.8 00 14 462F 0A03 Alarm State:  0
Sat Jul 22 02:37:18 PDT 2017 ON: 20.02 +20.0 19.71 - 5.1 32.9 0A 13 4704 0908 Alarm State:  0
Sat Jul 22 02:36:16 PDT 2017 ON: 20.00 +20.0 19.62 - 2.7 34.0 02 14 4725 0903 Alarm State:  0
Sat Jul 22 02:35:15 PDT 2017 ON: 20.01 +20.0 19.65 - 2.9 33.9 00 14 471B 0916 Alarm State:  0
Sat Jul 22 02:34:13 PDT 2017 ON: 20.00 +20.0 19.66 - 4.0 33.5 07 14 4627 0928 Alarm State:  0
Sat Jul 22 02:33:12 PDT 2017 ON: 20.01 +20.0 19.69 - 4.3 33.3 0D 14 4702 0909 Alarm State:  0
Sat Jul 22 02:32:10 PDT 2017 ON: 20.02 +20.0 19.65 - 3.1 33.8 00 14 4729 0916 Alarm State:  0
Sat Jul 22 02:31:09 PDT 2017 ON: 20.01 +20.0 19.63 - 3.2 33.8 00 14 4707 0900 Alarm State:  0
Sat Jul 22 02:30:07 PDT 2017 ON: 20.00 +20.0 19.65 - 3.1 34.0 07 14 461D 0912 Alarm State:  0
Sat Jul 22 02:29:06 PDT 2017 ON: 20.00 +20.0 19.68 - 4.2 33.5 00 14 4603 0927 Alarm State:  0
Sat Jul 22 02:28:04 PDT 2017 ON: 20.02 +20.0 19.72 - 5.2 32.9 0A 12 460E 090F Alarm State:  0
Sat Jul 22 02:27:03 PDT 2017 ON: 20.00 +20.0 19.62 - 2.8 34.1 07 14 4622 091F Alarm State:  0
Sat Jul 22 02:26:01 PDT 2017 ON: 20.00 +20.0 19.67 - 4.4 33.2 00 14 460B 0A02 Alarm State:  0
Sat Jul 22 02:25:00 PDT 2017 ON: 20.01 +20.0 19.61 - 2.8 33.8 00 14 4710 090C Alarm State:  0
Sat Jul 22 02:23:58 PDT 2017 ON: 20.00 +20.0 19.64 - 3.4 34.0 02 14 4624 0920 Alarm State:  0
Sat Jul 22 02:22:57 PDT 2017 ON: 20.00 +20.0 19.69 - 4.4 33.3 07 14 4614 0A00 Alarm State:  0
Sat Jul 22 02:21:55 PDT 2017 ON: 20.01 +20.0 19.62 - 3.0 33.7 00 14 471E 0907 Alarm State:  0
Sat Jul 22 02:20:54 PDT 2017 ON: 19.99 +20.0 19.65 - 3.2 33.9 02 14 471A 0904 Alarm State:  0
Sat Jul 22 02:19:52 PDT 2017 ON: 19.98 +20.0 19.62 - 2.5 34.2 05 14 4723 0926 Alarm State:  0
Sat Jul 22 02:18:51 PDT 2017 ON: 20.00 +20.0 19.69 - 4.4 33.3 07 14 462A 090C Alarm State:  0
Sat Jul 22 02:17:49 PDT 2017 ON: 20.02 +20.0 19.66 - 3.6 33.6 00 14 471A 091F Alarm State:  0
Sat Jul 22 02:16:48 PDT 2017 ON: 20.03 +20.0 19.68 - 4.7 32.9 00 14 461F 090B Alarm State:  0
Sat Jul 22 02:15:46 PDT 2017 ON: 19.98 +20.0 19.65 - 3.8 33.7 05 14 4620 0929 Alarm State:  0
Sat Jul 22 02:14:45 PDT 2017 ON: 20.01 +20.0 19.72 - 4.8 33.2 0A 13 4628 0A00 Alarm State:  0
Sat Jul 22 02:13:43 PDT 2017 ON: 19.99 +20.0 19.60 - 2.4 34.1 04 14 471C 0925 Alarm State:  0
Sat Jul 22 02:12:42 PDT 2017 ON: 20.00 +20.0 19.69 - 4.0 33.5 0A 14 4706 0905 Alarm State:  0
Sat Jul 22 02:11:40 PDT 2017 ON: 20.03 +20.0 19.71 - 5.0 32.9 08 13 4709 0928 Alarm State:  0
Sat Jul 22 02:10:39 PDT 2017 ON: 20.00 +20.0 19.63 - 2.8 34.1 07 14 471B 091F Alarm State:  0
Sat Jul 22 02:09:37 PDT 2017 ON: 19.99 +20.0 19.67 - 4.2 33.3 00 14 4712 0A21 Alarm State:  0
Sat Jul 22 02:08:36 PDT 2017 ON: 20.00 +20.0 19.61 - 2.5 33.9 00 14 481C 0918 Alarm State:  0
Sat Jul 22 02:07:34 PDT 2017 ON: 20.02 +20.0 19.68 - 4.1 33.4 00 14 471B 0904 Alarm State:  0
Sat Jul 22 02:06:33 PDT 2017 ON: 20.01 +20.0 19.63 - 2.9 33.8 02 14 4721 090D Alarm State:  0
Sat Jul 22 02:05:31 PDT 2017 ON: 19.99 +20.0 19.67 - 4.1 33.1 07 14 4716 0A05 Alarm State:  0
Sat Jul 22 02:04:30 PDT 2017 ON: 20.03 +20.0 19.69 - 4.2 33.3 0A 14 4803 0923 Alarm State:  0
Sat Jul 22 02:03:28 PDT 2017 ON: 20.01 +20.0 19.62 - 2.8 33.9 00 14 472B 090C Alarm State:  0
Sat Jul 22 02:02:27 PDT 2017 ON: 20.00 +20.0 19.65 - 3.6 34.0 05 14 4701 0921 Alarm State:  0
Sat Jul 22 02:01:25 PDT 2017 ON: 20.00 +20.0 19.70 - 4.5 33.2 0A 14 4619 0A0A Alarm State:  0
Sat Jul 22 02:00:24 PDT 2017 ON: 19.99 +20.0 19.62 - 2.8 33.8 02 14 4721 0915 Alarm State:  0
Sat Jul 22 01:59:22 PDT 2017 ON: 20.00 +20.0 19.67 - 3.6 34.0 05 14 4713 0920 Alarm State:  0
Sat Jul 22 01:58:21 PDT 2017 ON: 20.02 +20.0 19.69 - 4.2 33.8 0D 14 4708 0926 Alarm State:  0
Sat Jul 22 01:57:19 PDT 2017 ON: 20.02 +20.0 19.72 - 5.2 32.9 0A 12 4607 0912 Alarm State:  0
Sat Jul 22 01:56:18 PDT 2017 ON: 19.97 +20.0 19.60 - 2.7 34.1 07 14 461C 0920 Alarm State:  0
Sat Jul 22 01:55:16 PDT 2017 ON: 19.99 +20.0 19.69 - 4.2 33.3 07 14 4616 0923 Alarm State:  0
Sat Jul 22 01:54:15 PDT 2017 ON: 20.03 +20.0 19.72 - 4.7 33.2 0D 12 462D 091C Alarm State:  0
Sat Jul 22 01:53:13 PDT 2017 ON: 20.02 +20.0 19.68 - 4.2 33.1 00 14 4700 0911 Alarm State:  0
Sat Jul 22 01:52:12 PDT 2017 ON: 19.98 +20.0 19.64 - 3.3 34.2 02 14 4709 0A01 Alarm State:  0
Sat Jul 22 01:51:10 PDT 2017 ON: 20.01 +20.0 19.69 - 4.2 33.8 0D 14 4707 0922 Alarm State:  0
Sat Jul 22 01:50:09 PDT 2017 ON: 19.99 +20.0 19.67 - 3.8 34.0 05 14 470E 0905 Alarm State:  0
Sat Jul 22 01:49:07 PDT 2017 ON: 20.02 +20.0 19.71 - 4.6 33.3 0D 13 4700 0914 Alarm State:  0
Sat Jul 22 01:48:06 PDT 2017 ON: 20.01 +20.0 19.62 - 2.8 33.8 02 14 4727 0903 Alarm State:  0
Sat Jul 22 01:47:04 PDT 2017 ON: 20.00 +20.0 19.67 - 3.9 33.8 07 14 4628 0918 Alarm State:  0
Sat Jul 22 01:46:03 PDT 2017 ON: 20.02 +20.0 19.72 - 4.8 33.2 0D 12 4613 0903 Alarm State:  0
Sat Jul 22 01:45:01 PDT 2017 ON: 20.01 +20.0 19.61 - 2.9 33.8 00 14 4702 0917 Alarm State:  0
Sat Jul 22 01:44:00 PDT 2017 ON: 19.99 +20.0 19.64 - 4.1 33.4 07 14 461C 0A1D Alarm State:  0
Sat Jul 22 01:42:58 PDT 2017 ON: 20.01 +20.0 19.71 - 4.7 32.9 05 13 4709 0A12 Alarm State:  0
Sat Jul 22 01:41:57 PDT 2017 ON: 19.98 +20.0 19.64 - 3.1 34.2 02 14 4730 0A01 Alarm State:  0
Sat Jul 22 01:40:55 PDT 2017 ON: 20.01 +20.0 19.70 - 4.6 33.3 0A 13 4728 0914 Alarm State:  0
Sat Jul 22 01:39:54 PDT 2017 ON: 20.02 +20.0 19.64 - 3.6 33.4 00 14 472F 0900 Alarm State:  0
Sat Jul 22 01:38:52 PDT 2017 ON: 19.99 +20.0 19.66 - 3.7 34.0 05 14 4725 0924 Alarm State:  0
Sat Jul 22 01:37:51 PDT 2017 ON: 20.01 +20.0 19.70 - 4.7 33.3 0D 13 471A 091E Alarm State:  0
Sat Jul 22 01:36:49 PDT 2017 ON: 19.99 +20.0 19.60 - 2.4 34.1 00 14 4819 0906 Alarm State:  0
Sat Jul 22 01:35:48 PDT 2017 ON: 20.00 +20.0 19.67 - 4.1 33.4 07 14 4729 0916 Alarm State:  0
Sat Jul 22 01:34:46 PDT 2017 ON: 20.03 +20.0 19.64 - 3.7 33.4 00 14 4818 0920 Alarm State:  0
Sat Jul 22 01:33:45 PDT 2017 ON: 20.00 +20.0 19.65 - 3.4 34.0 05 14 4722 090B Alarm State:  0
Sat Jul 22 01:32:43 PDT 2017 ON: 20.01 +20.0 19.69 - 4.6 33.3 05 14 4627 0920 Alarm State:  0
Sat Jul 22 01:31:42 PDT 2017 ON: 20.00 +20.0 19.62 - 2.7 33.9 02 14 4727 0901 Alarm State:  0
Sat Jul 22 01:30:40 PDT 2017 ON: 20.01 +20.0 19.65 - 3.4 33.8 00 14 4713 0910 Alarm State:  0
Sat Jul 22 01:29:39 PDT 2017 ON: 19.99 +20.0 19.62 - 2.9 34.1 05 14 470E 0908 Alarm State:  0
Sat Jul 22 01:28:37 PDT 2017 ON: 20.00 +20.0 19.67 - 4.0 33.6 07 14 4700 090D Alarm State:  0
Sat Jul 22 01:27:36 PDT 2017 ON: 20.03 +20.0 19.71 - 5.0 33.0 0A 13 4705 090B Alarm State:  0
Sat Jul 22 01:26:34 PDT 2017 ON: 19.99 +20.0 19.62 - 2.9 34.0 00 14 470B 0904 Alarm State:  0
Sat Jul 22 01:25:33 PDT 2017 ON: 20.00 +20.0 19.62 - 3.0 33.9 02 14 4714 0921 Alarm State:  0
Sat Jul 22 01:24:31 PDT 2017 ON: 19.99 +20.0 19.66 - 3.9 33.8 05 14 4708 092E Alarm State:  0
Sat Jul 22 01:23:30 PDT 2017 ON: 20.00 +20.0 19.69 - 4.2 33.4 0A 14 4715 091C Alarm State:  0
Sat Jul 22 01:22:28 PDT 2017 ON: 20.02 +20.0 19.64 - 3.1 33.6 00 14 4808 0918 Alarm State:  0
Sat Jul 22 01:21:27 PDT 2017 ON: 19.99 +20.0 19.68 - 3.8 33.8 05 14 472E 091E Alarm State:  0
Sat Jul 22 01:20:25 PDT 2017 ON: 20.00 +20.0 19.68 - 3.6 34.0 0D 14 480B 0903 Alarm State:  0
Sat Jul 22 01:19:24 PDT 2017 ON: 20.00 +20.0 19.67 - 3.9 33.9 07 14 4709 0917 Alarm State:  0
Sat Jul 22 01:18:22 PDT 2017 ON: 20.01 +20.0 19.72 - 5.0 33.1 0D 12 4632 0922 Alarm State:  0
Sat Jul 22 01:17:21 PDT 2017 ON: 19.98 +20.0 19.59 - 2.3 34.2 00 14 4732 090D Alarm State:  0
Sat Jul 22 01:16:19 PDT 2017 ON: 20.00 +20.0 19.66 - 3.8 33.8 05 14 471A 0916 Alarm State:  0
Sat Jul 22 01:15:18 PDT 2017 ON: 20.02 +20.0 19.69 - 4.4 33.4 0D 14 4707 0922 Alarm State:  0
Sat Jul 22 01:14:16 PDT 2017 ON: 20.02 +20.0 19.69 - 4.6 33.0 0D 14 470D 0900 Alarm State:  0
Sat Jul 22 01:13:15 PDT 2017 ON: 20.00 +20.0 19.60 - 2.6 34.0 00 14 4807 090D Alarm State:  0
Sat Jul 22 01:12:13 PDT 2017 ON: 20.00 +20.0 19.66 - 4.0 33.7 00 14 4714 0920 Alarm State:  0
Sat Jul 22 01:11:12 PDT 2017 ON: 20.02 +20.0 19.71 - 4.5 33.4 0D 13 471D 091A Alarm State:  0
Sat Jul 22 01:10:10 PDT 2017 ON: 20.02 +20.0 19.73 - 4.7 33.1 0D 12 4711 0925 Alarm State:  0
Sat Jul 22 01:09:09 PDT 2017 ON: 19.99 +20.0 19.62 - 2.9 33.9 00 14 4726 091B Alarm State:  0
Sat Jul 22 01:08:08 PDT 2017 ON: 20.02 +20.0 19.70 - 4.4 33.1 0D 13 4627 0905 Alarm State:  0
Sat Jul 22 01:07:06 PDT 2017 ON: 19.99 +20.0 19.63 - 3.3 34.1 0A 14 4707 0916 Alarm State:  0
Sat Jul 22 01:06:04 PDT 2017 ON: 20.01 +20.0 19.69 - 4.8 33.2 05 14 462C 0903 Alarm State:  0
Sat Jul 22 01:05:03 PDT 2017 ON: 20.00 +20.0 19.61 - 3.2 33.7 00 14 4716 091A Alarm State:  0
Sat Jul 22 01:04:01 PDT 2017 ON: 19.99 +20.0 19.64 - 3.4 34.1 07 14 4704 0911 Alarm State:  0
Sat Jul 22 01:03:00 PDT 2017 ON: 20.01 +20.0 19.71 - 4.3 33.4 0A 13 4628 0907 Alarm State:  0
Sat Jul 22 01:01:58 PDT 2017 ON: 20.03 +20.0 19.70 - 4.7 33.0 05 13 4628 0914 Alarm State:  0
Sat Jul 22 01:00:57 PDT 2017 ON: 19.99 +20.0 19.63 - 3.3 34.1 02 14 4623 0912 Alarm State:  0
Sat Jul 22 00:59:55 PDT 2017 ON: 20.00 +20.0 19.69 - 4.4 33.4 05 14 461B 0A07 Alarm State:  0
Sat Jul 22 00:58:54 PDT 2017 ON: 20.01 +20.0 19.62 - 3.4 33.6 00 14 4721 0926 Alarm State:  0
Sat Jul 22 00:57:52 PDT 2017 ON: 19.99 +20.0 19.66 - 4.0 33.7 05 14 470D 0927 Alarm State:  0
Sat Jul 22 00:56:51 PDT 2017 ON: 20.03 +20.0 19.74 - 5.5 32.6 0D 12 4712 0A05 Alarm State:  0
Sat Jul 22 00:55:49 PDT 2017 ON: 19.97 +20.0 19.63 - 3.2 34.1 05 14 4807 091D Alarm State:  0
Sat Jul 22 00:54:48 PDT 2017 ON: 20.02 +20.0 19.71 - 4.5 33.7 0D 13 4808 0928 Alarm State:  0
Sat Jul 22 00:53:46 PDT 2017 ON: 20.01 +20.0 19.70 - 4.4 33.3 08 13 4701 0914 Alarm State:  0
Sat Jul 22 00:52:45 PDT 2017 ON: 19.99 +20.0 19.59 - 2.5 34.0 00 14 472A 090E Alarm State:  0
Sat Jul 22 00:51:43 PDT 2017 ON: 20.01 +20.0 19.65 - 4.0 33.4 00 14 470E 0921 Alarm State:  0
Sat Jul 22 00:50:42 PDT 2017 ON: 20.02 +20.0 19.63 - 3.5 33.5 00 14 471F 0915 Alarm State:  0
Sat Jul 22 00:49:40 PDT 2017 ON: 20.00 +20.0 19.67 - 3.9 33.8 05 14 4705 0922 Alarm State:  0
Sat Jul 22 00:48:39 PDT 2017 ON: 20.02 +20.0 19.70 - 4.7 33.4 0D 13 4708 0916 Alarm State:  0
Sat Jul 22 00:47:38 PDT 2017 ON: 20.03 +20.0 19.70 - 4.9 32.9 08 13 4615 0902 Alarm State:  0
Sat Jul 22 00:46:36 PDT 2017 ON: 20.00 +20.0 19.60 - 2.8 33.9 00 14 4624 090D Alarm State:  0
Sat Jul 22 00:45:35 PDT 2017 ON: 19.99 +20.0 19.66 - 4.0 33.7 05 14 461C 0A06 Alarm State:  0
Sat Jul 22 00:44:33 PDT 2017 ON: 20.02 +20.0 19.71 - 5.0 32.9 0D 13 4627 0910 Alarm State:  0
Sat Jul 22 00:43:32 PDT 2017 ON: 20.01 +20.0 19.64 - 3.5 33.6 00 14 4718 0912 Alarm State:  0
Sat Jul 22 00:42:30 PDT 2017 ON: 19.98 +20.0 19.63 - 3.1 34.1 05 14 471D 0930 Alarm State:  0
Sat Jul 22 00:41:29 PDT 2017 ON: 19.99 +20.0 19.65 - 4.1 33.3 00 14 4723 092B Alarm State:  0
Sat Jul 22 00:40:27 PDT 2017 ON: 20.03 +20.0 19.68 - 4.4 33.3 0A 14 480D 091A Alarm State:  0
Sat Jul 22 00:39:26 PDT 2017 ON: 20.01 +20.0 19.70 - 4.2 33.4 0D 13 471E 0906 Alarm State:  0
Sat Jul 22 00:38:24 PDT 2017 ON: 20.02 +20.0 19.70 - 4.3 33.5 0A 13 4729 0910 Alarm State:  0
Sat Jul 22 00:37:23 PDT 2017 ON: 20.01 +20.0 19.71 - 4.9 33.1 0D 13 461E 0925 Alarm State:  0
Sat Jul 22 00:36:21 PDT 2017 ON: 19.99 +20.0 19.61 - 2.3 34.1 02 14 4718 0919 Alarm State:  0
Sat Jul 22 00:35:19 PDT 2017 ON: 20.00 +20.0 19.68 - 4.2 33.5 07 14 4702 092A Alarm State:  0
Sat Jul 22 00:34:18 PDT 2017 ON: 20.04 +20.0 19.74 - 5.4 32.8 0D 11 470B 0914 Alarm State:  0
Sat Jul 22 00:33:16 PDT 2017 ON: 20.00 +20.0 19.62 - 2.9 34.1 07 14 4701 091B Alarm State:  0
Sat Jul 22 00:32:15 PDT 2017 ON: 20.00 +20.0 19.67 - 4.2 33.4 07 14 4613 0A06 Alarm State:  0
Sat Jul 22 00:31:13 PDT 2017 ON: 20.03 +20.0 19.68 - 4.0 33.4 00 14 4708 0907 Alarm State:  0
Sat Jul 22 00:30:12 PDT 2017 ON: 19.99 +20.0 19.64 - 3.7 34.0 02 14 462C 0A05 Alarm State:  0
Sat Jul 22 00:29:11 PDT 2017 ON: 20.00 +20.0 19.69 - 4.5 33.0 0A 14 470B 091C Alarm State:  0
Sat Jul 22 00:28:09 PDT 2017 ON: 20.02 +20.0 19.68 - 3.9 33.4 0D 14 4801 0917 Alarm State:  0
Sat Jul 22 00:27:08 PDT 2017 ON: 20.03 +20.0 19.68 - 4.5 33.2 00 14 4712 0903 Alarm State:  0
Sat Jul 22 00:26:06 PDT 2017 ON: 20.01 +20.0 19.62 - 3.0 33.8 02 14 4707 0905 Alarm State:  0
Sat Jul 22 00:25:05 PDT 2017 ON: 20.00 +20.0 19.67 - 4.0 33.8 07 14 4618 091A Alarm State:  0
Sat Jul 22 00:24:03 PDT 2017 ON: 20.02 +20.0 19.73 - 5.3 32.9 0D 12 4613 091C Alarm State:  0
Sat Jul 22 00:23:02 PDT 2017 ON: 19.99 +20.0 19.62 - 2.8 34.1 00 14 4708 091F Alarm State:  0
Sat Jul 22 00:22:00 PDT 2017 ON: 19.99 +20.0 19.65 - 4.3 33.4 00 14 4705 0A11 Alarm State:  0
Sat Jul 22 00:20:59 PDT 2017 ON: 20.01 +20.0 19.61 - 2.5 33.9 00 14 4810 0913 Alarm State:  0
Sat Jul 22 00:19:57 PDT 2017 ON: 19.99 +20.0 19.66 - 3.9 33.7 00 14 4732 0921 Alarm State:  0
Sat Jul 22 00:18:56 PDT 2017 ON: 20.01 +20.0 19.69 - 4.2 33.6 0D 14 4803 0908 Alarm State:  0
Sat Jul 22 00:17:54 PDT 2017 ON: 20.01 +20.0 19.69 - 4.3 33.6 0A 14 470D 091C Alarm State:  0
Sat Jul 22 00:16:53 PDT 2017 ON: 19.99 +20.0 19.61 - 2.7 34.1 07 14 4719 090B Alarm State:  0
Sat Jul 22 00:15:51 PDT 2017 ON: 20.00 +20.0 19.67 - 4.3 33.1 00 14 4702 0915 Alarm State:  0
Sat Jul 22 00:14:50 PDT 2017 ON: 20.03 +20.0 19.69 - 4.6 33.1 0D 14 471E 091B Alarm State:  0
Sat Jul 22 00:13:48 PDT 2017 ON: 20.00 +20.0 19.62 - 3.6 33.6 02 14 4713 0A02 Alarm State:  0
Sat Jul 22 00:12:46 PDT 2017 ON: 19.98 +20.0 19.67 - 4.0 33.3 00 14 4719 0A10 Alarm State:  0
Sat Jul 22 00:11:45 PDT 2017 ON: 20.02 +20.0 19.70 - 4.2 33.3 0A 13 4805 0902 Alarm State:  0
Sat Jul 22 00:10:43 PDT 2017 ON: 20.03 +20.0 19.67 - 4.2 33.3 00 14 4724 0917 Alarm State:  0
Sat Jul 22 00:09:42 PDT 2017 ON: 20.03 +20.0 19.68 - 4.8 33.1 00 14 4701 0902 Alarm State:  0
Sat Jul 22 00:08:40 PDT 2017 ON: 19.99 +20.0 19.63 - 3.5 34.1 07 14 470F 0922 Alarm State:  0
Sat Jul 22 00:07:39 PDT 2017 ON: 20.01 +20.0 19.69 - 4.5 33.4 0D 14 4702 0918 Alarm State:  0
Sat Jul 22 00:06:38 PDT 2017 ON: 20.02 +20.0 19.66 - 4.2 33.2 00 14 470A 091F Alarm State:  0
Sat Jul 22 00:05:36 PDT 2017 ON: 19.98 +20.0 19.65 - 3.4 34.1 0A 14 470D 0A09 Alarm State:  0
Sat Jul 22 00:04:35 PDT 2017 ON: 20.00 +20.0 19.65 - 4.0 33.9 02 14 4715 0926 Alarm State:  0
Sat Jul 22 00:03:33 PDT 2017 ON: 20.00 +20.0 19.68 - 4.3 33.3 07 14 4708 0924 Alarm State:  0
Sat Jul 22 00:02:32 PDT 2017 ON: 20.02 +20.0 19.68 - 4.5 33.0 02 14 4726 0914 Alarm State:  0
Sat Jul 22 00:01:30 PDT 2017 ON: 20.00 +20.0 19.61 - 3.2 33.7 02 14 472F 0912 Alarm State:  0
Sat Jul 22 00:00:29 PDT 2017 ON: 19.99 +20.0 19.67 - 4.0 33.3 07 14 4723 0A05 Alarm State:  0
Fri Jul 21 23:59:27 PDT 2017 ON: 20.02 +20.0 19.71 - 4.5 33.2 0A 13 4809 0926 Alarm State:  0
Fri Jul 21 23:58:26 PDT 2017 ON: 19.99 +20.0 19.62 - 2.8 34.1 00 14 4809 0928 Alarm State:  0
Fri Jul 21 23:57:24 PDT 2017 ON: 20.00 +20.0 19.66 - 4.0 33.8 07 14 471D 0911 Alarm State:  0
Fri Jul 21 23:56:23 PDT 2017 ON: 20.01 +20.0 19.72 - 5.2 33.0 0D 12 4715 0918 Alarm State:  0
Fri Jul 21 23:55:21 PDT 2017 ON: 19.98 +20.0 19.61 - 2.6 34.3 0A 14 480D 0911 Alarm State:  0
Fri Jul 21 23:54:20 PDT 2017 ON: 20.01 +20.0 19.66 - 3.3 33.9 02 14 4722 0912 Alarm State:  0
Fri Jul 21 23:53:18 PDT 2017 ON: 20.01 +20.0 19.69 - 4.3 33.3 00 14 4620 0926 Alarm State:  0
Fri Jul 21 23:52:17 PDT 2017 ON: 20.02 +20.0 19.72 - 5.1 32.7 08 12 4630 0914 Alarm State:  0
Fri Jul 21 23:51:15 PDT 2017 ON: 19.98 +20.0 19.60 - 2.6 34.0 01 14 4710 0913 Alarm State:  0
Fri Jul 21 23:50:14 PDT 2017 ON: 19.99 +20.0 19.65 - 3.9 33.6 00 14 4710 0A04 Alarm State:  0
Fri Jul 21 23:49:12 PDT 2017 ON: 20.02 +20.0 19.69 - 4.5 33.4 0D 14 4725 0900 Alarm State:  0
Fri Jul 21 23:48:11 PDT 2017 ON: 20.00 +20.0 19.67 - 4.1 33.8 05 14 4709 0913 Alarm State:  0
Fri Jul 21 23:47:09 PDT 2017 ON: 20.01 +20.0 19.68 - 4.3 33.5 05 14 4716 0907 Alarm State:  0
Fri Jul 21 23:46:08 PDT 2017 ON: 20.01 +20.0 19.68 - 4.4 33.7 05 14 4708 0914 Alarm State:  0
Fri Jul 21 23:45:06 PDT 2017 ON: 20.01 +20.0 19.69 - 4.6 33.1 02 14 461C 0928 Alarm State:  0
Fri Jul 21 23:44:05 PDT 2017 ON: 20.01 +20.0 19.63 - 3.4 33.5 00 14 471F 0910 Alarm State:  0
Fri Jul 21 23:43:03 PDT 2017 ON: 19.98 +20.0 19.66 - 4.0 33.4 00 14 4722 0924 Alarm State:  0
Fri Jul 21 23:42:02 PDT 2017 ON: 20.04 +20.0 19.71 - 4.7 33.0 0A 13 4807 0918 Alarm State:  0
Fri Jul 21 23:41:00 PDT 2017 ON: 20.01 +20.0 19.64 - 3.5 33.6 00 14 4721 0901 Alarm State:  0
Fri Jul 21 23:39:59 PDT 2017 ON: 19.99 +20.0 19.66 - 3.8 34.0 02 14 4707 0914 Alarm State:  0
Fri Jul 21 23:38:57 PDT 2017 ON: 19.99 +20.0 19.67 - 4.4 33.3 00 14 4706 0A08 Alarm State:  0
Fri Jul 21 23:37:56 PDT 2017 ON: 20.01 +20.0 19.63 - 3.3 33.7 00 14 4803 091A Alarm State:  0
Fri Jul 21 23:36:54 PDT 2017 ON: 20.00 +20.0 19.64 - 3.3 34.1 05 14 4727 0901 Alarm State:  0
Fri Jul 21 23:35:53 PDT 2017 ON: 20.00 +20.0 19.65 - 3.4 34.1 05 14 4710 0911 Alarm State:  0
Fri Jul 21 23:34:51 PDT 2017 ON: 20.01 +20.0 19.67 - 4.5 33.3 07 14 4621 0926 Alarm State:  0
Fri Jul 21 23:33:50 PDT 2017 ON: 20.03 +20.0 19.64 - 3.8 33.4 00 14 470D 0A18 Alarm State:  0
Fri Jul 21 23:32:48 PDT 2017 ON: 19.98 +20.0 19.66 - 4.1 33.4 07 14 470B 0A2B Alarm State:  0
Fri Jul 21 23:31:47 PDT 2017 ON: 20.02 +20.0 19.69 - 5.0 32.6 0D 14 4728 0A18 Alarm State:  0
Fri Jul 21 23:30:45 PDT 2017 ON: 19.96 +20.0 19.63 - 3.5 33.5 05 14 481D 092E Alarm State:  0
Fri Jul 21 23:29:44 PDT 2017 ON: 20.02 +20.0 19.70 - 4.4 33.2 0D 13 4907 091B Alarm State:  0
Fri Jul 21 23:28:42 PDT 2017 ON: 20.03 +20.0 19.67 - 4.3 33.4 00 14 4810 0907 Alarm State:  0
Fri Jul 21 23:27:41 PDT 2017 ON: 20.01 +20.0 19.70 - 4.3 33.5 0D 13 4708 091B Alarm State:  0
Fri Jul 21 23:26:39 PDT 2017 ON: 19.99 +20.0 19.61 - 2.8 34.0 02 14 4724 0904 Alarm State:  0
Fri Jul 21 23:25:38 PDT 2017 ON: 19.99 +20.0 19.68 - 4.4 33.2 00 14 470D 0A12 Alarm State:  0
Fri Jul 21 23:24:36 PDT 2017 ON: 20.02 +20.0 19.59 - 3.0 33.7 00 14 4812 0916 Alarm State:  0
Fri Jul 21 23:23:35 PDT 2017 ON: 20.00 +20.0 19.67 - 3.9 33.5 07 14 480B 0920 Alarm State:  0
Fri Jul 21 23:22:33 PDT 2017 ON: 20.02 +20.0 19.68 - 4.3 33.7 0A 14 4817 0920 Alarm State:  0
Fri Jul 21 23:21:32 PDT 2017 ON: 20.01 +20.0 19.69 - 4.2 33.6 0A 14 470F 090B Alarm State:  0
Fri Jul 21 23:20:30 PDT 2017 ON: 20.02 +20.0 19.71 - 4.9 33.0 0D 13 4632 0916 Alarm State:  0
Fri Jul 21 23:19:29 PDT 2017 ON: 20.01 +20.0 19.68 - 4.7 32.9 00 14 470C 0A0F Alarm State:  0
Fri Jul 21 23:18:27 PDT 2017 ON: 19.96 +20.0 19.59 - 3.1 34.3 01 14 4801 092B Alarm State:  0
Fri Jul 21 23:17:26 PDT 2017 ON: 20.01 +20.0 19.66 - 3.6 34.0 02 14 4731 090D Alarm State:  0
Fri Jul 21 23:16:24 PDT 2017 ON: 20.01 +20.0 19.69 - 4.4 33.3 07 14 462E 0922 Alarm State:  0
Fri Jul 21 23:15:23 PDT 2017 ON: 20.02 +20.0 19.69 - 4.6 33.3 08 14 4714 091E Alarm State:  0
Fri Jul 21 23:14:21 PDT 2017 ON: 20.00 +20.0 19.69 - 4.3 33.3 0D 14 4704 0904 Alarm State:  0
Fri Jul 21 23:13:20 PDT 2017 ON: 20.02 +20.0 19.70 - 4.9 33.2 0D 13 470B 0925 Alarm State:  0
Fri Jul 21 23:12:18 PDT 2017 ON: 20.02 +20.0 19.69 - 4.7 33.0 00 14 4632 090F Alarm State:  0
Fri Jul 21 23:11:17 PDT 2017 ON: 19.97 +20.0 19.60 - 2.5 34.2 07 14 4716 090C Alarm State:  0
Fri Jul 21 23:10:15 PDT 2017 ON: 20.01 +20.0 19.68 - 4.1 33.6 00 14 4702 090F Alarm State:  0
Fri Jul 21 23:09:14 PDT 2017 ON: 20.02 +20.0 19.69 - 4.8 33.2 0A 14 4707 0901 Alarm State:  0
Fri Jul 21 23:08:12 PDT 2017 ON: 20.02 +20.0 19.72 - 5.3 32.4 05 13 4628 0A14 Alarm State:  0
Fri Jul 21 23:07:11 PDT 2017 ON: 19.97 +20.0 19.61 - 3.5 34.0 05 14 471C 0927 Alarm State:  0
Fri Jul 21 23:06:09 PDT 2017 ON: 20.00 +20.0 19.70 - 4.3 33.5 0D 13 472C 0923 Alarm State:  0
Fri Jul 21 23:05:08 PDT 2017 ON: 20.01 +20.0 19.68 - 4.3 33.2 02 14 4713 090C Alarm State:  0
Fri Jul 21 23:04:06 PDT 2017 ON: 20.04 +20.0 19.69 - 5.0 33.0 05 14 4713 0919 Alarm State:  0
Fri Jul 21 23:03:05 PDT 2017 ON: 20.00 +20.0 19.66 - 3.6 34.0 02 14 461F 0904 Alarm State:  0
Fri Jul 21 23:02:03 PDT 2017 ON: 20.01 +20.0 19.71 - 5.1 33.0 0D 13 4532 0A17 Alarm State:  0
Fri Jul 21 23:01:02 PDT 2017 ON: 19.98 +20.0 19.61 - 2.6 34.1 00 14 4705 0924 Alarm State:  0
Fri Jul 21 23:00:00 PDT 2017 ON: 20.01 +20.0 19.67 - 4.5 33.3 00 14 461C 0925 Alarm State:  0
Fri Jul 21 22:58:59 PDT 2017 ON: 20.01 +20.0 19.68 - 4.4 33.2 02 14 4712 0904 Alarm State:  0
Fri Jul 21 22:57:57 PDT 2017 ON: 20.00 +20.0 19.61 - 2.5 34.0 00 14 472A 090E Alarm State:  0
Fri Jul 21 22:56:56 PDT 2017 ON: 20.00 +20.0 19.66 - 4.1 33.7 05 14 470D 0920 Alarm State:  0
Fri Jul 21 22:55:54 PDT 2017 ON: 20.01 +20.0 19.71 - 4.4 33.5 0D 13 4713 0907 Alarm State:  0
Fri Jul 21 22:54:53 PDT 2017 ON: 20.02 +20.0 19.71 - 5.2 32.8 0D 13 4627 091B Alarm State:  0
Fri Jul 21 22:53:51 PDT 2017 ON: 19.97 +20.0 19.60 - 2.7 34.2 04 14 470E 0920 Alarm State:  0
Fri Jul 21 22:52:50 PDT 2017 ON: 19.99 +20.0 19.67 - 4.2 33.3 02 14 4715 0A10 Alarm State:  0
Fri Jul 21 22:51:48 PDT 2017 ON: 20.02 +20.0 19.67 - 4.2 33.2 00 14 4806 0909 Alarm State:  0
Fri Jul 21 22:50:47 PDT 2017 ON: 19.98 +20.0 19.64 - 3.4 34.1 0A 14 4805 0A01 Alarm State:  0
Fri Jul 21 22:49:45 PDT 2017 ON: 20.01 +20.0 19.68 - 4.2 33.8 02 14 4728 0920 Alarm State:  0
Fri Jul 21 22:48:44 PDT 2017 ON: 20.00 +20.0 19.66 - 3.4 34.1 02 14 4725 0903 Alarm State:  0
Fri Jul 21 22:47:42 PDT 2017 ON: 20.01 +20.0 19.65 - 4.1 33.8 0A 14 470B 090C Alarm State:  0
Fri Jul 21 22:46:41 PDT 2017 ON: 19.99 +20.0 19.66 - 4.1 33.8 05 14 4629 0918 Alarm State:  0
Fri Jul 21 22:45:39 PDT 2017 ON: 20.01 +20.0 19.70 - 4.7 33.2 0D 13 4625 0903 Alarm State:  0
Fri Jul 21 22:44:38 PDT 2017 ON: 20.02 +20.0 19.66 - 4.4 33.1 00 14 4626 090B Alarm State:  0
Fri Jul 21 22:43:36 PDT 2017 ON: 19.99 +20.0 19.66 - 3.7 34.0 02 14 462E 0925 Alarm State:  0
Fri Jul 21 22:42:35 PDT 2017 ON: 20.00 +20.0 19.70 - 4.5 33.4 0A 13 470A 0909 Alarm State:  0
Fri Jul 21 22:41:33 PDT 2017 ON: 20.03 +20.0 19.72 - 5.3 32.7 0D 12 471A 091F Alarm State:  0
Fri Jul 21 22:40:32 PDT 2017 ON: 19.97 +20.0 19.61 - 3.0 34.2 0A 14 4806 091B Alarm State:  0
Fri Jul 21 22:39:30 PDT 2017 ON: 20.00 +20.0 19.67 - 4.3 33.3 00 14 4810 0908 Alarm State:  0
Fri Jul 21 22:38:29 PDT 2017 ON: 20.02 +20.0 19.70 - 4.7 33.3 0D 13 481F 091B Alarm State:  0
Fri Jul 21 22:37:27 PDT 2017 ON: 20.01 +20.0 19.70 - 4.4 33.6 0A 13 4728 0907 Alarm State:  0
Fri Jul 21 22:36:26 PDT 2017 ON: 20.00 +20.0 19.69 - 4.4 33.4 0D 14 4715 0917 Alarm State:  0
Fri Jul 21 22:35:24 PDT 2017 ON: 20.01 +20.0 19.72 - 5.0 32.9 0A 13 4713 0A0E Alarm State:  0
Fri Jul 21 22:34:23 PDT 2017 ON: 19.99 +20.0 19.59 - 2.2 34.1 04 14 480B 0921 Alarm State:  0
Fri Jul 21 22:33:21 PDT 2017 ON: 20.00 +20.0 19.64 - 3.5 33.9 07 14 4801 091C Alarm State:  0
Fri Jul 21 22:32:20 PDT 2017 ON: 20.00 +20.0 19.62 - 2.7 34.2 05 14 4806 0908 Alarm State:  0
Fri Jul 21 22:31:18 PDT 2017 ON: 20.02 +20.0 19.68 - 4.2 33.7 02 14 4711 091B Alarm State:  0
Fri Jul 21 22:30:17 PDT 2017 ON: 20.00 +20.0 19.66 - 4.1 33.8 05 14 4625 0925 Alarm State:  0
Fri Jul 21 22:29:15 PDT 2017 ON: 20.01 +20.0 19.70 - 5.2 33.0 0D 13 461D 091A Alarm State:  0
Fri Jul 21 22:28:14 PDT 2017 ON: 19.98 +20.0 19.60 - 2.4 34.2 07 14 471B 090C Alarm State:  0
Fri Jul 21 22:27:12 PDT 2017 ON: 20.00 +20.0 19.66 - 3.6 33.9 07 14 470F 0907 Alarm State:  0
Fri Jul 21 22:26:11 PDT 2017 ON: 19.99 +20.0 19.66 - 3.9 34.0 02 14 4706 0911 Alarm State:  0
Fri Jul 21 22:25:09 PDT 2017 ON: 20.01 +20.0 19.68 - 4.3 33.8 00 14 4700 090A Alarm State:  0
Fri Jul 21 22:24:08 PDT 2017 ON: 20.02 +20.0 19.74 - 5.6 32.9 0D 11 4618 091E Alarm State:  0
Fri Jul 21 22:23:06 PDT 2017 ON: 19.98 +20.0 19.60 - 2.8 34.1 04 14 4705 0925 Alarm State:  0
Fri Jul 21 22:22:05 PDT 2017 ON: 20.00 +20.0 19.69 - 4.5 33.3 07 14 461B 0923 Alarm State:  0
Fri Jul 21 22:21:03 PDT 2017 ON: 20.02 +20.0 19.72 - 5.1 32.9 0D 12 462D 0914 Alarm State:  0
Fri Jul 21 22:20:02 PDT 2017 ON: 19.99 +20.0 19.59 - 2.4 34.1 01 14 4713 091A Alarm State:  0
Fri Jul 21 22:19:00 PDT 2017 ON: 20.01 +20.0 19.68 - 4.1 33.8 05 14 4620 0900 Alarm State:  0
Fri Jul 21 22:17:59 PDT 2017 ON: 20.02 +20.0 19.70 - 4.9 33.2 0D 13 4615 090C Alarm State:  0
Fri Jul 21 22:16:57 PDT 2017 ON: 19.99 +20.0 19.62 - 2.8 33.9 00 14 4704 0914 Alarm State:  0
Fri Jul 21 22:15:56 PDT 2017 ON: 19.99 +20.0 19.67 - 4.2 33.3 07 14 4620 0A18 Alarm State:  0
Fri Jul 21 22:14:54 PDT 2017 ON: 20.01 +20.0 19.69 - 4.4 33.2 0D 14 470F 0913 Alarm State:  0
Fri Jul 21 22:13:53 PDT 2017 ON: 20.01 +20.0 19.67 - 3.9 33.4 00 14 4718 0907 Alarm State:  0
Fri Jul 21 22:12:51 PDT 2017 ON: 20.02 +20.0 19.61 - 3.0 33.7 00 14 471E 0909 Alarm State:  0
Fri Jul 21 22:11:50 PDT 2017 ON: 20.00 +20.0 19.68 - 4.2 33.6 00 14 4626 091D Alarm State:  0
Fri Jul 21 22:10:48 PDT 2017 ON: 20.03 +20.0 19.72 - 5.6 32.7 0A 12 4628 091C Alarm State:  0
Fri Jul 21 22:09:47 PDT 2017 ON: 19.98 +20.0 19.61 - 3.0 34.2 0A 14 4714 092E Alarm State:  0
Fri Jul 21 22:08:45 PDT 2017 ON: 20.02 +20.0 19.69 - 4.8 33.1 05 14 462F 0927 Alarm State:  0
Fri Jul 21 22:07:44 PDT 2017 ON: 20.00 +20.0 19.64 - 2.9 34.0 00 14 4713 0907 Alarm State:  0
Fri Jul 21 22:06:42 PDT 2017 ON: 19.99 +20.0 19.60 - 3.0 33.9 00 14 472D 0919 Alarm State:  0
Fri Jul 21 22:05:41 PDT 2017 ON: 19.99 +20.0 19.64 - 3.3 34.2 0A 14 480D 0909 Alarm State:  0
Fri Jul 21 22:04:39 PDT 2017 ON: 20.01 +20.0 19.67 - 3.6 34.0 05 14 4805 0904 Alarm State:  0
Fri Jul 21 22:03:38 PDT 2017 ON: 20.01 +20.0 19.66 - 4.1 33.9 02 14 4713 0912 Alarm State:  0
Fri Jul 21 22:02:36 PDT 2017 ON: 20.02 +20.0 19.71 - 5.1 33.2 0D 13 4703 0911 Alarm State:  0
Fri Jul 21 22:01:35 PDT 2017 ON: 20.00 +20.0 19.62 - 3.3 33.6 00 14 4702 091F Alarm State:  0
Fri Jul 21 22:00:33 PDT 2017 ON: 19.99 +20.0 19.68 - 4.3 33.2 07 14 460F 0930 Alarm State:  0
Fri Jul 21 21:59:32 PDT 2017 ON: 20.03 +20.0 19.67 - 4.4 33.1 00 14 4707 091D Alarm State:  0
Fri Jul 21 21:58:30 PDT 2017 ON: 19.99 +20.0 19.61 - 3.1 33.8 00 14 470C 0911 Alarm State:  0
Fri Jul 21 21:57:29 PDT 2017 ON: 19.99 +20.0 19.65 - 4.0 33.3 00 14 470A 0A02 Alarm State:  0
Fri Jul 21 21:56:27 PDT 2017 ON: 20.02 +20.0 19.70 - 4.5 33.1 05 13 4729 0923 Alarm State:  0
Fri Jul 21 21:55:26 PDT 2017 ON: 20.01 +20.0 19.66 - 3.9 33.4 00 14 4719 090F Alarm State:  0
Fri Jul 21 21:54:24 PDT 2017 ON: 20.01 +20.0 19.62 - 3.0 33.7 00 14 471E 0911 Alarm State:  0
Fri Jul 21 21:53:23 PDT 2017 ON: 19.99 +20.0 19.68 - 4.4 33.5 05 14 4702 0920 Alarm State:  0
Fri Jul 21 21:52:21 PDT 2017 ON: 20.01 +20.0 19.70 - 4.4 33.5 0D 13 4713 0902 Alarm State:  0
Fri Jul 21 21:51:20 PDT 2017 ON: 20.01 +20.0 19.71 - 5.1 33.1 0D 13 4705 0909 Alarm State:  0
Fri Jul 21 21:50:18 PDT 2017 ON: 20.01 +20.0 19.62 - 3.3 33.7 02 14 470A 0903 Alarm State:  0
Fri Jul 21 21:49:17 PDT 2017 ON: 19.99 +20.0 19.65 - 4.3 33.3 07 14 462B 0A06 Alarm State:  0
Fri Jul 21 21:48:15 PDT 2017 ON: 20.03 +20.0 19.70 - 5.2 32.5 0D 14 470B 0A06 Alarm State:  0
Fri Jul 21 21:47:14 PDT 2017 ON: 19.97 +20.0 19.64 - 3.6 33.6 07 14 4727 0926 Alarm State:  0
Fri Jul 21 21:46:13 PDT 2017 ON: 20.01 +20.0 19.68 - 3.9 33.7 08 14 4809 091B Alarm State:  0
Fri Jul 21 21:45:11 PDT 2017 ON: 20.00 +20.0 19.63 - 3.1 33.9 05 14 4724 0928 Alarm State:  0
Fri Jul 21 21:44:10 PDT 2017 ON: 19.99 +20.0 19.67 - 4.1 33.4 05 14 4725 0931 Alarm State:  0
Fri Jul 21 21:43:08 PDT 2017 ON: 20.01 +20.0 19.70 - 4.0 33.7 0D 13 4802 090F Alarm State:  0
Fri Jul 21 21:42:07 PDT 2017 ON: 19.99 +20.0 19.62 - 3.0 34.0 07 14 4714 0915 Alarm State:  0
Fri Jul 21 21:41:05 PDT 2017 ON: 20.01 +20.0 19.69 - 4.6 33.2 07 14 461D 0924 Alarm State:  0
Fri Jul 21 21:40:04 PDT 2017 ON: 20.02 +20.0 19.69 - 4.8 32.8 05 14 4701 0909 Alarm State:  0
Fri Jul 21 21:39:02 PDT 2017 ON: 19.99 +20.0 19.63 - 3.4 34.1 05 14 4709 0922 Alarm State:  0
Fri Jul 21 21:38:01 PDT 2017 ON: 20.00 +20.0 19.69 - 4.8 33.2 0D 14 4702 0A14 Alarm State:  0
Fri Jul 21 21:36:59 PDT 2017 ON: 20.00 +20.0 19.60 - 2.4 34.0 00 14 480D 091A Alarm State:  0
Fri Jul 21 21:35:58 PDT 2017 ON: 20.01 +20.0 19.65 - 3.6 33.8 05 14 4727 0901 Alarm State:  0
Fri Jul 21 21:34:56 PDT 2017 ON: 19.99 +20.0 19.62 - 3.1 33.9 02 14 471B 0906 Alarm State:  0
Fri Jul 21 21:33:55 PDT 2017 ON: 19.99 +20.0 19.66 - 4.0 33.5 00 14 4718 0929 Alarm State:  0
Fri Jul 21 21:32:53 PDT 2017 ON: 20.03 +20.0 19.70 - 4.5 33.5 0D 13 4732 0905 Alarm State:  0
Fri Jul 21 21:31:52 PDT 2017 ON: 20.01 +20.0 19.68 - 4.1 33.8 00 14 4717 0917 Alarm State:  0
Fri Jul 21 21:30:50 PDT 2017 ON: 20.01 +20.0 19.69 - 4.5 33.8 0D 14 4709 0914 Alarm State:  0
Fri Jul 21 21:29:49 PDT 2017 ON: 20.01 +20.0 19.66 - 4.2 33.8 00 14 4619 0926 Alarm State:  0
Fri Jul 21 21:28:47 PDT 2017 ON: 20.01 +20.0 19.71 - 4.7 33.2 0A 13 4611 0921 Alarm State:  0
Fri Jul 21 21:27:46 PDT 2017 ON: 20.01 +20.0 19.61 - 2.8 33.8 02 14 4715 0913 Alarm State:  0
Fri Jul 21 21:26:44 PDT 2017 ON: 20.00 +20.0 19.64 - 3.9 34.0 0A 14 4622 0928 Alarm State:  0
Fri Jul 21 21:25:43 PDT 2017 ON: 20.00 +20.0 19.70 - 4.8 33.1 0D 14 4603 0A13 Alarm State:  0
Fri Jul 21 21:24:41 PDT 2017 ON: 19.99 +20.0 19.62 - 2.8 33.8 02 14 470A 0925 Alarm State:  0
Fri Jul 21 21:23:40 PDT 2017 ON: 19.98 +20.0 19.63 - 3.4 34.1 07 14 4721 0A09 Alarm State:  0